Provisional Data: West Branch Owego Creek near Speedsville, NY


Please select a monitoring station.
Please select start date.
Please select start date.

Toggle Unit: C/F Toggle Unit: C/F
Sample Time Temperature (C) Temperature (F) Specific Conductivity (mS/cm) pH   Turbidity (NTU+) DO (mg/L)
3/23/2021 12:00:00 AM 5.12 41.216 0.094 6.72 7.61 12
3/23/2021 12:15:00 AM 5.02 41.036 0.094 6.67 7.04 12.04
3/23/2021 12:30:00 AM 4.91 40.838 0.094 6.72 10.91 12.07
3/23/2021 12:45:00 AM 4.8 40.64 0.094 6.7 10.5 12.11
3/23/2021 1:00:00 AM 4.7 40.46 0.094 6.66 11.48 12.14
3/23/2021 1:15:00 AM 4.6 40.28 0.094 6.72 12.32 12.18
3/23/2021 1:30:00 AM 4.5 40.1 0.094 6.71 12.6 12.21
3/23/2021 1:45:00 AM 4.4 39.92 0.094 6.68 16.96 12.25
3/23/2021 2:00:00 AM 4.3 39.74 0.094 6.72 22.02 12.28
3/23/2021 2:15:00 AM 4.22 39.596 0.094 6.76 24.21 12.31
3/23/2021 2:30:00 AM 4.13 39.434 0.094 6.76 25.1 12.34
3/23/2021 2:45:00 AM 4.05 39.29 0.094 6.81 26.98 12.38
3/23/2021 3:00:00 AM 3.97 39.146 0.094 6.82 29.04 12.4
3/23/2021 3:15:00 AM 3.88 38.984 0.094 6.78 29.55 12.43
3/23/2021 3:30:00 AM 3.81 38.858 0.094 6.8 28.7 12.46
3/23/2021 3:45:00 AM 3.73 38.714 0.094 6.75 26.7 12.49
3/23/2021 4:00:00 AM 3.65 38.57 0.094 6.74 20.51 12.51
3/23/2021 4:15:00 AM 3.58 38.444 0.094 6.73 17.52 12.54
3/23/2021 4:30:00 AM 3.51 38.318 0.094 6.71 20.62 12.56
3/23/2021 4:45:00 AM 3.44 38.192 0.094 6.76 17.78 12.59
3/23/2021 5:00:00 AM 3.38 38.084 0.094 6.78 17.93 12.61
3/23/2021 5:15:00 AM 3.32 37.976 0.094 6.87 23.62 12.63
3/23/2021 5:30:00 AM 3.26 37.868 0.095 6.93 22.94 12.64
3/23/2021 5:45:00 AM 3.2 37.76 0.095 6.94 26.31 12.67
3/23/2021 6:00:00 AM 3.14 37.652 0.095 6.94 25.32 12.7
3/23/2021 6:15:00 AM 3.08 37.544 0.095 6.92 21.31 12.71
3/23/2021 6:30:00 AM 3.02 37.436 0.095 6.92 19.94 12.74
3/23/2021 6:45:00 AM 2.96 37.328 0.095 6.85 16.76 12.75
3/23/2021 7:00:00 AM 2.91 37.238 0.095 6.76 18.92 12.78
3/23/2021 7:15:00 AM 2.86 37.148 0.095 6.78 19.75 12.8
3/23/2021 7:30:00 AM 2.8 37.04 0.095 6.78 15.83 12.83
3/23/2021 7:45:00 AM 2.76 36.968 0.095 6.84 16.71 12.87
3/23/2021 8:00:00 AM 2.72 36.896 0.095 6.85 18.4 12.92
3/23/2021 8:15:00 AM 2.69 36.842 0.095 6.86 16.3 12.96
3/23/2021 8:30:00 AM 2.67 36.806 0.095 6.87 15.93 12.99
3/23/2021 8:45:00 AM 2.66 36.788 0.095 6.88 16.48 13.04
3/23/2021 9:00:00 AM 2.67 36.806 0.096 6.96 22.52 13.08
3/23/2021 9:15:00 AM 2.7 36.86 0.095 6.95 25.7 13.11
3/23/2021 9:30:00 AM 2.75 36.95 0.095 6.98 19.99 13.15
3/23/2021 9:45:00 AM 2.83 37.094 0.095 7 20.91 13.18
3/23/2021 10:00:00 AM 2.94 37.292 0.095 7.03 16.7 13.19
3/23/2021 10:15:00 AM 3.06 37.508 0.095 7.06 14.26 13.2
3/23/2021 10:30:00 AM 3.21 37.778 0.074 7.08 20.89 13.21
3/23/2021 10:45:00 AM 3.39 38.102 0.095 7.1 18.07 13.19
3/23/2021 11:00:00 AM 3.59 38.462 0.095 7.13 20.14 13.17
3/23/2021 11:15:00 AM 3.81 38.858 0.092 7.13 87.76 13.14
3/23/2021 11:30:00 AM 4.04 39.272 0.095 7.15 72.83 13.1
3/23/2021 11:45:00 AM 4.28 39.704 0.095 7.17 17.88 13.05
3/23/2021 12:00:00 PM 4.53 40.154 0.094 7.18 16.53 13.01
3/23/2021 12:15:00 PM 4.76 40.568 0.032 7.12 24.58 12.97
3/23/2021 12:30:00 PM 5 41 0.095 7.21 30.95 12.91
3/23/2021 12:45:00 PM 5.22 41.396 0.095 7.23 28.65 12.86
3/23/2021 1:00:00 PM 5.45 41.81 0.094 7.24 15.98 12.8
3/23/2021 1:15:00 PM 5.66 42.188 0.074 7.22 13.4 12.75
3/23/2021 1:30:00 PM 5.88 42.584 0.062 7.22 25.82 12.72
3/23/2021 1:45:00 PM 6.07 42.926 0.065 7.22 35.88 12.66
3/23/2021 2:00:00 PM 6.25 43.25 0.06 7.23 46.32 12.61
3/23/2021 2:15:00 PM 6.41 43.538 0.062 7.23 32.54 12.55
3/23/2021 2:30:00 PM 6.55 43.79 0.057 7.2 26.74 12.5
3/23/2021 2:45:00 PM 6.65 43.97 0.057 7.23 18.91 12.45
3/23/2021 3:00:00 PM 6.75 44.15 0.053 7.2 21.8 12.4
3/23/2021 3:15:00 PM 6.82 44.276 0.052 7.19 20.21 12.36
3/23/2021 3:30:00 PM 6.83 44.294 0.049 7.19 40.8 12.31
3/23/2021 3:45:00 PM 6.87 44.366 0.045 7.27 22.25 12.27
3/23/2021 4:00:00 PM 6.91 44.438 0.045 7.25 96.3 12.24
3/23/2021 4:15:00 PM 6.94 44.492 0.044 7.25 95.63 12.2
3/23/2021 4:30:00 PM 6.99 44.582 0.043 7.24 95.05 12.16
3/23/2021 4:45:00 PM 7.04 44.672 0.042 7.26 91.2 12.13
3/23/2021 5:00:00 PM 7.08 44.744 0.04 7.25 149.11 12.09
3/23/2021 5:15:00 PM 7.1 44.78 0.038 7.2 68.77 12.05
3/23/2021 5:30:00 PM 7.1 44.78 0.037 7.15 83.67 11.98
3/23/2021 5:45:00 PM 7.15 44.87 0.036 7.15 68.62 11.94
3/23/2021 6:00:00 PM 7.16 44.888 0.035 7.04 223.37 11.89
3/23/2021 6:15:00 PM 7.17 44.906 0.035 7.03 13.68 11.84
3/23/2021 6:30:00 PM 7.18 44.924 0.033 7.01 9.24 11.77
3/23/2021 6:45:00 PM 7.18 44.924 0.038 6.96 8.81 11.72
3/23/2021 7:00:00 PM 7.19 44.942 0.09 7.01 8.48 11.67
3/23/2021 7:15:00 PM 7.18 44.924 0.089 7.01 8.29 11.62
3/23/2021 7:30:00 PM 7.15 44.87 0.089 6.99 8.45 11.59
3/23/2021 7:45:00 PM 7.1 44.78 0.089 6.95 9.32 11.56
3/23/2021 8:00:00 PM 7.05 44.69 0.088 6.94 9.82 11.54
3/23/2021 8:15:00 PM 6.99 44.582 0.088 6.93 10.1 11.53
3/23/2021 8:30:00 PM 6.92 44.456 0.088 6.89 10.27 11.53
3/23/2021 8:45:00 PM 6.85 44.33 0.087 6.87 10.02 11.53
3/23/2021 9:00:00 PM 6.78 44.204 0.087 6.86 10.21 11.54
3/23/2021 9:15:00 PM 6.7 44.06 0.087 6.85 9.87 11.55
3/23/2021 9:30:00 PM 6.62 43.916 0.087 6.84 10.45 11.57
3/23/2021 9:45:00 PM 6.53 43.754 0.087 6.85 9.98 11.59
3/23/2021 10:00:00 PM 6.44 43.592 0.087 6.82 9.96 11.61
3/23/2021 10:15:00 PM 6.35 43.43 0.086 6.81 10.42 11.64
3/23/2021 10:30:00 PM 6.25 43.25 0.086 6.78 10.2 11.65
3/23/2021 10:45:00 PM 6.16 43.088 0.086 6.78 9.59 11.68
3/23/2021 11:00:00 PM 6.06 42.908 0.086 6.76 9.36 11.69
3/23/2021 11:15:00 PM 5.97 42.746 0.086 6.75 9.95 11.72
3/23/2021 11:30:00 PM 5.87 42.566 0.086 6.77 9.87 11.74
3/23/2021 11:45:00 PM 5.77 42.386 0.086 6.73 9.66 11.77
3/24/2021 12:00:00 AM 5.68 42.224 0.086 6.74 9.89 11.79
3/24/2021 12:15:00 AM 5.59 42.062 0.086 6.73 9.72 11.83
3/24/2021 12:30:00 AM 5.5 41.9 0.086 6.77 9.52 11.86
3/24/2021 12:45:00 AM 5.41 41.738 0.086 6.79 9.42 11.88
3/24/2021 1:00:00 AM 5.33 41.594 0.086 6.74 8.86 11.9
3/24/2021 1:15:00 AM 5.25 41.45 0.086 6.74 9.3 11.93
3/24/2021 1:30:00 AM 5.17 41.306 0.086 6.77 8.51 11.96
3/24/2021 1:45:00 AM 5.1 41.18 0.086 6.77 9.23 11.98
3/24/2021 2:00:00 AM 5.03 41.054 0.086 6.75 9.38 12.01
3/24/2021 2:15:00 AM 4.97 40.946 0.086 6.73 8.76 12.03
3/24/2021 2:30:00 AM 4.91 40.838 0.086 6.74 9.07 12.05
3/24/2021 2:45:00 AM 4.86 40.748 0.086 6.76 8.52 12.07
3/24/2021 3:00:00 AM 4.81 40.658 0.086 6.78 8.17 12.08
3/24/2021 3:15:00 AM 4.76 40.568 0.086 6.81 8.7 12.1
3/24/2021 3:30:00 AM 4.72 40.496 0.086 6.81 8.04 12.11
3/24/2021 3:45:00 AM 4.68 40.424 0.086 6.81 8.76 12.13
3/24/2021 4:00:00 AM 4.64 40.352 0.086 6.78 8.15 12.14
3/24/2021 4:15:00 AM 4.61 40.298 0.086 6.8 7.81 12.15
3/24/2021 4:30:00 AM 4.58 40.244 0.086 6.81 7.77 12.16
3/24/2021 4:45:00 AM 4.56 40.208 0.086 6.81 7.74 12.17
3/24/2021 5:00:00 AM 4.54 40.172 0.086 6.82 7.62 12.18
3/24/2021 5:15:00 AM 4.52 40.136 0.086 6.83 7.73 12.18
3/24/2021 5:30:00 AM 4.51 40.118 0.086 6.85 7.58 12.19
3/24/2021 5:45:00 AM 4.5 40.1 0.086 6.87 7.38 12.2
3/24/2021 6:00:00 AM 4.49 40.082 0.086 6.88 7.51 12.2
3/24/2021 6:15:00 AM 4.49 40.082 0.086 6.88 7.08 12.2
3/24/2021 6:30:00 AM 4.48 40.064 0.086 6.88 7.27 12.21
3/24/2021 6:45:00 AM 4.47 40.046 0.086 6.9 6.71 12.21
3/24/2021 7:00:00 AM 4.47 40.046 0.086 6.88 7.12 12.21
3/24/2021 7:15:00 AM 4.47 40.046 0.086 6.89 6.96 12.22
3/24/2021 7:30:00 AM 4.47 40.046 0.086 6.87 7.5 12.22
3/24/2021 7:45:00 AM 4.47 40.046 0.086 6.87 6.93 12.23
3/24/2021 8:00:00 AM 4.48 40.064 0.086 6.87 6.85 12.24
3/24/2021 8:15:00 AM 4.49 40.082 0.086 6.89 6.73 12.25
3/24/2021 8:30:00 AM 4.5 40.1 0.086 6.87 6.78 12.26
3/24/2021 8:45:00 AM 4.51 40.118 0.086 6.84 6.73 12.27
3/24/2021 9:00:00 AM 4.52 40.136 0.085 6.86 6.93 12.28
3/24/2021 9:15:00 AM 4.54 40.172 0.085 6.83 7.44 12.28
3/24/2021 9:30:00 AM 4.56 40.208 0.085 6.83 6.69 12.29
3/24/2021 9:45:00 AM 4.57 40.226 0.085 6.82 7.57 12.3
3/24/2021 10:00:00 AM 4.6 40.28 0.085 6.83 6.99 12.32
3/24/2021 10:15:00 AM 4.62 40.316 0.085 6.83 7.6 12.33
3/24/2021 10:30:00 AM 4.65 40.37 0.085 6.83 7.94 12.35
3/24/2021 10:45:00 AM 4.69 40.442 0.085 6.87 8.03 12.37
3/24/2021 11:00:00 AM 4.72 40.496 0.084 6.9 8.71 12.38
3/24/2021 11:15:00 AM 4.75 40.55 0.084 6.93 9.8 12.38
3/24/2021 11:30:00 AM 4.78 40.604 0.083 6.93 9.9 12.37
3/24/2021 11:45:00 AM 4.82 40.676 0.083 6.94 10.98 12.36
3/24/2021 12:00:00 PM 4.85 40.73 0.083 6.95 12.1 12.36
3/24/2021 12:15:00 PM 4.88 40.784 0.083 6.99 13.48 12.34
3/24/2021 12:30:00 PM 4.92 40.856 0.082 6.99 14.52 12.32
3/24/2021 12:45:00 PM 4.95 40.91 0.082 7 16.62 12.3
3/24/2021 1:00:00 PM 4.98 40.964 0.082 6.98 18.24 12.28
3/24/2021 1:15:00 PM 5.01 41.018 0.082 6.97 20.68 12.26
3/24/2021 1:30:00 PM 5.04 41.072 0.081 6.95 22.84 12.24
3/24/2021 1:45:00 PM 5.06 41.108 0.081 6.93 31.26 12.22
3/24/2021 2:00:00 PM 5.09 41.162 0.08 6.92 24.87 12.21
3/24/2021 2:15:00 PM 5.13 41.234 0.08 6.95 26.59 12.21
3/24/2021 2:30:00 PM 5.19 41.342 0.079 6.95 25.1 12.19
3/24/2021 2:45:00 PM 5.24 41.432 0.079 6.96 32.37 12.18
3/24/2021 3:00:00 PM 5.28 41.504 0.078 6.94 36.56 12.17
3/24/2021 3:15:00 PM 5.31 41.558 0.077 6.96 36.17 12.15
3/24/2021 3:30:00 PM 5.34 41.612 0.076 6.95 33.63 12.13
3/24/2021 3:45:00 PM 5.37 41.666 0.076 6.93 29.49 12.11
3/24/2021 4:00:00 PM 5.41 41.738 0.075 6.92 33.28 12.09
3/24/2021 4:15:00 PM 5.45 41.81 0.075 6.92 40.37 12.08
3/24/2021 4:30:00 PM 5.48 41.864 0.074 6.89 52.28 12.06
3/24/2021 4:45:00 PM 5.51 41.918 0.074 6.89 45.47 12.04
3/24/2021 5:00:00 PM 5.53 41.954 0.074 6.84 40.63 12.02
3/24/2021 5:15:00 PM 5.56 42.008 0.074 6.84 39.53 12.01
3/24/2021 5:30:00 PM 5.59 42.062 0.074 6.81 35.91 11.99
3/24/2021 5:45:00 PM 5.62 42.116 0.075 6.81 90.1 11.97
3/24/2021 6:00:00 PM 5.65 42.17 0.075 6.81 40.3 11.95
3/24/2021 6:15:00 PM 5.68 42.224 0.075 6.81 37.37 11.94
3/24/2021 6:30:00 PM 5.7 42.26 0.076 6.8 32.65 11.92
3/24/2021 6:45:00 PM 5.73 42.314 0.076 6.82 32.37 11.89
3/24/2021 7:00:00 PM 5.74 42.332 0.077 6.81 27.09 11.88
3/24/2021 7:15:00 PM 5.76 42.368 0.077 6.8 30.22 11.87
3/24/2021 7:30:00 PM 5.77 42.386 0.077 6.8 31.93 11.86
3/24/2021 7:45:00 PM 5.78 42.404 0.078 6.82 31.55 11.85
3/24/2021 8:00:00 PM 5.79 42.422 0.078 6.81 27.5 11.84
3/24/2021 8:15:00 PM 5.79 42.422 0.078 6.8 31.88 11.82
3/24/2021 8:30:00 PM 5.79 42.422 0.078 6.8 29.18 11.82
3/24/2021 8:45:00 PM 5.79 42.422 0.078 6.81 28.71 11.81
3/24/2021 9:00:00 PM 5.78 42.404 0.078 6.83 26.87 11.81
3/24/2021 9:15:00 PM 5.78 42.404 0.078 6.79 25.28 11.81
3/24/2021 9:30:00 PM 5.78 42.404 0.078 6.8 25.71 11.8
3/24/2021 9:45:00 PM 5.77 42.386 0.078 6.8 25.1 11.79
3/24/2021 10:00:00 PM 5.77 42.386 0.078 6.8 22.33 11.8
3/24/2021 10:15:00 PM 5.76 42.368 0.078 6.8 22.94 11.8
3/24/2021 10:30:00 PM 5.76 42.368 0.078 6.8 21.56 11.78
3/24/2021 10:45:00 PM 5.75 42.35 0.078 6.81 22.33 11.79
3/24/2021 11:00:00 PM 5.75 42.35 0.078 6.81 20.52 11.79
3/24/2021 11:15:00 PM 5.74 42.332 0.078 6.8 20.06 11.79
3/24/2021 11:30:00 PM 5.73 42.314 0.078 6.81 20.23 11.79
3/24/2021 11:45:00 PM 5.71 42.278 0.078 6.81 19.29 11.79
3/25/2021 12:00:00 AM 5.71 42.278 0.078 6.81 19.23 11.8
3/25/2021 12:15:00 AM 5.7 42.26 0.077 6.8 18.74 11.79
3/25/2021 12:30:00 AM 5.69 42.242 0.077 6.79 18.46 11.8
3/25/2021 12:45:00 AM 5.69 42.242 0.077 6.81 17.87 11.79
3/25/2021 1:00:00 AM 5.68 42.224 0.077 6.81 17.67 11.79
3/25/2021 1:15:00 AM 5.68 42.224 0.077 6.82 17.02 11.81
3/25/2021 1:30:00 AM 5.68 42.224 0.077 6.82 16.8 11.8
3/25/2021 1:45:00 AM 5.68 42.224 0.077 6.82 16.4 11.8
3/25/2021 2:00:00 AM 5.68 42.224 0.077 6.83 15.93 11.8
3/25/2021 2:15:00 AM 5.68 42.224 0.077 6.83 16.5 11.8
3/25/2021 2:30:00 AM 5.68 42.224 0.077 6.82 15.39 11.8
3/25/2021 2:45:00 AM 5.68 42.224 0.077 6.82 15.22 11.79
3/25/2021 3:00:00 AM 5.68 42.224 0.077 6.83 15.81 11.79
3/25/2021 3:15:00 AM 5.69 42.242 0.076 6.82 15.26 11.8
3/25/2021 3:30:00 AM 5.7 42.26 0.076 6.82 14.9 11.78
3/25/2021 3:45:00 AM 5.7 42.26 0.076 6.82 14.87 11.78
3/25/2021 4:00:00 AM 5.7 42.26 0.076 6.83 15.08 11.78
3/25/2021 4:15:00 AM 5.71 42.278 0.076 6.82 14.75 11.78
3/25/2021 4:30:00 AM 5.71 42.278 0.076 6.83 14.1 11.78
3/25/2021 4:45:00 AM 5.71 42.278 0.076 6.83 14.38 11.78
3/25/2021 5:00:00 AM 5.71 42.278 0.076 6.83 13.95 11.78
3/25/2021 5:15:00 AM 5.71 42.278 0.076 6.83 14.04 11.79
3/25/2021 5:30:00 AM 5.71 42.278 0.076 6.83 13.93 11.79
3/25/2021 5:45:00 AM 5.7 42.26 0.076 6.83 13.36 11.78
3/25/2021 6:00:00 AM 5.69 42.242 0.076 6.84 13.76 11.79
3/25/2021 6:15:00 AM 5.68 42.224 0.076 6.82 13.17 11.79
3/25/2021 6:30:00 AM 5.68 42.224 0.076 6.83 13.04 11.79
3/25/2021 6:45:00 AM 5.67 42.206 0.076 6.83 13.06 11.79
3/25/2021 7:00:00 AM 5.66 42.188 0.076 6.83 13.06 11.79
3/25/2021 7:15:00 AM 5.66 42.188 0.076 6.83 13.24 11.8
3/25/2021 7:30:00 AM 5.66 42.188 0.076 6.84 13.08 11.8
3/25/2021 7:45:00 AM 5.66 42.188 0.076 6.84 13.12 11.82
3/25/2021 8:00:00 AM 5.67 42.206 0.075 6.83 12.5 11.84
3/25/2021 8:15:00 AM 5.68 42.224 0.075 6.83 11.2 11.85
3/25/2021 8:30:00 AM 5.7 42.26 0.075 6.84 11.87 11.87
3/25/2021 8:45:00 AM 5.72 42.296 0.075 6.86 12.15 11.89
3/25/2021 9:00:00 AM 5.76 42.368 0.075 6.88 11.24 11.91
3/25/2021 9:15:00 AM 5.81 42.458 0.075 6.89 10.93 11.93
3/25/2021 9:30:00 AM 5.87 42.566 0.075 6.9 10.97 11.96
3/25/2021 9:45:00 AM 5.94 42.692 0.075 6.93 10.6 11.99
3/25/2021 10:00:00 AM 6.01 42.818 0.075 6.94 10.5 11.99
3/25/2021 10:15:00 AM 6.08 42.944 0.075 6.95 10.53 12.01
3/25/2021 10:30:00 AM 6.18 43.124 0.075 6.98 10.62 12.03
3/25/2021 10:45:00 AM 6.28 43.304 0.075 6.98 10.19 12.02
3/25/2021 11:00:00 AM 6.41 43.538 0.075 7.02 9.88 12.02
3/25/2021 11:15:00 AM 6.56 43.808 0.075 7.02 10.05 12.01
3/25/2021 11:30:00 AM 6.72 44.096 0.075 7.04 9.89 11.99
3/25/2021 11:45:00 AM 6.9 44.42 0.075 7.05 9.71 11.97
3/25/2021 12:00:00 PM 7.1 44.78 0.075 7.08 9.68 11.94
3/25/2021 12:15:00 PM 7.31 45.158 0.075 7.09 10.52 11.91
3/25/2021 12:30:00 PM 7.53 45.554 0.075 7.11 9.65 11.88
3/25/2021 12:45:00 PM 7.74 45.932 0.075 7.12 9.9 11.84
3/25/2021 1:00:00 PM 7.95 46.31 0.075 7.15 9.68 11.8
3/25/2021 1:15:00 PM 8.16 46.688 0.075 7.14 9.56 11.76
3/25/2021 1:30:00 PM 8.36 47.048 0.075 7.15 9.41 11.72
3/25/2021 1:45:00 PM 8.52 47.336 0.075 7.17 9.98 11.66
3/25/2021 2:00:00 PM 8.66 47.588 0.075 7.15 10.09 11.61
3/25/2021 2:15:00 PM 8.8 47.84 0.075 7.15 9.91 11.57
3/25/2021 2:30:00 PM 8.96 48.128 0.075 7.17 9.64 11.53
3/25/2021 2:45:00 PM 9.09 48.362 0.075 7.16 9.74 11.49
3/25/2021 3:00:00 PM 9.22 48.596 0.075 7.18 10.08 11.44
3/25/2021 3:15:00 PM 9.35 48.83 0.075 7.16 10.1 11.4
3/25/2021 3:30:00 PM 9.47 49.046 0.075 7.17 10.78 11.35
3/25/2021 3:45:00 PM 9.57 49.226 0.075 7.17 10.94 11.29
3/25/2021 4:00:00 PM 9.65 49.37 0.075 7.17 10.94 11.24
3/25/2021 4:15:00 PM 9.73 49.514 0.075 7.16 11.42 11.19
3/25/2021 4:30:00 PM 9.8 49.64 0.075 7.16 11.61 11.14
3/25/2021 4:45:00 PM 9.87 49.766 0.075 7.15 12.21 11.09
3/25/2021 5:00:00 PM 9.93 49.874 0.075 7.15 12.03 11.03
3/25/2021 5:15:00 PM 9.99 49.982 0.075 7.14 12.49 10.98
3/25/2021 5:30:00 PM 10.05 50.09 0.075 7.13 12.6 10.93
3/25/2021 5:45:00 PM 10.11 50.198 0.075 7.12 12.68 10.88
3/25/2021 6:00:00 PM 10.16 50.288 0.075 7.11 12.25 10.83
3/25/2021 6:15:00 PM 10.19 50.342 0.075 7.1 12.49 10.78
3/25/2021 6:30:00 PM 10.21 50.378 0.075 7.08 11.76 10.74
3/25/2021 6:45:00 PM 10.22 50.396 0.075 7.08 11.73 10.71
3/25/2021 7:00:00 PM 10.21 50.378 0.075 7.05 11.51 10.67
3/25/2021 7:15:00 PM 10.18 50.324 0.076 7.04 11.91 10.65
3/25/2021 7:30:00 PM 10.14 50.252 0.076 7.02 12.07 10.62
3/25/2021 7:45:00 PM 10.1 50.18 0.076 7 11.68 10.6
3/25/2021 8:00:00 PM 10.04 50.072 0.076 6.99 11.8 10.59
3/25/2021 8:15:00 PM 9.98 49.964 0.076 6.98 12.34 10.58
3/25/2021 8:30:00 PM 9.91 49.838 0.077 6.96 11.4 10.59
3/25/2021 8:45:00 PM 9.83 49.694 0.077 6.94 11.8 10.59
3/25/2021 9:00:00 PM 9.75 49.55 0.077 6.93 12.17 10.6
3/25/2021 9:15:00 PM 9.67 49.406 0.077 6.91 11.8 10.61
3/25/2021 9:30:00 PM 9.59 49.262 0.078 6.92 11.5 10.62
3/25/2021 9:45:00 PM 9.51 49.118 0.078 6.91 11.68 10.63
3/25/2021 10:00:00 PM 9.42 48.956 0.079 6.9 11.41 10.65
3/25/2021 10:15:00 PM 9.34 48.812 0.079 6.9 11.34 10.66
3/25/2021 10:30:00 PM 9.26 48.668 0.079 6.89 11.18 10.68
3/25/2021 10:45:00 PM 9.18 48.524 0.08 6.89 11.11 10.69
3/25/2021 11:00:00 PM 9.1 48.38 0.08 6.9 11.28 10.7
3/25/2021 11:15:00 PM 9.03 48.254 0.081 6.89 11.07 10.72
3/25/2021 11:30:00 PM 8.96 48.128 0.081 6.89 11.07 10.73
3/25/2021 11:45:00 PM 8.9 48.02 0.081 6.88 11.37 10.75
3/26/2021 12:00:00 AM 8.85 47.93 0.081 6.9 11.09 10.76
3/26/2021 12:15:00 AM 8.8 47.84 0.082 6.91 10.98 10.77
3/26/2021 12:30:00 AM 8.75 47.75 0.082 6.92 10.67 10.78
3/26/2021 12:45:00 AM 8.7 47.66 0.082 6.91 10.82 10.79
3/26/2021 1:00:00 AM 8.67 47.606 0.083 6.93 10.44 10.8
3/26/2021 1:15:00 AM 8.63 47.534 0.083 6.93 10.4 10.8
3/26/2021 1:30:00 AM 8.59 47.462 0.083 6.93 10.69 10.82
3/26/2021 1:45:00 AM 8.55 47.39 0.084 6.95 10.55 10.82
3/26/2021 2:00:00 AM 8.51 47.318 0.084 6.95 10.46 10.83
3/26/2021 2:15:00 AM 8.47 47.246 0.084 6.95 10.29 10.83
3/26/2021 2:30:00 AM 8.44 47.192 0.084 6.95 10.22 10.84
3/26/2021 2:45:00 AM 8.4 47.12 0.085 6.96 9.93 10.85
3/26/2021 3:00:00 AM 8.36 47.048 0.085 6.96 10.19 10.85
3/26/2021 3:15:00 AM 8.32 46.976 0.085 6.97 10.27 10.86
3/26/2021 3:30:00 AM 8.29 46.922 0.086 6.95 10.11 10.87
3/26/2021 3:45:00 AM 8.26 46.868 0.086 6.95 9.82 10.87
3/26/2021 4:00:00 AM 8.23 46.814 0.086 6.96 10.32 10.87
3/26/2021 4:15:00 AM 8.21 46.778 0.086 6.96 9.64 10.88
3/26/2021 4:30:00 AM 8.19 46.742 0.087 6.94 10.15 10.88
3/26/2021 4:45:00 AM 8.17 46.706 0.087 6.95 9.87 10.88
3/26/2021 5:00:00 AM 8.16 46.688 0.087 6.95 9.86 10.88
3/26/2021 5:15:00 AM 8.14 46.652 0.088 6.94 9.76 10.88
3/26/2021 5:30:00 AM 8.13 46.634 0.088 6.94 9.94 10.89
3/26/2021 5:45:00 AM 8.11 46.598 0.088 6.95 9.42 10.89
3/26/2021 6:00:00 AM 8.1 46.58 0.088 6.95 9.7 10.88
3/26/2021 6:15:00 AM 8.08 46.544 0.089 6.94 9.58 10.88
3/26/2021 6:30:00 AM 8.07 46.526 0.089 6.93 9.38 10.88
3/26/2021 6:45:00 AM 8.06 46.508 0.089 6.94 9.46 10.88
3/26/2021 7:00:00 AM 8.06 46.508 0.089 6.95 9.7 10.88
3/26/2021 7:15:00 AM 8.06 46.508 0.089 6.94 9.53 10.88
3/26/2021 7:30:00 AM 8.04 46.472 0.09 6.93 9.74 10.88
3/26/2021 7:45:00 AM 8.03 46.454 0.09 6.94 9.44 10.89
3/26/2021 8:00:00 AM 8.05 46.49 0.09 6.94 9.15 10.91
3/26/2021 8:15:00 AM 8.07 46.526 0.09 6.95 9.22 10.92
3/26/2021 8:30:00 AM 8.09 46.562 0.09 6.95 9.44 10.94
3/26/2021 8:45:00 AM 8.14 46.652 0.09 6.96 8.79 10.98
3/26/2021 9:00:00 AM 8.2 46.76 0.091 6.98 8.57 11.02
3/26/2021 9:15:00 AM 8.26 46.868 0.091 7 8.6 11.05
3/26/2021 9:30:00 AM 8.35 47.03 0.091 7.01 7.86 11.08
3/26/2021 9:45:00 AM 8.46 47.228 0.091 7.04 7.95 11.1
3/26/2021 10:00:00 AM 8.56 47.408 0.091 7.05 7.81 11.1
3/26/2021 10:15:00 AM 8.67 47.606 0.091 7.07 8.66 11.09
3/26/2021 10:30:00 AM 8.76 47.768 0.091 7.08 8.44 11.11
3/26/2021 10:45:00 AM 8.86 47.948 0.091 7.09 8.49 11.1
3/26/2021 11:00:00 AM 8.92 48.056 0.092 7.09 7.97 11.06
3/26/2021 11:15:00 AM 8.94 48.092 0.092 7.08 7.75 11.04
3/26/2021 11:30:00 AM 8.97 48.146 0.092 7.07 7.83 11.03
3/26/2021 11:45:00 AM 9.01 48.218 0.092 7.08 7.99 11.05
3/26/2021 12:00:00 PM 9.06 48.308 0.092 7.09 7.88 11.06
3/26/2021 12:15:00 PM 9.13 48.434 0.092 7.11 7.65 11.06
3/26/2021 12:30:00 PM 9.17 48.506 0.092 7.12 7.8 11.07
3/26/2021 12:45:00 PM 9.26 48.668 0.093 7.12 7.81 11.08
3/26/2021 1:00:00 PM 9.3 48.74 0.093 7.13 8.08 11.07
3/26/2021 1:15:00 PM 9.35 48.83 0.093 7.13 7.76 11.04
3/26/2021 1:30:00 PM 9.39 48.902 0.093 7.13 7.77 11.03
3/26/2021 1:45:00 PM 9.41 48.938 0.093 7.13 7.53 11.01
3/26/2021 2:00:00 PM 9.43 48.974 0.093 7.12 7.69 10.99
3/26/2021 2:15:00 PM 9.47 49.046 0.093 7.13 7.61 10.98
3/26/2021 2:30:00 PM 9.48 49.064 0.093 7.13 7.86 10.96
3/26/2021 2:45:00 PM 9.48 49.064 0.094 7.12 7.64 10.93
3/26/2021 3:00:00 PM 9.48 49.064 0.094 7.11 7.65 10.92
3/26/2021 3:15:00 PM 9.47 49.046 0.094 7.11 7.7 10.92
3/26/2021 3:30:00 PM 9.49 49.082 0.094 7.12 8.05 10.95
3/26/2021 3:45:00 PM 9.51 49.118 0.094 7.12 8.4 10.96
3/26/2021 4:00:00 PM 9.54 49.172 0.094 7.14 8.02 10.99
3/26/2021 4:15:00 PM 9.55 49.19 0.094 7.14 7.95 11.01
3/26/2021 4:30:00 PM 9.56 49.208 0.094 7.17 8.16 11.03
3/26/2021 4:45:00 PM 9.51 49.118 0.094 7.16 7.81 11.02
3/26/2021 5:00:00 PM 9.45 49.01 0.094 7.13 7.82 11
3/26/2021 5:15:00 PM 9.37 48.866 0.094 7.1 7.68 10.97
3/26/2021 5:30:00 PM 9.3 48.74 0.094 7.08 7.75 10.94
3/26/2021 5:45:00 PM 9.22 48.596 0.095 7.06 7.85 10.92
3/26/2021 6:00:00 PM 9.14 48.452 0.095 7.03 7.81 10.9
3/26/2021 6:15:00 PM 9.06 48.308 0.095 7.02 8.23 10.89
3/26/2021 6:30:00 PM 8.99 48.182 0.095 6.97 8.49 10.88
3/26/2021 6:45:00 PM 8.91 48.038 0.096 6.95 7.88 10.89
3/26/2021 7:00:00 PM 8.84 47.912 0.096 6.96 8.13 10.89
3/26/2021 7:15:00 PM 8.76 47.768 0.096 6.97 8.03 10.89
3/26/2021 7:30:00 PM 8.68 47.624 0.096 6.96 8.08 10.9
3/26/2021 7:45:00 PM 8.61 47.498 0.096 6.95 8.72 10.89
3/26/2021 8:00:00 PM 8.54 47.372 0.097 6.91 8.48 10.9
3/26/2021 8:15:00 PM 8.47 47.246 0.097 6.92 8.11 10.91
3/26/2021 8:30:00 PM 8.4 47.12 0.097 6.94 8.08 10.92
3/26/2021 8:45:00 PM 8.33 46.994 0.097 6.94 8.15 10.94
3/26/2021 9:00:00 PM 8.26 46.868 0.098 6.95 7.95 10.95
3/26/2021 9:15:00 PM 8.19 46.742 0.098 6.95 7.98 10.97
3/26/2021 9:30:00 PM 8.12 46.616 0.098 6.96 8.09 10.99
3/26/2021 9:45:00 PM 8.06 46.508 0.099 6.96 7.98 11.01
3/26/2021 10:00:00 PM 7.99 46.382 0.099 6.99 8.16 11.03
3/26/2021 10:15:00 PM 7.93 46.274 0.099 6.99 8.07 11.04
3/26/2021 10:30:00 PM 7.87 46.166 0.099 6.99 7.88 11.06
3/26/2021 10:45:00 PM 7.81 46.058 0.099 7 7.59 11.08
3/26/2021 11:00:00 PM 7.75 45.95 0.1 7 7.83 11.1
3/26/2021 11:15:00 PM 7.69 45.842 0.1 7 7.7 11.11
3/26/2021 11:30:00 PM 7.63 45.734 0.1 7.01 7.39 11.13
3/26/2021 11:45:00 PM 7.57 45.626 0.1 7.02 7.46 11.14
3/27/2021 12:00:00 AM 7.52 45.536 0.101 7.02 7.4 11.16
3/27/2021 12:15:00 AM 7.46 45.428 0.101 7.02 7.4 11.18
3/27/2021 12:30:00 AM 7.4 45.32 0.101 7.02 7.36 11.2
3/27/2021 12:45:00 AM 7.35 45.23 0.101 7.02 7.63 11.21
3/27/2021 1:00:00 AM 7.29 45.122 0.102 7 8.79 11.24
3/27/2021 1:15:00 AM 7.24 45.032 0.07 6.98 26.84 11.25
3/27/2021 1:30:00 AM 7.18 44.924 0.102 6.98 12.98 11.27
3/27/2021 1:45:00 AM 7.11 44.798 0.102 6.96 17.04 11.29
3/27/2021 2:00:00 AM 7.06 44.708 0.102 6.94 19.26 11.3
3/27/2021 2:15:00 AM 7 44.6 0.103 6.95 19.85 11.33
3/27/2021 2:30:00 AM 6.95 44.51 0.103 6.92 19.83 11.34
3/27/2021 2:45:00 AM 6.9 44.42 0.103 6.86 22.07 11.36
3/27/2021 3:00:00 AM 6.86 44.348 0.103 7 28.35 11.36
3/27/2021 3:15:00 AM 6.82 44.276 0.102 7.01 28.16 11.35
3/27/2021 3:30:00 AM 6.77 44.186 0.103 7.02 25.36 11.38
3/27/2021 3:45:00 AM 6.73 44.114 0.1 7.01 58.06 11.38
3/27/2021 4:00:00 AM 6.69 44.042 0.104 7.02 64.21 11.38
3/27/2021 4:15:00 AM 6.64 43.952 0.078 7.04 68.91 11.42
3/27/2021 4:30:00 AM 6.6 43.88 0.071 7.05 71.84 11.42
3/27/2021 4:45:00 AM 6.56 43.808 0.074 6.92 80.02 11.4
3/27/2021 5:00:00 AM 6.52 43.736 0.065 7.04 105.88 11.42
3/27/2021 5:15:00 AM 6.48 43.664 0.071 7.04 103.4 11.48
3/27/2021 5:30:00 AM 6.43 43.574 0.073 7.03 116.8 11.49
3/27/2021 5:45:00 AM 6.4 43.52 0.086 7.01 118.13 11.5
3/27/2021 6:00:00 AM 6.36 43.448 0.092 7 136.69 11.52
3/27/2021 6:15:00 AM 6.32 43.376 0.088 6.99 137.47 11.53
3/27/2021 6:30:00 AM 6.29 43.322 0.086 6.99 161.81 11.55
3/27/2021 6:45:00 AM 6.25 43.25 0.078 7 175.9 11.56
3/27/2021 7:00:00 AM 6.23 43.214 0.073 7 189.53 11.57
3/27/2021 7:15:00 AM 6.19 43.142 0.061 6.97 157.11 11.59
3/27/2021 7:30:00 AM 6.16 43.088 0.089 6.98 86.7 11.59
3/27/2021 7:45:00 AM 6.13 43.034 0.09 7.05 56.14 11.62
3/27/2021 8:00:00 AM 6.1 42.98 0.082 7.06 38.52 11.64
3/27/2021 8:15:00 AM 6.09 42.962 0.075 7.06 38.67 11.67
3/27/2021 8:30:00 AM 6.07 42.926 0.073 7.07 47.1 11.69
3/27/2021 8:45:00 AM 6.05 42.89 0.075 7.05 48.32 11.76
3/27/2021 9:00:00 AM 6.04 42.872 0.077 7.09 48.14 11.81
3/27/2021 9:15:00 AM 6.03 42.854 0.077 7.09 52.52 11.87
3/27/2021 9:30:00 AM 6.03 42.854 0.095 7.1 52.75 11.91
3/27/2021 9:45:00 AM 6.03 42.854 0.105 7.11 52.34 11.95
3/27/2021 10:00:00 AM 6.03 42.854 0.105 7.09 71.46 11.99
3/27/2021 10:15:00 AM 6.03 42.854 0.105 7.08 69 12.03
3/27/2021 10:30:00 AM 6.04 42.872 0.105 7.08 74.25 12.04
3/27/2021 10:45:00 AM 6.04 42.872 0.105 7.12 76.83 12.07
3/27/2021 11:00:00 AM 6.06 42.908 0.105 7.17 152.52 12.11
3/27/2021 11:15:00 AM 6.08 42.944 0.105 7.22 42.21 12.13
3/27/2021 11:30:00 AM 6.1 42.98 0.105 7.22 34.99 12.16
3/27/2021 11:45:00 AM 6.14 43.052 0.105 7.24 13.45 12.18
3/27/2021 12:00:00 PM 6.18 43.124 0.105 7.27 13.78 12.2
3/27/2021 12:15:00 PM 6.25 43.25 0.105 7.25 8.9 12.22
3/27/2021 12:30:00 PM 6.36 43.448 0.104 7.3 8.88 12.24
3/27/2021 12:45:00 PM 6.54 43.772 0.104 7.34 8 12.24
3/27/2021 1:00:00 PM 6.7 44.06 0.104 7.35 7.83 12.24
3/27/2021 1:15:00 PM 6.9 44.42 0.104 7.37 7.46 12.22
3/27/2021 1:30:00 PM 6.99 44.582 0.104 7.38 7.48 12.19
3/27/2021 1:45:00 PM 7.14 44.852 0.104 7.39 7.39 12.16
3/27/2021 2:00:00 PM 7.16 44.888 0.103 7.38 7.52 12.15
3/27/2021 2:15:00 PM 7.32 45.176 0.103 7.39 7.73 12.12
3/27/2021 2:30:00 PM 7.5 45.5 0.102 7.41 7.64 12.1
3/27/2021 2:45:00 PM 7.7 45.86 0.102 7.43 7.89 12.07
3/27/2021 3:00:00 PM 7.87 46.166 0.101 7.45 8.23 12.03
3/27/2021 3:15:00 PM 7.95 46.31 0.099 7.42 8.05 11.98
3/27/2021 3:30:00 PM 8.09 46.562 0.097 7.43 8.08 11.95
3/27/2021 3:45:00 PM 8.19 46.742 0.097 7.44 8.57 11.91
3/27/2021 4:00:00 PM 8.25 46.85 0.095 7.45 8.29 11.88
3/27/2021 4:15:00 PM 8.28 46.904 0.091 7.44 7.72 11.85
3/27/2021 4:30:00 PM 8.27 46.886 0.088 7.44 7.65 11.82
3/27/2021 4:45:00 PM 8.26 46.868 0.08 7.44 7.56 11.8
3/27/2021 5:00:00 PM 8.25 46.85 0.076 7.44 8.17 11.77
3/27/2021 5:15:00 PM 8.26 46.868 0.062 7.45 7.42 11.74
3/27/2021 5:30:00 PM 8.25 46.85 0.079 7.44 7.88 11.71
3/27/2021 5:45:00 PM 8.26 46.868 0.07 7.44 7.87 11.69
3/27/2021 6:00:00 PM 8.24 46.832 0.109 7.43 7.92 11.66
3/27/2021 6:15:00 PM 8.24 46.832 0.109 7.42 7.79 11.6
3/27/2021 6:30:00 PM 8.23 46.814 0.109 7.41 7.81 11.54
3/27/2021 6:45:00 PM 8.23 46.814 0.11 7.4 7.51 11.48
3/27/2021 7:00:00 PM 8.24 46.832 0.11 7.38 7.62 11.42
3/27/2021 7:15:00 PM 8.23 46.814 0.11 7.36 10.25 11.34
3/27/2021 7:30:00 PM 8.23 46.814 0.11 7.34 11.04 11.27
3/27/2021 7:45:00 PM 8.23 46.814 0.11 7.32 10.88 11.21
3/27/2021 8:00:00 PM 8.22 46.796 0.11 7.31 11.57 11.16
3/27/2021 8:15:00 PM 8.21 46.778 0.111 7.29 10.72 11.13
3/27/2021 8:30:00 PM 8.19 46.742 0.111 7.27 10.5 11.1
3/27/2021 8:45:00 PM 8.16 46.688 0.111 7.27 11.51 11.07
3/27/2021 9:00:00 PM 8.12 46.616 0.111 7.25 11.27 11.06
3/27/2021 9:15:00 PM 8.08 46.544 0.111 7.24 11.14 11.05
3/27/2021 9:30:00 PM 8.04 46.472 0.111 7.23 11.67 11.05
3/27/2021 9:45:00 PM 7.99 46.382 0.111 7.23 16.71 11.05
3/27/2021 10:00:00 PM 7.94 46.292 0.112 7.22 13.47 11.06
3/27/2021 10:15:00 PM 7.89 46.202 0.112 7.22 12.49 11.07
3/27/2021 10:30:00 PM 7.84 46.112 0.112 7.21 11.77 11.07
3/27/2021 10:45:00 PM 7.79 46.022 0.112 7.2 12.17 11.08
3/27/2021 11:00:00 PM 7.73 45.914 0.112 7.19 11.5 11.09
3/27/2021 11:15:00 PM 7.68 45.824 0.112 7.2 12.49 11.09
3/27/2021 11:30:00 PM 7.63 45.734 0.112 7.19 11.92 11.11
3/27/2021 11:45:00 PM 7.57 45.626 0.112 7.19 11.41 11.11
3/28/2021 12:00:00 AM 7.51 45.518 0.113 7.18 11.81 11.13
3/28/2021 12:15:00 AM 7.44 45.392 0.113 7.18 11.37 11.14
3/28/2021 12:30:00 AM 7.37 45.266 0.113 7.18 11.45 11.16
3/28/2021 12:45:00 AM 7.3 45.14 0.113 7.17 11.41 11.18
3/28/2021 1:00:00 AM 7.23 45.014 0.113 7.17 11.5 11.19
3/28/2021 1:15:00 AM 7.16 44.888 0.113 7.16 11.82 11.21
3/28/2021 1:30:00 AM 7.09 44.762 0.113 7.16 11.38 11.23
3/28/2021 1:45:00 AM 7.02 44.636 0.114 7.16 11.57 11.24
3/28/2021 2:00:00 AM 6.95 44.51 0.114 7.16 11.7 11.26
3/28/2021 2:30:00 AM 6.81 44.258 0.114 7.15 11.48 11.29
3/28/2021 2:45:00 AM 6.75 44.15 0.114 7.15 11 11.31
3/28/2021 3:00:00 AM 6.68 44.024 0.114 7.15 11 11.32
3/28/2021 3:15:00 AM 6.61 43.898 0.115 7.14 10.85 11.34
3/28/2021 3:30:00 AM 6.55 43.79 0.115 7.14 10.78 11.36
3/28/2021 3:45:00 AM 6.49 43.682 0.115 7.14 10.78 11.38
3/28/2021 4:00:00 AM 6.43 43.574 0.115 7.13 11.51 11.4
3/28/2021 4:15:00 AM 6.37 43.466 0.115 7.14 11.22 11.41
3/28/2021 4:30:00 AM 6.31 43.358 0.115 7.13 10.59 11.42
3/28/2021 4:45:00 AM 6.25 43.25 0.115 7.11 11.35 11.45
3/28/2021 5:00:00 AM 6.2 43.16 0.116 7.12 11.01 11.46
3/28/2021 5:15:00 AM 6.15 43.07 0.116 7.11 10.69 11.48
3/28/2021 5:30:00 AM 6.1 42.98 0.116 7.12 10.25 11.48
3/28/2021 5:45:00 AM 6.07 42.926 0.116 7.12 9.68 11.49
3/28/2021 6:00:00 AM 6.04 42.872 0.116 7.13 11.51 11.51
3/28/2021 6:15:00 AM 6.02 42.836 0.116 7.14 11.44 11.52
3/28/2021 6:30:00 AM 6.01 42.818 0.116 7.14 10.91 11.52
3/28/2021 6:45:00 AM 6 42.8 0.116 7.15 12.25 11.52
3/28/2021 7:00:00 AM 6 42.8 0.116 7.15 10.58 11.53
3/28/2021 7:15:00 AM 6.01 42.818 0.116 7.16 15.11 11.52
3/28/2021 7:30:00 AM 6.01 42.818 0.116 7.16 13.69 11.52
3/28/2021 7:45:00 AM 6.02 42.836 0.116 7.16 13.24 11.52
3/28/2021 8:00:00 AM 6.04 42.872 0.116 7.16 13.12 11.53
3/28/2021 8:15:00 AM 6.06 42.908 0.116 7.17 12.24 11.54
3/28/2021 8:30:00 AM 6.09 42.962 0.116 7.17 12.6 11.54
3/28/2021 8:45:00 AM -99999.99 -179968 -99999.99 -99999.99 -99999.99 -99999.99
3/28/2021 9:00:00 AM 6.16 43.088 0.116 7.19 13.34 11.56
3/28/2021 9:15:00 AM 6.19 43.142 0.116 7.2 13.45 11.58
3/28/2021 9:30:00 AM 6.22 43.196 0.116 7.21 16 11.58
3/28/2021 9:45:00 AM 6.26 43.268 0.116 7.23 15.33 11.59
3/28/2021 10:00:00 AM 6.29 43.322 0.115 7.24 19.73 11.6
3/28/2021 10:15:00 AM 6.31 43.358 0.115 7.24 20.73 11.6
3/28/2021 10:30:00 AM 6.34 43.412 0.115 7.25 18.82 11.59
3/28/2021 10:45:00 AM 6.37 43.466 0.115 7.25 17.31 11.6
3/28/2021 11:00:00 AM 6.4 43.52 0.115 7.26 17.36 11.62
3/28/2021 11:15:00 AM 6.43 43.574 0.115 7.27 16.78 11.63
3/28/2021 11:30:00 AM 6.46 43.628 0.115 7.28 17.05 11.63
3/28/2021 11:45:00 AM 6.49 43.682 0.115 7.28 16.19 11.63
3/28/2021 12:00:00 PM 6.51 43.718 0.115 7.29 26.76 11.62
3/28/2021 12:15:00 PM 6.53 43.754 0.115 7.29 26.96 11.62
3/28/2021 12:30:00 PM 6.56 43.808 0.115 7.3 26.42 11.62
3/28/2021 12:45:00 PM 6.59 43.862 0.115 7.3 26.82 11.61
3/28/2021 1:00:00 PM 6.62 43.916 0.114 7.31 27.38 11.59
3/28/2021 1:15:00 PM 6.66 43.988 0.114 7.31 26.34 11.58
3/28/2021 1:30:00 PM 6.69 44.042 0.114 7.31 24.24 11.57
3/28/2021 1:45:00 PM 6.73 44.114 0.114 7.32 26.42 11.57
3/28/2021 2:00:00 PM 6.77 44.186 0.114 7.32 26.31 11.58
3/28/2021 2:15:00 PM 6.81 44.258 0.114 7.32 27.47 11.58
3/28/2021 2:30:00 PM 6.85 44.33 0.114 7.33 27.2 11.59
3/28/2021 2:45:00 PM 6.9 44.42 0.114 7.34 26.7 11.58
3/28/2021 3:00:00 PM 6.95 44.51 0.114 7.35 26.54 11.59
3/28/2021 3:15:00 PM 7 44.6 0.114 7.35 26.76 11.58
3/28/2021 3:30:00 PM 7.03 44.654 0.114 7.35 27.04 11.53
3/28/2021 3:45:00 PM 7.06 44.708 0.115 7.35 26.72 11.49
3/28/2021 4:00:00 PM 7.11 44.798 0.114 7.33 25.28 11.44
3/28/2021 4:15:00 PM 7.15 44.87 0.114 7.33 26.05 11.43
3/28/2021 4:30:00 PM 7.19 44.942 0.114 7.33 24.88 11.42
3/28/2021 4:45:00 PM 7.21 44.978 0.113 7.33 25.14 11.41
3/28/2021 5:00:00 PM 7.24 45.032 0.114 7.33 27.5 11.39
3/28/2021 5:15:00 PM 7.26 45.068 0.113 7.32 16.67 11.37
3/28/2021 5:30:00 PM 7.27 45.086 0.113 7.31 23.36 11.32
3/28/2021 5:45:00 PM 7.28 45.104 0.113 7.29 24.62 11.31
3/28/2021 6:00:00 PM 7.29 45.122 0.113 7.28 22.02 11.31
3/28/2021 6:15:00 PM 7.3 45.14 0.113 7.27 21.83 11.32
3/28/2021 6:30:00 PM 7.29 45.122 0.113 7.28 21.16 11.31
3/28/2021 6:45:00 PM 7.29 45.122 0.112 7.27 21.25 11.31
3/28/2021 7:00:00 PM 7.28 45.104 0.112 7.26 22.77 11.29
3/28/2021 7:15:00 PM 7.26 45.068 0.112 7.26 35.47 11.28
3/28/2021 7:30:00 PM 7.24 45.032 0.112 7.26 38.02 11.25
3/28/2021 7:45:00 PM 7.22 44.996 0.111 7.23 32.87 11.23
3/28/2021 8:00:00 PM 7.19 44.942 0.111 7.18 32.59 11.21
3/28/2021 8:15:00 PM 7.16 44.888 0.111 7.13 38.62 11.19
3/28/2021 8:30:00 PM 7.13 44.834 0.111 7.13 33.4 11.18
3/28/2021 8:45:00 PM 7.09 44.762 0.105 7.07 27.22 11.17
3/28/2021 9:00:00 PM 7.04 44.672 0.11 6.99 21.91 11.16
3/28/2021 9:15:00 PM 7.01 44.618 0.109 7.02 19 11.17
3/28/2021 9:30:00 PM 6.96 44.528 0.103 7.03 12.61 11.18
3/28/2021 9:45:00 PM 6.93 44.474 0.071 6.98 11.8 11.19
3/28/2021 10:00:00 PM 6.88 44.384 0.11 6.97 11.4 11.2
3/28/2021 10:15:00 PM 6.84 44.312 0.109 6.99 11.57 11.21
3/28/2021 10:30:00 PM 6.8 44.24 0.109 7.01 11.69 11.22
3/28/2021 10:45:00 PM 6.76 44.168 0.109 7 12.48 11.23
3/28/2021 11:00:00 PM 6.73 44.114 0.109 6.99 11.91 11.24
3/28/2021 11:15:00 PM 6.68 44.024 0.109 7.05 11.48 11.26
3/28/2021 11:30:00 PM 6.62 43.916 0.109 7.09 11.21 11.26
3/28/2021 11:45:00 PM 6.57 43.826 0.109 7.07 11.17 11.28
3/29/2021 12:00:00 AM 6.51 43.718 0.109 7.07 11.45 11.29
3/29/2021 12:15:00 AM 6.44 43.592 0.109 7.05 10.67 11.31
3/29/2021 12:30:00 AM 6.37 43.466 0.109 7 10.64 11.33
3/29/2021 12:45:00 AM 6.3 43.34 0.109 7.02 10.68 11.36
3/29/2021 1:00:00 AM 6.22 43.196 0.109 7.02 10.73 11.38
3/29/2021 1:15:00 AM 6.16 43.088 0.11 7.06 10.81 11.4
3/29/2021 1:30:00 AM 6.08 42.944 0.11 7.07 10.62 11.42
3/29/2021 1:45:00 AM 6 42.8 0.11 7.04 11.11 11.45
3/29/2021 2:00:00 AM 5.93 42.674 0.11 7.02 11.21 11.48
3/29/2021 2:15:00 AM 5.86 42.548 0.111 7.02 10.8 11.49
3/29/2021 2:30:00 AM 5.79 42.422 0.111 7.06 10.48 11.52
3/29/2021 2:45:00 AM 5.72 42.296 0.111 7.04 10.74 11.54
3/29/2021 3:00:00 AM 5.65 42.17 0.111 7.03 10.55 11.56
3/29/2021 3:15:00 AM 5.58 42.044 0.111 7.03 10.57 11.58
3/29/2021 3:30:00 AM 5.51 41.918 0.111 7.04 10.31 11.61
3/29/2021 3:45:00 AM 5.44 41.792 0.111 7.05 10.41 11.64
3/29/2021 4:00:00 AM 5.38 41.684 0.111 7.06 9.94 11.66
3/29/2021 4:15:00 AM 5.3 41.54 0.111 7.06 10.21 11.69
3/29/2021 4:30:00 AM 5.2 41.36 0.111 7.05 9.42 11.72
3/29/2021 4:45:00 AM 5.11 41.198 0.111 7.06 9.37 11.75
3/29/2021 5:00:00 AM 5.01 41.018 0.111 7.05 9.41 11.77
3/29/2021 5:15:00 AM 4.9 40.82 0.111 7.05 9.11 11.8
3/29/2021 5:30:00 AM 4.81 40.658 0.111 7.06 9.74 11.84
3/29/2021 5:45:00 AM 4.72 40.496 0.111 7.08 9.2 11.87
3/29/2021 6:00:00 AM 4.64 40.352 0.111 7.06 8.59 11.91
3/29/2021 6:15:00 AM 4.58 40.244 0.111 7.05 9.03 11.93
3/29/2021 6:30:00 AM 4.52 40.136 0.111 7.06 8.86 11.97
3/29/2021 6:45:00 AM 4.46 40.028 0.111 7.04 8.67 11.99
3/29/2021 7:00:00 AM 4.41 39.938 0.111 7.04 8.66 12.02
3/29/2021 7:15:00 AM 4.37 39.866 0.111 7.05 8.57 12.05
3/29/2021 7:30:00 AM 4.33 39.794 0.111 7.04 8.23 12.08
3/29/2021 7:45:00 AM 4.29 39.722 0.111 7.05 8.05 12.11
3/29/2021 8:00:00 AM 4.24 39.632 0.111 7.06 7.9 12.15
3/29/2021 8:15:00 AM 4.19 39.542 0.111 7.06 7.64 12.19
3/29/2021 8:30:00 AM 4.15 39.47 0.111 7.06 7.58 12.23
3/29/2021 8:45:00 AM 4.12 39.416 0.111 7.06 7.17 12.28
3/29/2021 9:00:00 AM 4.1 39.38 0.111 7.09 7.1 12.34
3/29/2021 9:15:00 AM 4.09 39.362 0.111 7.1 6.85 12.4
3/29/2021 9:30:00 AM 4.08 39.344 0.112 7.12 6.56 12.47
3/29/2021 9:45:00 AM 4.07 39.326 0.112 7.13 6.63 12.52
3/29/2021 10:00:00 AM 4.06 39.308 0.112 7.14 6.57 12.57
3/29/2021 10:15:00 AM 4.07 39.326 0.112 7.16 6.52 12.62
3/29/2021 10:30:00 AM 4.07 39.326 0.112 7.17 6.33 12.67
3/29/2021 10:45:00 AM 4.11 39.398 0.112 7.21 6.29 12.72
3/29/2021 11:00:00 AM 4.2 39.56 0.112 7.23 6.18 12.75
3/29/2021 11:15:00 AM 4.28 39.704 0.112 7.25 6.28 12.77
3/29/2021 11:30:00 AM 4.39 39.902 0.113 7.27 6.31 12.79
3/29/2021 11:45:00 AM 4.53 40.154 0.113 7.31 6.36 12.78
3/29/2021 12:00:00 PM 4.76 40.568 0.113 7.33 6.31 12.77
3/29/2021 12:15:00 PM 4.93 40.874 0.113 7.36 6.42 12.75
3/29/2021 12:30:00 PM 5.14 41.252 0.113 7.39 6.03 12.71
3/29/2021 12:45:00 PM 5.36 41.648 0.113 7.4 6 12.68
3/29/2021 1:00:00 PM 5.57 42.026 0.113 7.41 6.17 12.63
3/29/2021 1:15:00 PM 5.79 42.422 0.114 7.42 5.99 12.58
3/29/2021 1:30:00 PM 5.99 42.782 0.114 7.42 5.95 12.54
3/29/2021 1:45:00 PM 6.16 43.088 0.114 7.44 5.77 12.52
3/29/2021 2:00:00 PM 6.36 43.448 0.114 7.44 5.76 12.47
3/29/2021 2:15:00 PM 6.56 43.808 0.114 7.45 5.84 12.42
3/29/2021 2:30:00 PM 6.7 44.06 0.114 7.45 5.63 12.39
3/29/2021 2:45:00 PM 6.81 44.258 0.114 7.46 5.71 12.35
3/29/2021 3:00:00 PM 6.89 44.402 0.114 7.45 5.68 12.32
3/29/2021 3:15:00 PM 6.94 44.492 0.114 7.45 5.81 12.28
3/29/2021 3:30:00 PM 6.96 44.528 0.114 7.45 5.69 12.26
3/29/2021 3:45:00 PM 6.96 44.528 0.114 7.44 5.8 12.24
3/29/2021 4:00:00 PM 6.96 44.528 0.114 7.43 5.63 12.22
3/29/2021 4:15:00 PM 6.92 44.456 0.114 7.43 5.6 12.19
3/29/2021 4:30:00 PM 6.86 44.348 0.114 7.39 5.75 12.17
3/29/2021 4:45:00 PM 6.8 44.24 0.114 7.38 5.57 12.15
3/29/2021 5:00:00 PM 6.72 44.096 0.114 7.38 5.45 12.12
3/29/2021 5:15:00 PM 6.64 43.952 0.115 7.35 5.49 12.1
3/29/2021 5:30:00 PM 6.58 43.844 0.115 7.34 5.5 12.08
3/29/2021 5:45:00 PM 6.52 43.736 0.115 7.32 5.58 12.06
3/29/2021 6:00:00 PM 6.45 43.61 0.115 7.31 5.36 12.03
3/29/2021 6:15:00 PM 6.39 43.502 0.115 7.3 5.4 12.01
3/29/2021 6:30:00 PM 6.34 43.412 0.115 7.29 5.62 11.98
3/29/2021 6:45:00 PM 6.29 43.322 0.116 7.27 6.2 11.95
3/29/2021 7:00:00 PM 6.25 43.25 0.116 7.27 5.91 11.92
3/29/2021 7:15:00 PM 6.22 43.196 0.116 7.26 5.79 11.89
3/29/2021 7:30:00 PM 6.19 43.142 0.116 7.27 6.53 11.86
3/29/2021 7:45:00 PM 6.16 43.088 0.116 7.25 5.87 11.83
3/29/2021 8:00:00 PM 6.12 43.016 0.116 7.24 5.95 11.8
3/29/2021 8:15:00 PM 6.08 42.944 0.116 7.23 5.78 11.77
3/29/2021 8:30:00 PM 6.05 42.89 0.116 7.22 5.78 11.75
3/29/2021 8:45:00 PM 6.02 42.836 0.116 7.22 5.72 11.74
3/29/2021 9:00:00 PM 5.99 42.782 0.117 7.21 5.75 11.73
3/29/2021 9:15:00 PM 5.95 42.71 0.117 7.2 5.56 11.74
3/29/2021 9:30:00 PM 5.91 42.638 0.117 7.2 5.67 11.73
3/29/2021 9:45:00 PM 5.87 42.566 0.117 7.19 5.4 11.73
3/29/2021 10:00:00 PM 5.83 42.494 0.117 7.19 5.18 11.74
3/29/2021 10:15:00 PM 5.8 42.44 0.117 7.18 5.48 11.74
3/29/2021 10:30:00 PM 5.75 42.35 0.117 7.18 5.63 11.75
3/29/2021 10:45:00 PM 5.71 42.278 0.117 7.18 5.87 11.76
3/29/2021 11:00:00 PM 5.66 42.188 0.118 7.18 5.41 11.76
3/29/2021 11:15:00 PM 5.61 42.098 0.118 7.17 6.77 11.77
3/29/2021 11:30:00 PM 5.56 42.008 0.118 7.17 6.04 11.79
3/29/2021 11:45:00 PM 5.5 41.9 0.118 7.16 5.43 11.81
3/30/2021 12:00:00 AM 5.43 41.774 0.118 7.17 5.53 11.83
3/30/2021 12:15:00 AM 5.36 41.648 0.118 7.16 6.3 11.85
3/30/2021 12:30:00 AM 5.29 41.522 0.119 7.17 5.94 11.87
3/30/2021 12:45:00 AM 5.22 41.396 0.119 7.15 5.93 11.89
3/30/2021 1:00:00 AM 5.15 41.27 0.119 7.17 5.97 11.92
3/30/2021 1:15:00 AM 5.07 41.126 0.119 7.16 5.96 11.95
3/30/2021 1:30:00 AM 5 41 0.119 7.15 5.59 11.97
3/30/2021 1:45:00 AM 4.92 40.856 0.119 7.15 5.31 11.99
3/30/2021 2:00:00 AM 4.85 40.73 0.12 7.16 5.34 12.02
3/30/2021 2:15:00 AM 4.78 40.604 0.12 7.15 5.24 12.04
3/30/2021 2:30:00 AM 4.7 40.46 0.12 7.15 5.12 12.07
3/30/2021 2:45:00 AM 4.63 40.334 0.12 7.15 6.2 12.09
3/30/2021 3:00:00 AM 4.55 40.19 0.12 7.16 6.07 12.12
3/30/2021 3:15:00 AM 4.48 40.064 0.12 7.14 6.04 12.14
3/30/2021 3:30:00 AM 4.4 39.92 0.12 7.13 6.12 12.17
3/30/2021 3:45:00 AM 4.33 39.794 0.12 7.13 6.09 12.2
3/30/2021 4:00:00 AM 4.26 39.668 0.12 7.14 6.04 12.22
3/30/2021 4:15:00 AM 4.19 39.542 0.12 7.14 5.88 12.25
3/30/2021 4:30:00 AM 4.12 39.416 0.12 7.13 6.28 12.28
3/30/2021 4:45:00 AM 4.05 39.29 0.12 7.14 5.84 12.3
3/30/2021 5:00:00 AM 3.98 39.164 0.12 7.14 5.94 12.33
3/30/2021 5:15:00 AM 3.91 39.038 0.12 7.14 6.1 12.35
3/30/2021 5:30:00 AM 3.84 38.912 0.121 7.15 6.6 12.38
3/30/2021 5:45:00 AM 3.78 38.804 0.121 7.14 6.22 12.4
3/30/2021 6:00:00 AM 3.71 38.678 0.121 7.14 6.36 12.43
3/30/2021 6:15:00 AM 3.65 38.57 0.121 7.14 6.26 12.45
3/30/2021 6:30:00 AM 3.59 38.462 0.121 7.13 6.26 12.47
3/30/2021 6:45:00 AM 3.53 38.354 0.121 7.14 6.05 12.5
3/30/2021 7:00:00 AM 3.48 38.264 0.121 7.15 6.34 12.52
3/30/2021 7:15:00 AM 3.43 38.174 0.121 7.15 6.26 12.55
3/30/2021 7:30:00 AM 3.38 38.084 0.121 7.15 6.35 12.59
3/30/2021 7:45:00 AM 3.34 38.012 0.121 7.15 6.1 12.63
3/30/2021 8:00:00 AM 3.31 37.958 0.122 7.16 6 12.68
3/30/2021 8:15:00 AM 3.29 37.922 0.122 7.16 6.1 12.74
3/30/2021 8:30:00 AM 3.27 37.886 0.122 7.15 6.05 12.79
3/30/2021 8:45:00 AM 3.27 37.886 0.122 7.15 6.04 12.83
3/30/2021 9:00:00 AM 3.29 37.922 0.122 7.16 5.6 12.88
3/30/2021 9:15:00 AM 3.34 38.012 0.122 7.18 5.77 12.93
3/30/2021 9:30:00 AM 3.41 38.138 0.122 7.21 5.66 12.96
3/30/2021 9:45:00 AM 3.51 38.318 0.122 7.23 5.49 12.99
3/30/2021 10:00:00 AM 3.63 38.534 0.122 7.26 5.56 13
3/30/2021 10:15:00 AM 3.79 38.822 0.122 7.28 5.02 13.01
3/30/2021 10:30:00 AM 3.97 39.146 0.121 7.3 4.89 13
3/30/2021 10:45:00 AM 4.18 39.524 0.121 7.32 4.88 12.98
3/30/2021 11:00:00 AM 4.41 39.938 0.121 7.34 4.79 12.95
3/30/2021 11:15:00 AM 4.66 40.388 0.121 7.36 4.67 12.91
3/30/2021 11:30:00 AM 4.93 40.874 0.121 7.38 4.64 12.87
3/30/2021 11:45:00 AM 5.21 41.378 0.121 7.39 4.73 12.82
3/30/2021 12:00:00 PM 5.52 41.936 0.121 7.41 4.06 12.75
3/30/2021 12:15:00 PM 5.83 42.494 0.121 7.43 4.52 12.69
3/30/2021 12:30:00 PM 6.15 43.07 0.121 7.45 4.18 12.63
3/30/2021 12:45:00 PM 6.46 43.628 0.121 7.46 4.47 12.56
3/30/2021 1:00:00 PM 6.78 44.204 0.121 7.48 4.74 12.48
3/30/2021 1:15:00 PM 7.07 44.726 0.121 7.49 4.76 12.41
3/30/2021 1:30:00 PM 7.35 45.23 0.121 7.5 4.51 12.34
3/30/2021 1:45:00 PM 7.6 45.68 0.121 7.51 4.29 12.28
3/30/2021 2:00:00 PM 7.83 46.094 0.121 7.52 4.29 12.22
3/30/2021 2:15:00 PM 8.04 46.472 0.121 7.52 4.37 12.16
3/30/2021 2:30:00 PM 8.22 46.796 0.121 7.53 4.27 12.1
3/30/2021 2:45:00 PM 8.38 47.084 0.121 7.53 4.35 12.05
3/30/2021 3:00:00 PM 8.5 47.3 0.122 7.54 4.76 12
3/30/2021 3:15:00 PM 8.59 47.462 0.122 7.54 4.61 11.96
3/30/2021 3:30:00 PM 8.66 47.588 0.122 7.53 4.53 11.91
3/30/2021 3:45:00 PM 8.69 47.642 0.122 7.53 4.76 11.86
3/30/2021 4:00:00 PM 8.71 47.678 0.122 7.52 4.79 11.83
3/30/2021 4:15:00 PM 8.7 47.66 0.122 7.52 4.69 11.79
3/30/2021 4:30:00 PM 8.68 47.624 0.122 7.51 4.57 11.75
3/30/2021 4:45:00 PM 8.63 47.534 0.122 7.49 4.8 11.71
3/30/2021 5:00:00 PM 8.59 47.462 0.122 7.47 4.51 11.66
3/30/2021 5:15:00 PM 8.55 47.39 0.122 7.45 4.61 11.62
3/30/2021 5:30:00 PM 8.52 47.336 0.123 7.44 4.49 11.6
3/30/2021 5:45:00 PM 8.47 47.246 0.123 7.42 4.72 11.56
3/30/2021 6:00:00 PM 8.43 47.174 0.123 7.41 4.77 11.51
3/30/2021 6:15:00 PM 8.41 47.138 0.123 7.39 4.96 11.47
3/30/2021 6:30:00 PM 8.37 47.066 0.123 7.38 5.14 11.43
3/30/2021 6:45:00 PM 8.33 46.994 0.123 7.37 4.78 11.39
3/30/2021 7:00:00 PM 8.29 46.922 0.123 7.35 4.81 11.34
3/30/2021 7:15:00 PM 8.26 46.868 0.123 7.33 4.98 11.3
3/30/2021 7:30:00 PM 8.23 46.814 0.123 7.32 5.02 11.25
3/30/2021 7:45:00 PM 8.22 46.796 0.124 7.31 4.13 11.2
3/30/2021 8:00:00 PM 8.2 46.76 0.124 7.29 4.28 11.16
3/30/2021 8:15:00 PM 8.18 46.724 0.124 7.27 4.52 11.13
3/30/2021 8:30:00 PM 8.16 46.688 0.124 7.26 4.4 11.1
3/30/2021 8:45:00 PM 8.14 46.652 0.124 7.26 4.7 11.07
3/30/2021 9:00:00 PM 8.13 46.634 0.124 7.25 5.04 11.05
3/30/2021 9:15:00 PM 8.12 46.616 0.124 7.24 4.31 11.04
3/30/2021 9:30:00 PM 8.12 46.616 0.124 7.24 4.58 11.03
3/30/2021 9:45:00 PM 8.1 46.58 0.124 7.24 5.5 11.03
3/30/2021 10:00:00 PM 8.09 46.562 0.124 7.23 5.32 11.01
3/30/2021 10:15:00 PM 8.08 46.544 0.124 7.22 5.41 11.02
3/30/2021 10:30:00 PM 8.06 46.508 0.124 7.22 5.14 11.01
3/30/2021 10:45:00 PM 8.05 46.49 0.124 7.22 5.19 11.01
3/30/2021 11:00:00 PM 8.03 46.454 0.125 7.22 4.94 11
3/30/2021 11:15:00 PM 8.01 46.418 0.125 7.22 4.49 11.01
3/30/2021 11:30:00 PM 7.99 46.382 0.125 7.22 4.59 11.01
3/30/2021 11:45:00 PM 7.97 46.346 0.125 7.22 4.4 11.02
3/31/2021 12:00:00 AM 7.94 46.292 0.125 7.21 4.59 11.02
3/31/2021 12:15:00 AM 7.91 46.238 0.125 7.21 4.89 11.02
3/31/2021 12:30:00 AM 7.88 46.184 0.125 7.21 4.82 11.03
3/31/2021 12:45:00 AM 7.84 46.112 0.125 7.19 4.65 11.04
3/31/2021 1:00:00 AM 7.8 46.04 0.125 7.19 4.7 11.05
3/31/2021 1:15:00 AM 7.75 45.95 0.125 7.19 4.67 11.06
3/31/2021 1:30:00 AM 7.71 45.878 0.125 7.2 4.72 11.08
3/31/2021 1:45:00 AM 7.66 45.788 0.126 7.2 4.93 11.09
3/31/2021 2:00:00 AM 7.61 45.698 0.126 7.19 4.88 11.1
3/31/2021 2:15:00 AM 7.57 45.626 0.126 7.2 4.94 11.12
3/31/2021 2:30:00 AM 7.52 45.536 0.126 7.19 4.92 11.13
3/31/2021 2:45:00 AM 7.47 45.446 0.126 7.19 4.89 11.14
3/31/2021 3:00:00 AM 7.43 45.374 0.126 7.19 4.73 11.15
3/31/2021 3:15:00 AM 7.38 45.284 0.126 7.19 4.8 11.17
3/31/2021 3:30:00 AM 7.33 45.194 0.127 7.2 4.93 11.17
3/31/2021 3:45:00 AM 7.28 45.104 0.127 7.19 4.95 11.19
3/31/2021 4:00:00 AM 7.23 45.014 0.127 7.19 4.64 11.2
3/31/2021 4:15:00 AM 7.18 44.924 0.127 7.19 4.77 11.21
3/31/2021 4:30:00 AM 7.13 44.834 0.127 7.2 4.86 11.23
3/31/2021 4:45:00 AM 7.07 44.726 0.127 7.19 4.76 11.24
3/31/2021 5:00:00 AM 7.02 44.636 0.127 7.19 4.65 11.26
3/31/2021 5:15:00 AM 6.98 44.564 0.127 7.18 4.75 11.27
3/31/2021 5:30:00 AM 6.93 44.474 0.128 7.18 4.73 11.28
3/31/2021 5:45:00 AM 6.88 44.384 0.128 7.19 4.89 11.3
3/31/2021 6:00:00 AM 6.84 44.312 0.128 7.19 4.72 11.31
3/31/2021 6:15:00 AM 6.79 44.222 0.128 7.19 4.77 11.33
3/31/2021 6:30:00 AM 6.75 44.15 0.128 7.19 4.74 11.34
3/31/2021 6:45:00 AM 6.72 44.096 0.128 7.19 4.87 11.35
3/31/2021 7:00:00 AM 6.69 44.042 0.128 7.19 4.73 11.36
3/31/2021 7:15:00 AM 6.66 43.988 0.128 7.2 5.04 11.38
3/31/2021 7:30:00 AM 6.63 43.934 0.128 7.21 4.79 11.4
3/31/2021 7:45:00 AM 6.61 43.898 0.128 7.21 4.69 11.44
3/31/2021 8:00:00 AM 6.6 43.88 0.128 7.23 4.9 11.48
3/31/2021 8:15:00 AM 6.6 43.88 0.128 7.24 4.67 11.54
3/31/2021 8:30:00 AM 6.6 43.88 0.128 7.26 4.44 11.61
3/31/2021 8:45:00 AM 6.61 43.898 0.128 7.28 4.45 11.67
3/31/2021 9:00:00 AM 6.63 43.934 0.128 7.3 4.45 11.72
3/31/2021 9:15:00 AM 6.65 43.97 0.128 7.32 4.43 11.77
3/31/2021 9:30:00 AM 6.67 44.006 0.128 7.34 4.41 11.81
3/31/2021 9:45:00 AM 6.71 44.078 0.128 7.35 4.22 11.85
3/31/2021 10:00:00 AM 6.75 44.15 0.128 7.38 4.28 11.88
3/31/2021 10:15:00 AM 6.79 44.222 0.128 7.39 4.25 11.91
3/31/2021 10:30:00 AM 6.84 44.312 0.128 7.4 4.23 11.93
3/31/2021 10:45:00 AM 6.88 44.384 0.128 7.41 4.18 11.94
3/31/2021 11:00:00 AM 6.94 44.492 0.128 7.43 4.23 11.95
3/31/2021 11:15:00 AM 6.98 44.564 0.128 7.44 4.1 11.96
3/31/2021 11:30:00 AM 7.02 44.636 0.128 7.45 4.04 11.95
3/31/2021 11:45:00 AM 7.06 44.708 0.128 7.45 4.05 11.94
3/31/2021 12:00:00 PM 7.09 44.762 0.128 7.45 3.99 11.92
3/31/2021 12:15:00 PM 7.12 44.816 0.128 7.46 4.03 11.9
3/31/2021 12:30:00 PM 7.14 44.852 0.128 7.46 4.07 11.9
3/31/2021 12:45:00 PM 7.16 44.888 0.128 7.46 4.09 11.88
3/31/2021 1:00:00 PM 7.19 44.942 0.128 7.46 4.01 11.88
3/31/2021 1:15:00 PM 7.22 44.996 0.128 7.46 4.14 11.88
3/31/2021 1:30:00 PM 7.26 45.068 0.128 7.48 4.22 11.91
3/31/2021 1:45:00 PM 7.29 45.122 0.128 7.48 4.12 11.89
3/31/2021 2:00:00 PM 7.32 45.176 0.128 7.47 4.16 11.87
3/31/2021 2:15:00 PM 7.36 45.248 0.128 7.47 4.14 11.86
3/31/2021 2:30:00 PM 7.37 45.266 0.128 7.46 4.12 11.81
3/31/2021 2:45:00 PM 7.38 45.284 0.128 7.45 4.16 11.78
3/31/2021 3:00:00 PM 7.4 45.32 0.128 7.43 4.05 11.75
3/31/2021 3:15:00 PM 7.41 45.338 0.128 7.44 4.27 11.73
3/31/2021 3:30:00 PM 7.43 45.374 0.128 7.43 4.11 11.7
3/31/2021 3:45:00 PM 7.44 45.392 0.128 7.42 4.16 11.68
3/31/2021 4:00:00 PM 7.45 45.41 0.128 7.41 4.15 11.65
3/31/2021 4:15:00 PM 7.45 45.41 0.129 7.4 4.09 11.61
3/31/2021 4:30:00 PM 7.45 45.41 0.129 7.39 4.32 11.56
3/31/2021 4:45:00 PM 7.44 45.392 0.129 7.37 4.2 11.53
3/31/2021 5:00:00 PM 7.44 45.392 0.129 7.36 4.17 11.49
3/31/2021 5:15:00 PM 7.44 45.392 0.129 7.34 4.17 11.46
3/31/2021 5:30:00 PM 7.44 45.392 0.129 7.34 4.21 11.42
3/31/2021 5:45:00 PM 7.43 45.374 0.129 7.33 4.14 11.41
3/31/2021 6:00:00 PM 7.42 45.356 0.129 7.32 4.18 11.39
3/31/2021 6:15:00 PM 7.4 45.32 0.129 7.32 4.19 11.39
3/31/2021 6:30:00 PM 7.38 45.284 0.129 7.32 4.3 11.38
3/31/2021 6:45:00 PM 7.35 45.23 0.129 7.32 4.21 11.37
3/31/2021 7:00:00 PM 7.32 45.176 0.129 7.3 4.26 11.36
3/31/2021 7:15:00 PM 7.29 45.122 0.13 7.29 4.37 11.34
3/31/2021 7:30:00 PM 7.26 45.068 0.13 7.28 4.47 11.32
3/31/2021 7:45:00 PM 7.23 45.014 0.13 7.27 4.47 11.31
3/31/2021 8:00:00 PM 7.2 44.96 0.13 7.27 4.46 11.3
3/31/2021 8:15:00 PM 7.17 44.906 0.13 7.26 4.41 11.28
3/31/2021 8:30:00 PM 7.14 44.852 0.13 7.25 4.54 11.28
3/31/2021 8:45:00 PM 7.11 44.798 0.13 7.26 4.65 11.28
3/31/2021 9:00:00 PM 7.08 44.744 0.13 7.25 4.61 11.28
3/31/2021 9:15:00 PM 7.05 44.69 0.13 7.24 4.6 11.28
3/31/2021 9:30:00 PM 7.02 44.636 0.13 7.24 4.49 11.29
3/31/2021 9:45:00 PM 6.99 44.582 0.13 7.24 4.64 11.29
3/31/2021 10:00:00 PM 6.95 44.51 0.131 7.24 4.42 11.3
3/31/2021 10:15:00 PM 6.92 44.456 0.131 7.24 4.5 11.3
3/31/2021 10:30:00 PM 6.89 44.402 0.131 7.24 4.57 11.31
3/31/2021 10:45:00 PM 6.86 44.348 0.131 7.24 4.49 11.32
3/31/2021 11:00:00 PM 6.83 44.294 0.131 7.24 4.5 11.33
3/31/2021 11:15:00 PM 6.8 44.24 0.131 7.24 4.48 11.33
3/31/2021 11:30:00 PM 6.76 44.168 0.131 7.23 4.4 11.34
3/31/2021 11:45:00 PM 6.73 44.114 0.131 7.23 4.56 11.34
4/1/2021 12:00:00 AM 6.7 44.06 0.131 7.23 4.64 11.36
4/1/2021 12:15:00 AM 6.67 44.006 0.132 7.23 4.64 11.36
4/1/2021 12:30:00 AM 6.64 43.952 0.132 7.23 4.55 11.37
4/1/2021 12:45:00 AM 6.6 43.88 0.132 7.23 4.42 11.38
4/1/2021 1:00:00 AM 6.57 43.826 0.132 7.23 4.46 11.38
4/1/2021 1:15:00 AM 6.53 43.754 0.132 7.23 4.49 11.4
4/1/2021 1:30:00 AM 6.49 43.682 0.132 7.23 4.83 11.41
4/1/2021 1:45:00 AM 6.44 43.592 0.132 7.24 4.56 11.42
4/1/2021 2:00:00 AM 6.4 43.52 0.132 7.25 4.53 11.44
4/1/2021 2:15:00 AM 6.33 43.394 0.132 7.23 4.43 11.45
4/1/2021 2:30:00 AM 6.24 43.232 0.132 7.22 4.48 11.46
4/1/2021 2:45:00 AM 6.09 42.962 0.132 7.21 4.36 11.47
4/1/2021 3:00:00 AM 5.97 42.746 0.132 7.2 4.42 11.49
4/1/2021 3:15:00 AM 5.85 42.53 0.132 7.19 4.58 11.53
4/1/2021 3:30:00 AM 5.73 42.314 0.132 7.19 4.56 11.56
4/1/2021 3:45:00 AM 5.61 42.098 0.132 7.18 4.56 11.59
4/1/2021 4:00:00 AM 5.52 41.936 0.132 7.19 4.68 11.63
4/1/2021 4:15:00 AM 5.42 41.756 0.132 7.18 4.53 11.65
4/1/2021 4:30:00 AM 5.34 41.612 0.132 7.17 4.63 11.69
4/1/2021 4:45:00 AM 5.28 41.504 0.132 7.18 4.41 11.71
4/1/2021 5:00:00 AM 5.22 41.396 0.132 7.19 4.46 11.74
4/1/2021 5:15:00 AM 5.16 41.288 0.131 7.19 4.49 11.77
4/1/2021 5:30:00 AM 5.11 41.198 0.131 7.19 4.43 11.79
4/1/2021 5:45:00 AM 5.02 41.036 0.131 7.19 4.44 11.81
4/1/2021 6:00:00 AM 4.96 40.928 0.131 7.19 4.51 11.83
4/1/2021 6:15:00 AM 4.89 40.802 0.131 7.19 4.39 11.85
4/1/2021 6:30:00 AM 4.84 40.712 0.131 7.18 4.61 11.87
4/1/2021 6:45:00 AM 4.79 40.622 0.131 7.18 4.51 11.89
4/1/2021 7:00:00 AM 4.72 40.496 0.131 7.18 4.96 11.93
4/1/2021 7:15:00 AM 4.68 40.424 0.132 7.18 4.74 11.96
4/1/2021 7:30:00 AM 4.64 40.352 0.132 7.19 4.7 11.99
4/1/2021 7:45:00 AM 4.59 40.262 0.132 7.2 4.51 12.04
4/1/2021 8:00:00 AM 4.54 40.172 0.132 7.22 4.45 12.1
4/1/2021 8:15:00 AM 4.5 40.1 0.132 7.23 4.31 12.17
4/1/2021 8:30:00 AM 4.49 40.082 0.132 7.25 4.24 12.26
4/1/2021 8:45:00 AM 4.46 40.028 0.132 7.27 4.37 12.33
4/1/2021 9:00:00 AM 4.43 39.974 0.132 7.28 4.18 12.41
4/1/2021 9:15:00 AM 4.44 39.992 0.132 7.3 4.13 12.46
4/1/2021 9:30:00 AM 4.46 40.028 0.132 7.32 4.15 12.52
4/1/2021 9:45:00 AM 4.44 39.992 0.132 7.34 4.17 12.57
4/1/2021 10:00:00 AM 4.5 40.1 0.132 7.36 4.08 12.63
4/1/2021 10:15:00 AM 4.54 40.172 0.132 7.39 4.06 12.67
4/1/2021 10:30:00 AM 4.59 40.262 0.132 7.41 4.15 12.7
4/1/2021 10:45:00 AM 4.65 40.37 0.132 7.43 4.11 12.72
4/1/2021 11:00:00 AM 4.71 40.478 0.133 7.45 4.1 12.74
4/1/2021 11:15:00 AM 4.77 40.586 0.133 7.46 4.26 12.74
4/1/2021 11:30:00 AM 4.84 40.712 0.133 7.47 5.2 12.75
4/1/2021 11:45:00 AM 4.93 40.874 0.133 7.5 4.15 12.74
4/1/2021 12:00:00 PM 5.03 41.054 0.133 7.51 4.26 12.74
4/1/2021 12:15:00 PM 5.12 41.216 0.133 7.52 3.98 12.74
4/1/2021 12:30:00 PM 5.17 41.306 0.133 7.54 4.07 12.73
4/1/2021 12:45:00 PM 5.22 41.396 0.133 7.54 4.04 12.72
4/1/2021 1:00:00 PM 5.26 41.468 0.133 7.55 4.1 12.7
4/1/2021 1:15:00 PM 5.28 41.504 0.133 7.54 3.91 12.68
4/1/2021 1:30:00 PM 5.3 41.54 0.133 7.54 4.07 12.66
4/1/2021 1:45:00 PM 5.28 41.504 0.133 7.53 4.06 12.64
4/1/2021 2:00:00 PM 5.26 41.468 0.133 7.54 4.03 12.63
4/1/2021 2:15:00 PM 5.27 41.486 0.133 7.54 4.18 12.63
4/1/2021 2:30:00 PM 5.33 41.594 0.133 7.55 4.04 12.64
4/1/2021 2:45:00 PM 5.34 41.612 0.133 7.57 4.03 12.65
4/1/2021 3:00:00 PM 5.36 41.648 0.133 7.56 4 12.64
4/1/2021 3:15:00 PM 5.31 41.558 0.133 7.55 4.05 12.62
4/1/2021 3:30:00 PM 5.32 41.576 0.133 7.55 4.07 12.62
4/1/2021 3:45:00 PM 5.25 41.45 0.133 7.54 4.04 12.61
4/1/2021 4:00:00 PM 5.23 41.414 0.133 7.54 3.99 12.61
4/1/2021 4:15:00 PM 5.26 41.468 0.133 7.54 4.01 12.62
4/1/2021 4:30:00 PM 5.21 41.378 0.133 7.55 3.96 12.62
4/1/2021 4:45:00 PM 5.17 41.306 0.133 7.54 3.99 12.59
4/1/2021 5:00:00 PM 5.09 41.162 0.132 7.51 4.09 12.57
4/1/2021 5:15:00 PM 5 41 0.132 7.49 4.1 12.58
4/1/2021 5:30:00 PM 4.85 40.73 0.132 7.46 4.14 12.59
4/1/2021 5:45:00 PM 4.78 40.604 0.132 7.44 4.12 12.62
4/1/2021 6:00:00 PM 4.72 40.496 0.132 7.44 4.21 12.61
4/1/2021 6:15:00 PM 4.69 40.442 0.133 7.43 4.12 12.6
4/1/2021 6:30:00 PM 4.64 40.352 0.133 7.42 4.08 12.58
4/1/2021 6:45:00 PM 4.59 40.262 0.133 7.41 4.14 12.56
4/1/2021 7:00:00 PM 4.53 40.154 0.133 7.39 4.13 12.53
4/1/2021 7:15:00 PM 4.5 40.1 0.133 7.37 4.08 12.49
4/1/2021 7:30:00 PM 4.44 39.992 0.133 7.36 4.15 12.43
4/1/2021 7:45:00 PM 4.41 39.938 0.133 7.34 3.99 12.39
4/1/2021 8:00:00 PM 4.35 39.83 0.134 7.33 4.09 12.35
4/1/2021 8:15:00 PM 4.29 39.722 0.134 7.3 4.26 12.33
4/1/2021 8:30:00 PM 4.22 39.596 0.134 7.29 4.24 12.32
4/1/2021 8:45:00 PM 4.16 39.488 0.135 7.28 4.3 12.31
4/1/2021 9:00:00 PM 4 39.2 0.135 7.26 4.28 12.31
4/1/2021 9:15:00 PM 3.93 39.074 0.135 7.25 4.32 12.31
4/1/2021 9:30:00 PM 3.9 39.02 0.135 7.24 4.48 12.32
4/1/2021 9:45:00 PM 3.85 38.93 0.135 7.24 4.6 12.33
4/1/2021 10:00:00 PM 3.78 38.804 0.135 7.23 4.45 12.35
4/1/2021 10:15:00 PM 3.73 38.714 0.136 7.23 4.32 12.35
4/1/2021 10:30:00 PM 3.69 38.642 0.136 7.23 4.26 12.37
4/1/2021 10:45:00 PM 3.64 38.552 0.136 7.23 4.36 12.39
4/1/2021 11:00:00 PM 3.56 38.408 0.136 7.22 4.33 12.41
4/1/2021 11:15:00 PM 3.41 38.138 0.136 7.21 4.23 12.44
4/1/2021 11:30:00 PM 3.35 38.03 0.136 7.2 4.22 12.47
4/1/2021 11:45:00 PM 3.3 37.94 0.136 7.2 4.27 12.48
4/2/2021 12:00:00 AM 3.26 37.868 0.137 7.21 4.33 12.51
4/2/2021 12:15:00 AM 3.2 37.76 0.137 7.21 4.85 12.53
4/2/2021 12:30:00 AM 3.16 37.688 0.137 7.21 4.61 12.54
4/2/2021 12:45:00 AM 3.11 37.598 0.137 7.22 4.45 12.56
4/2/2021 1:00:00 AM 3.04 37.472 0.137 7.21 4.33 12.59
4/2/2021 1:15:00 AM 2.97 37.346 0.137 7.21 4.36 12.62
4/2/2021 1:30:00 AM 2.89 37.202 0.138 7.22 4.31 12.64
4/2/2021 1:45:00 AM 2.81 37.058 0.138 7.23 4.37 12.68
4/2/2021 2:00:00 AM 2.73 36.914 0.138 7.23 4.31 12.71
4/2/2021 2:15:00 AM 2.66 36.788 0.138 7.25 4.3 12.73
4/2/2021 2:30:00 AM 2.6 36.68 0.138 7.25 4.35 12.76
4/2/2021 2:45:00 AM 2.54 36.572 0.139 7.23 4.37 12.78
4/2/2021 3:00:00 AM 2.47 36.446 0.139 7.23 4.23 12.81
4/2/2021 3:15:00 AM 2.4 36.32 0.139 7.23 4.28 12.83
4/2/2021 3:30:00 AM 2.34 36.212 0.139 7.23 4.23 12.86
4/2/2021 3:45:00 AM 2.28 36.104 0.139 7.25 4.29 12.89
4/2/2021 4:00:00 AM 2.23 36.014 0.139 7.24 4.22 12.9
4/2/2021 4:15:00 AM 2.18 35.924 0.139 7.24 4.19 12.92
4/2/2021 4:30:00 AM 2.13 35.834 0.139 7.25 4.26 12.95
4/2/2021 4:45:00 AM 2.07 35.726 0.139 7.25 4.25 12.96
4/2/2021 5:00:00 AM 2.02 35.636 0.14 7.25 4.25 12.99
4/2/2021 5:15:00 AM 1.97 35.546 0.14 7.25 4.3 13
4/2/2021 5:30:00 AM 1.92 35.456 0.14 7.25 4.27 13.02
4/2/2021 5:45:00 AM 1.87 35.366 0.14 7.24 4.33 13.03
4/2/2021 6:00:00 AM 1.81 35.258 0.14 7.25 4.38 13.07
4/2/2021 6:15:00 AM 1.77 35.186 0.14 7.26 4.34 13.08
4/2/2021 6:30:00 AM 1.72 35.096 0.14 7.25 4.51 13.1
4/2/2021 6:45:00 AM 1.68 35.024 0.14 7.25 4.37 13.12
4/2/2021 7:00:00 AM 1.65 34.97 0.141 7.26 4.28 13.15
4/2/2021 7:15:00 AM 1.62 34.916 0.141 7.25 4.21 13.19
4/2/2021 7:30:00 AM 1.59 34.862 0.141 7.26 4.13 13.23
4/2/2021 7:45:00 AM 1.59 34.862 0.141 7.28 4.3 13.27
4/2/2021 8:00:00 AM 1.57 34.826 0.141 7.28 4.45 13.33
4/2/2021 8:15:00 AM 1.56 34.808 0.141 7.3 4.17 13.39
4/2/2021 8:30:00 AM 1.55 34.79 0.141 7.31 4.14 13.45
4/2/2021 8:45:00 AM 1.55 34.79 0.141 7.31 4.12 13.5
4/2/2021 9:00:00 AM 1.57 34.826 0.141 7.33 4.19 13.56
4/2/2021 9:15:00 AM 1.59 34.862 0.141 7.35 4.25 13.61
4/2/2021 9:30:00 AM 1.61 34.898 0.141 7.36 4.16 13.65
4/2/2021 9:45:00 AM 1.68 35.024 0.141 7.37 4.08 13.68
4/2/2021 10:00:00 AM 1.75 35.15 0.141 7.39 3.96 13.7
4/2/2021 10:15:00 AM 1.83 35.294 0.141 7.4 3.89 13.71
4/2/2021 10:30:00 AM 1.96 35.528 0.141 7.41 3.88 13.73
4/2/2021 10:45:00 AM 2.1 35.78 0.141 7.43 3.88 13.71
4/2/2021 11:00:00 AM 2.3 36.14 0.141 7.45 3.95 13.68
4/2/2021 11:15:00 AM 2.48 36.464 0.141 7.46 3.97 13.65
4/2/2021 11:30:00 AM 2.7 36.86 0.141 7.47 3.97 13.61
4/2/2021 11:45:00 AM 2.92 37.256 0.14 7.48 4.09 13.56
4/2/2021 12:00:00 PM 3.19 37.742 0.14 7.5 4.03 13.51
4/2/2021 12:15:00 PM 3.44 38.192 0.14 7.51 4.05 13.45
4/2/2021 12:30:00 PM 3.72 38.696 0.14 7.52 3.81 13.38
4/2/2021 12:45:00 PM 4.02 39.236 0.14 7.54 4.01 13.31
4/2/2021 1:00:00 PM 4.3 39.74 0.14 7.55 4.01 13.23
4/2/2021 1:15:00 PM 4.52 40.136 0.14 7.55 3.86 13.15
4/2/2021 1:30:00 PM 4.76 40.568 0.14 7.57 3.83 13.09
4/2/2021 1:45:00 PM 4.99 40.982 0.14 7.57 3.71 13.03
4/2/2021 2:00:00 PM 5.17 41.306 0.14 7.58 3.87 12.97
4/2/2021 2:15:00 PM 5.35 41.63 0.14 7.58 3.78 12.91
4/2/2021 2:30:00 PM 5.49 41.882 0.141 7.59 3.87 12.86
4/2/2021 2:45:00 PM 5.58 42.044 0.141 7.59 3.81 12.81
4/2/2021 3:00:00 PM 5.66 42.188 0.141 7.59 3.73 12.79
4/2/2021 3:15:00 PM 5.71 42.278 0.141 7.6 3.83 12.75
4/2/2021 3:30:00 PM 5.72 42.296 0.141 7.6 3.72 12.72
4/2/2021 3:45:00 PM 5.72 42.296 0.141 7.6 3.91 12.69
4/2/2021 4:00:00 PM 5.68 42.224 0.141 7.6 3.83 12.67
4/2/2021 4:15:00 PM 5.6 42.08 0.142 7.58 3.84 12.67
4/2/2021 4:30:00 PM 5.49 41.882 0.142 7.59 3.89 12.66
4/2/2021 4:45:00 PM 5.36 41.648 0.142 7.57 4 12.65
4/2/2021 5:00:00 PM 5.22 41.396 0.142 7.56 3.91 12.64
4/2/2021 5:15:00 PM 5.1 41.18 0.142 7.55 3.98 12.63
4/2/2021 5:30:00 PM 4.96 40.928 0.142 7.54 3.93 12.63
4/2/2021 5:45:00 PM 4.82 40.676 0.143 7.52 3.96 12.63
4/2/2021 6:00:00 PM 4.69 40.442 0.143 7.51 3.89 12.63
4/2/2021 6:15:00 PM 4.58 40.244 0.143 7.5 3.9 12.63
4/2/2021 6:30:00 PM 4.46 40.028 0.143 7.49 3.83 12.62
4/2/2021 6:45:00 PM 4.34 39.812 0.143 7.47 3.93 12.61
4/2/2021 7:00:00 PM 4.24 39.632 0.144 7.46 3.86 12.59
4/2/2021 7:15:00 PM 4.14 39.452 0.143 7.44 4.06 12.58
4/2/2021 7:30:00 PM 4.04 39.272 0.143 7.43 3.93 12.57
4/2/2021 7:45:00 PM 3.96 39.128 0.143 7.42 3.83 12.56
4/2/2021 8:00:00 PM 3.89 39.002 0.143 7.41 3.97 12.55
4/2/2021 8:15:00 PM 3.83 38.894 0.144 7.39 4.22 12.53
4/2/2021 8:30:00 PM 3.78 38.804 0.144 7.39 4.12 12.52
4/2/2021 8:45:00 PM 3.73 38.714 0.144 7.37 4.19 12.51
4/2/2021 9:00:00 PM 3.68 38.624 0.144 7.37 4.15 12.5
4/2/2021 9:15:00 PM 3.64 38.552 0.144 7.36 4.19 12.49
4/2/2021 9:30:00 PM 3.61 38.498 0.144 7.36 4.31 12.5
4/2/2021 9:45:00 PM 3.57 38.426 0.143 7.36 4.31 12.5
4/2/2021 10:00:00 PM 3.53 38.354 0.143 7.35 4.18 12.5
4/2/2021 10:15:00 PM 3.49 38.282 0.143 7.35 4.19 12.51
4/2/2021 10:30:00 PM 3.46 38.228 0.143 7.34 4.2 12.51
4/2/2021 10:45:00 PM 3.42 38.156 0.143 7.34 4.05 12.52
4/2/2021 11:00:00 PM 3.38 38.084 0.143 7.34 4.23 12.52
4/2/2021 11:15:00 PM 3.35 38.03 0.144 7.33 4.38 12.53
4/2/2021 11:30:00 PM 3.32 37.976 0.144 7.33 4.22 12.54
4/2/2021 11:45:00 PM 3.28 37.904 0.144 7.33 4.41 12.54
4/3/2021 12:00:00 AM 3.25 37.85 0.144 7.32 4.82 12.55
4/3/2021 12:15:00 AM 3.22 37.796 0.144 7.32 4.17 12.57
4/3/2021 12:30:00 AM 3.18 37.724 0.144 7.32 4.26 12.58
4/3/2021 12:45:00 AM 3.14 37.652 0.144 7.31 4.33 12.58
4/3/2021 1:00:00 AM 3.1 37.58 0.144 7.31 4.19 12.6
4/3/2021 1:15:00 AM 3.06 37.508 0.144 7.31 4.04 12.61
4/3/2021 1:30:00 AM 3.01 37.418 0.144 7.31 3.99 12.64
4/3/2021 1:45:00 AM 2.96 37.328 0.144 7.3 4.11 12.65
4/3/2021 2:00:00 AM 2.9 37.22 0.144 7.29 4.34 12.67
4/3/2021 2:15:00 AM 2.85 37.13 0.144 7.29 4.14 12.69
4/3/2021 2:30:00 AM 2.79 37.022 0.144 7.29 4.15 12.72
4/3/2021 2:45:00 AM 2.73 36.914 0.145 7.29 4.06 12.74
4/3/2021 3:00:00 AM 2.67 36.806 0.145 7.29 4.16 12.76
4/3/2021 3:15:00 AM 2.61 36.698 0.145 7.28 4.14 12.78
4/3/2021 3:30:00 AM 2.54 36.572 0.145 7.28 4.18 12.81
4/3/2021 3:45:00 AM 2.49 36.482 0.145 7.28 4.24 12.84
4/3/2021 4:00:00 AM 2.43 36.374 0.145 7.28 4.28 12.86
4/3/2021 4:15:00 AM 2.37 36.266 0.145 7.27 4.21 12.88
4/3/2021 4:30:00 AM 2.31 36.158 0.145 7.26 4.2 12.9
4/3/2021 4:45:00 AM 2.25 36.05 0.146 7.27 4.36 12.93
4/3/2021 5:00:00 AM 2.19 35.942 0.146 7.26 4.31 12.95
4/3/2021 5:15:00 AM 2.13 35.834 0.146 7.26 4.24 12.97
4/3/2021 5:30:00 AM 2.07 35.726 0.146 7.26 4.25 12.99
4/3/2021 5:45:00 AM 2.01 35.618 0.146 7.27 4.16 13.02
4/3/2021 6:00:00 AM 1.96 35.528 0.146 7.26 4.06 13.05
4/3/2021 6:15:00 AM 1.9 35.42 0.146 7.26 4.61 13.07
4/3/2021 6:30:00 AM 1.84 35.312 0.146 7.26 4.36 13.1
4/3/2021 6:45:00 AM 1.78 35.204 0.146 7.26 4.56 13.12
4/3/2021 7:00:00 AM 1.73 35.114 0.146 7.25 4.39 13.15
4/3/2021 7:15:00 AM 1.68 35.024 0.146 7.27 4.39 13.19
4/3/2021 7:30:00 AM 1.64 34.952 0.146 7.27 4.15 13.24
4/3/2021 7:45:00 AM 1.6 34.88 0.147 7.28 4.1 13.29
4/3/2021 8:00:00 AM 1.58 34.844 0.147 7.29 4.15 13.34
4/3/2021 8:15:00 AM 1.56 34.808 0.147 7.3 4.23 13.4
4/3/2021 8:30:00 AM 1.55 34.79 0.147 7.31 4.09 13.46
4/3/2021 8:45:00 AM 1.57 34.826 0.147 7.33 4.1 13.52
4/3/2021 9:00:00 AM 1.6 34.88 0.147 7.34 4.05 13.56
4/3/2021 9:15:00 AM 1.65 34.97 0.147 7.35 4.37 13.59
4/3/2021 9:30:00 AM 1.73 35.114 0.147 7.38 4.19 13.63
4/3/2021 9:45:00 AM 1.82 35.276 0.147 7.4 3.92 13.66
4/3/2021 10:00:00 AM 1.95 35.51 0.146 7.41 4.07 13.67
4/3/2021 10:15:00 AM 2.1 35.78 0.146 7.43 4.08 13.67
4/3/2021 10:30:00 AM 2.27 36.086 0.146 7.44 4.16 13.66
4/3/2021 10:45:00 AM 2.47 36.446 0.146 7.46 4.18 13.64
4/3/2021 11:00:00 AM 2.7 36.86 0.146 7.47 4.18 13.61
4/3/2021 11:15:00 AM 2.94 37.292 0.146 7.49 4.09 13.57
4/3/2021 11:30:00 AM 3.2 37.76 0.146 7.5 4.1 13.52
4/3/2021 11:45:00 AM 3.47 38.246 0.146 7.52 3.88 13.45
4/3/2021 12:00:00 PM 3.76 38.768 0.146 7.54 4.08 13.39
4/3/2021 12:15:00 PM 4.07 39.326 0.145 7.55 3.87 13.32
4/3/2021 12:30:00 PM 4.39 39.902 0.145 7.56 3.96 13.24
4/3/2021 12:45:00 PM 4.71 40.478 0.145 7.57 3.89 13.16
4/3/2021 1:00:00 PM 5.04 41.072 0.145 7.59 3.8 13.08
4/3/2021 1:15:00 PM 5.34 41.612 0.145 7.6 3.69 13
4/3/2021 1:30:00 PM 5.62 42.116 0.145 7.61 3.91 12.92
4/3/2021 1:45:00 PM 5.89 42.602 0.145 7.62 3.77 12.84
4/3/2021 2:00:00 PM 6.13 43.034 0.145 7.63 3.91 12.78
4/3/2021 2:15:00 PM 6.36 43.448 0.145 7.64 3.71 12.7
4/3/2021 2:30:00 PM 6.55 43.79 0.145 7.65 3.69 12.65
4/3/2021 2:45:00 PM 6.71 44.078 0.145 7.66 3.63 12.58
4/3/2021 3:00:00 PM 6.81 44.258 0.146 7.66 3.81 12.53
4/3/2021 3:15:00 PM 6.81 44.258 0.146 7.65 3.77 12.5
4/3/2021 3:30:00 PM 6.87 44.366 0.146 7.66 3.75 12.45
4/3/2021 3:45:00 PM 6.86 44.348 0.146 7.66 3.85 12.43
4/3/2021 4:00:00 PM 6.78 44.204 0.146 7.66 3.77 12.42
4/3/2021 4:15:00 PM 6.71 44.078 0.146 7.66 3.88 12.42
4/3/2021 4:30:00 PM 6.65 43.97 0.146 7.66 4.17 12.41
4/3/2021 4:45:00 PM 6.58 43.844 0.146 7.66 4.04 12.41
4/3/2021 5:00:00 PM 6.49 43.682 0.147 7.65 4.16 12.41
4/3/2021 5:15:00 PM 6.43 43.574 0.147 7.64 4.08 12.39
4/3/2021 5:30:00 PM 6.37 43.466 0.147 7.63 4.02 12.38
4/3/2021 5:45:00 PM 6.3 43.34 0.147 7.63 4.02 12.36
4/3/2021 6:00:00 PM 6.22 43.196 0.147 7.62 3.93 12.36
4/3/2021 6:15:00 PM 6.15 43.07 0.147 7.61 3.92 12.34
4/3/2021 6:30:00 PM 6.1 42.98 0.147 7.6 3.99 12.32
4/3/2021 6:45:00 PM 6.06 42.908 0.147 7.59 3.93 12.28
4/3/2021 7:00:00 PM 6 42.8 0.147 7.57 4.15 12.23
4/3/2021 7:15:00 PM 5.93 42.674 0.147 7.55 4.04 12.18
4/3/2021 7:30:00 PM 5.85 42.53 0.148 7.53 3.88 12.12
4/3/2021 7:45:00 PM 5.77 42.386 0.148 7.5 3.85 12.07
4/3/2021 8:00:00 PM 5.7 42.26 0.148 7.48 3.95 12.03
4/3/2021 8:15:00 PM 5.63 42.134 0.148 7.46 3.89 11.98
4/3/2021 8:30:00 PM 5.58 42.044 0.148 7.44 4.01 11.95
4/3/2021 8:45:00 PM 5.54 41.972 0.148 7.42 4.01 11.93
4/3/2021 9:00:00 PM 5.5 41.9 0.148 7.42 4.08 11.9
4/3/2021 9:15:00 PM 5.47 41.846 0.148 7.4 4.17 11.89
4/3/2021 9:30:00 PM 5.46 41.828 0.148 7.4 4.15 11.88
4/3/2021 9:45:00 PM 5.44 41.792 0.148 7.4 4.08 11.86
4/3/2021 10:00:00 PM 5.44 41.792 0.148 7.39 4.41 11.85
4/3/2021 10:15:00 PM 5.44 41.792 0.148 7.39 4 11.84
4/3/2021 10:30:00 PM 5.45 41.81 0.148 7.38 4.07 11.83
4/3/2021 10:45:00 PM 5.46 41.828 0.148 7.38 4.01 11.82
4/3/2021 11:00:00 PM 5.48 41.864 0.148 7.37 4.19 11.8
4/3/2021 11:15:00 PM 5.49 41.882 0.148 7.37 4.05 11.8
4/3/2021 11:30:00 PM 5.5 41.9 0.147 7.37 4.01 11.8
4/3/2021 11:45:00 PM 5.5 41.9 0.147 7.37 4.05 11.79
4/4/2021 12:00:00 AM 5.5 41.9 0.147 7.37 4.23 11.79
4/4/2021 12:15:00 AM 5.5 41.9 0.147 7.37 4.05 11.79
4/4/2021 12:30:00 AM 5.49 41.882 0.147 7.36 4.1 11.78
4/4/2021 12:45:00 AM 5.48 41.864 0.147 7.36 4.09 11.78
4/4/2021 1:00:00 AM 5.47 41.846 0.147 7.35 4.12 11.78
4/4/2021 1:15:00 AM 5.46 41.828 0.147 7.35 4.11 11.78
4/4/2021 1:30:00 AM 5.45 41.81 0.147 7.35 4.19 11.78
4/4/2021 1:45:00 AM 5.43 41.774 0.147 7.35 4.1 11.78
4/4/2021 2:00:00 AM 5.42 41.756 0.147 7.35 4.37 11.78
4/4/2021 2:15:00 AM 5.4 41.72 0.147 7.34 4.08 11.79
4/4/2021 2:30:00 AM 5.38 41.684 0.147 7.35 4.19 11.79
4/4/2021 2:45:00 AM 5.36 41.648 0.147 7.34 4.1 11.79
4/4/2021 3:00:00 AM 5.33 41.594 0.147 7.33 4.22 11.8
4/4/2021 3:15:00 AM 5.3 41.54 0.147 7.34 4.1 11.8
4/4/2021 3:30:00 AM 5.28 41.504 0.147 7.33 4.22 11.81
4/4/2021 3:45:00 AM 5.25 41.45 0.147 7.33 4.32 11.81
4/4/2021 4:00:00 AM 5.22 41.396 0.147 7.34 4.52 11.83
4/4/2021 4:15:00 AM 5.19 41.342 0.148 7.33 4.32 11.83
4/4/2021 4:30:00 AM 5.17 41.306 0.148 7.33 4.24 11.84
4/4/2021 4:45:00 AM 5.14 41.252 0.148 7.33 4.22 11.85
4/4/2021 5:00:00 AM 5.11 41.198 0.148 7.33 4.31 11.86
4/4/2021 5:15:00 AM 5.07 41.126 0.148 7.33 4.4 11.86
4/4/2021 5:30:00 AM 5.04 41.072 0.148 7.33 4.14 11.87
4/4/2021 5:45:00 AM 4.99 40.982 0.148 7.33 4.18 11.89
4/4/2021 6:00:00 AM 4.95 40.91 0.148 7.33 4.23 11.9
4/4/2021 6:15:00 AM 4.9 40.82 0.148 7.32 4.23 11.91
4/4/2021 6:30:00 AM 4.84 40.712 0.148 7.31 4.36 11.93
4/4/2021 6:45:00 AM 4.78 40.604 0.148 7.31 4.25 11.94
4/4/2021 7:00:00 AM 4.73 40.514 0.148 7.31 4.31 11.97
4/4/2021 7:15:00 AM 4.68 40.424 0.148 7.32 4.25 12
4/4/2021 7:30:00 AM 4.63 40.334 0.148 7.33 4.1 12.05
4/4/2021 7:45:00 AM 4.59 40.262 0.148 7.33 4.09 12.11
4/4/2021 8:00:00 AM 4.55 40.19 0.148 7.34 4.25 12.18
4/4/2021 8:15:00 AM 4.53 40.154 0.148 7.35 4.14 12.24
4/4/2021 8:30:00 AM 4.51 40.118 0.148 7.36 4.14 12.31
4/4/2021 8:45:00 AM 4.51 40.118 0.148 7.38 4.14 12.38
4/4/2021 9:00:00 AM 4.53 40.154 0.148 7.4 4.27 12.44
4/4/2021 9:15:00 AM 4.57 40.226 0.148 7.42 4.29 12.5
4/4/2021 9:30:00 AM 4.64 40.352 0.148 7.45 4.23 12.56
4/4/2021 9:45:00 AM 4.7 40.46 0.147 7.46 3.97 12.6
4/4/2021 10:00:00 AM 4.82 40.676 0.147 7.49 3.94 12.63
4/4/2021 10:15:00 AM 4.95 40.91 0.147 7.52 3.9 12.65
4/4/2021 10:30:00 AM 5.08 41.144 0.147 7.53 3.94 12.66
4/4/2021 10:45:00 AM 5.28 41.504 0.147 7.55 3.88 12.66
4/4/2021 11:00:00 AM 5.49 41.882 0.147 7.58 3.88 12.65
4/4/2021 11:15:00 AM 5.72 42.296 0.147 7.59 3.79 12.63
4/4/2021 11:30:00 AM 5.97 42.746 0.147 7.62 3.79 12.6
4/4/2021 11:45:00 AM 6.24 43.232 0.146 7.64 3.68 12.57
4/4/2021 12:00:00 PM 6.51 43.718 0.146 7.65 3.74 12.52
4/4/2021 12:15:00 PM 6.81 44.258 0.146 7.67 3.74 12.47
4/4/2021 12:30:00 PM 7.13 44.834 0.146 7.7 3.75 12.42
4/4/2021 12:45:00 PM 7.44 45.392 0.146 7.71 3.71 12.35
4/4/2021 1:00:00 PM 7.75 45.95 0.146 7.74 3.79 12.3
4/4/2021 1:15:00 PM 8.06 46.508 0.146 7.75 3.89 12.24
4/4/2021 1:30:00 PM 8.34 47.012 0.146 7.76 3.66 12.17
4/4/2021 1:45:00 PM 8.61 47.498 0.146 7.77 3.68 12.12
4/4/2021 2:00:00 PM 8.85 47.93 0.146 7.78 3.72 12.05
4/4/2021 2:15:00 PM 9.06 48.308 0.146 7.8 3.65 12
4/4/2021 2:30:00 PM 9.24 48.632 0.146 7.81 3.85 11.94
4/4/2021 2:45:00 PM 9.41 48.938 0.146 7.81 3.8 11.89
4/4/2021 3:00:00 PM 9.53 49.154 0.146 7.82 3.79 11.85
4/4/2021 3:15:00 PM 9.62 49.316 0.146 7.83 3.81 11.8
4/4/2021 3:30:00 PM 9.67 49.406 0.146 7.82 3.96 11.76
4/4/2021 3:45:00 PM 9.7 49.46 0.147 7.83 4.41 11.73
4/4/2021 4:00:00 PM 9.7 49.46 0.147 7.82 3.73 11.71
4/4/2021 4:15:00 PM 9.66 49.388 0.147 7.81 3.81 11.67
4/4/2021 4:30:00 PM 9.57 49.226 0.147 7.81 3.8 11.64
4/4/2021 4:45:00 PM 9.45 49.01 0.147 7.79 3.82 11.62
4/4/2021 5:00:00 PM 9.3 48.74 0.147 7.77 3.74 11.58
4/4/2021 5:15:00 PM 9.17 48.506 0.147 7.75 3.78 11.55
4/4/2021 5:30:00 PM 9.06 48.308 0.147 7.73 3.84 11.53
4/4/2021 5:45:00 PM 8.94 48.092 0.147 7.71 3.85 11.5
4/4/2021 6:00:00 PM 8.82 47.876 0.147 7.69 3.85 11.48
4/4/2021 6:15:00 PM 8.69 47.642 0.148 7.67 3.81 11.44
4/4/2021 6:30:00 PM 8.57 47.426 0.148 7.65 3.82 11.42
4/4/2021 6:45:00 PM 8.44 47.192 0.148 7.62 3.86 11.4
4/4/2021 7:00:00 PM 8.31 46.958 0.148 7.6 3.97 11.36
4/4/2021 7:15:00 PM 8.2 46.76 0.148 7.58 3.85 11.33
4/4/2021 7:30:00 PM 8.1 46.58 0.149 7.56 3.72 11.3
4/4/2021 7:45:00 PM 8 46.4 0.149 7.53 4.14 11.27
4/4/2021 8:00:00 PM 7.91 46.238 0.149 7.52 3.97 11.24
4/4/2021 8:15:00 PM 7.83 46.094 0.149 7.49 4.02 11.22
4/4/2021 8:30:00 PM 7.74 45.932 0.149 7.48 4.19 11.2
4/4/2021 8:45:00 PM 7.65 45.77 0.149 7.46 4.09 11.18
4/4/2021 9:00:00 PM 7.57 45.626 0.149 7.44 4.21 11.17
4/4/2021 9:15:00 PM 7.48 45.464 0.149 7.43 4.12 11.16
4/4/2021 9:30:00 PM 7.41 45.338 0.149 7.42 4.18 11.16
4/4/2021 9:45:00 PM 7.34 45.212 0.15 7.41 4.17 11.17
4/4/2021 10:00:00 PM 7.27 45.086 0.15 7.41 4.21 11.17
4/4/2021 10:15:00 PM 7.21 44.978 0.15 7.39 4.15 11.18
4/4/2021 10:30:00 PM 7.14 44.852 0.15 7.39 4.14 11.19
4/4/2021 10:45:00 PM 7.08 44.744 0.15 7.38 4.12 11.19
4/4/2021 11:00:00 PM 7.01 44.618 0.15 7.38 4.12 11.21
4/4/2021 11:15:00 PM 6.95 44.51 0.15 7.37 4.26 11.22
4/4/2021 11:30:00 PM 6.88 44.384 0.15 7.37 4.3 11.23
4/4/2021 11:45:00 PM 6.82 44.276 0.15 7.36 4.12 11.25
4/5/2021 12:00:00 AM 6.76 44.168 0.15 7.36 4.24 11.26
4/5/2021 12:15:00 AM 6.7 44.06 0.15 7.36 4.45 11.27
4/5/2021 12:30:00 AM 6.64 43.952 0.15 7.36 4.37 11.29
4/5/2021 12:45:00 AM 6.58 43.844 0.15 7.35 4.14 11.3
4/5/2021 1:00:00 AM 6.53 43.754 0.15 7.36 4.13 11.31
4/5/2021 1:15:00 AM 6.47 43.646 0.15 7.35 4.17 11.33
4/5/2021 1:30:00 AM 6.41 43.538 0.15 7.35 4.3 11.35
4/5/2021 1:45:00 AM 6.35 43.43 0.15 7.35 4.19 11.36
4/5/2021 2:00:00 AM 6.29 43.322 0.15 7.35 4.17 11.38
4/5/2021 2:15:00 AM 6.22 43.196 0.15 7.34 4.22 11.4
4/5/2021 2:30:00 AM 6.16 43.088 0.15 7.34 4.11 11.42
4/5/2021 2:45:00 AM 6.09 42.962 0.15 7.34 4.19 11.44
4/5/2021 3:00:00 AM 6.02 42.836 0.15 7.34 4.11 11.46
4/5/2021 3:15:00 AM 5.95 42.71 0.151 7.34 4.17 11.48
4/5/2021 3:30:00 AM 5.88 42.584 0.151 7.33 4.2 11.5
4/5/2021 3:45:00 AM 5.8 42.44 0.151 7.33 4.24 11.52
4/5/2021 4:00:00 AM 5.73 42.314 0.151 7.33 4.19 11.56
4/5/2021 4:15:00 AM 5.65 42.17 0.151 7.32 4.18 11.58
4/5/2021 4:30:00 AM 5.58 42.044 0.151 7.32 4.3 11.6
4/5/2021 4:45:00 AM 5.5 41.9 0.151 7.32 4.21 11.63
4/5/2021 5:00:00 AM 5.43 41.774 0.151 7.32 4.28 11.66
4/5/2021 5:15:00 AM 5.35 41.63 0.151 7.32 4.24 11.68
4/5/2021 5:30:00 AM 5.28 41.504 0.151 7.32 4.3 11.71
4/5/2021 5:45:00 AM 5.21 41.378 0.151 7.32 4.22 11.73
4/5/2021 6:00:00 AM 5.14 41.252 0.152 7.31 4.28 11.76
4/5/2021 6:15:00 AM 5.07 41.126 0.152 7.32 4.28 11.79
4/5/2021 6:30:00 AM 5 41 0.152 7.32 4.21 11.81
4/5/2021 6:45:00 AM 4.93 40.874 0.152 7.32 4.34 11.83
4/5/2021 7:00:00 AM 4.86 40.748 0.152 7.32 4.53 11.87
4/5/2021 7:15:00 AM 4.81 40.658 0.152 7.32 4.57 11.91
4/5/2021 7:30:00 AM 4.75 40.55 0.152 7.33 4.5 11.96
4/5/2021 7:45:00 AM 4.7 40.46 0.152 7.34 4.53 12.02
4/5/2021 8:00:00 AM 4.67 40.406 0.152 7.35 4.44 12.1
4/5/2021 8:15:00 AM 4.64 40.352 0.152 7.36 4.27 12.16
4/5/2021 8:30:00 AM 4.63 40.334 0.152 7.37 4.27 12.24
4/5/2021 8:45:00 AM 4.63 40.334 0.152 7.39 4.26 12.3
4/5/2021 9:00:00 AM 4.65 40.37 0.152 7.41 4.23 12.37
4/5/2021 9:15:00 AM 4.7 40.46 0.152 7.43 4.11 12.42
4/5/2021 9:30:00 AM 4.78 40.604 0.152 7.45 4.14 12.47
4/5/2021 9:45:00 AM 4.87 40.766 0.152 7.47 4.14 12.52
4/5/2021 10:00:00 AM 5.01 41.018 0.151 7.5 3.98 12.55
4/5/2021 10:15:00 AM 5.16 41.288 0.151 7.53 4.02 12.57
4/5/2021 10:30:00 AM 5.35 41.63 0.151 7.55 3.89 12.58
4/5/2021 10:45:00 AM 5.55 41.99 0.151 7.58 4.11 12.59
4/5/2021 11:00:00 AM 5.78 42.404 0.151 7.6 4.03 12.58
4/5/2021 11:15:00 AM 6.02 42.836 0.151 7.61 3.86 12.57
4/5/2021 11:30:00 AM 6.28 43.304 0.151 7.64 3.82 12.54
4/5/2021 11:45:00 AM 6.57 43.826 0.151 7.66 3.88 12.49
4/5/2021 12:00:00 PM 6.87 44.366 0.151 7.68 3.78 12.45
4/5/2021 12:15:00 PM 7.19 44.942 0.151 7.71 3.77 12.4
4/5/2021 12:30:00 PM 7.52 45.536 0.151 7.73 3.76 12.35
4/5/2021 12:45:00 PM 7.85 46.13 0.151 7.75 3.65 12.29
4/5/2021 1:00:00 PM 8.17 46.706 0.15 7.77 3.75 12.23
4/5/2021 1:15:00 PM 8.48 47.264 0.15 7.79 3.64 12.16
4/5/2021 1:30:00 PM 8.77 47.786 0.15 7.8 3.73 12.1
4/5/2021 1:45:00 PM 9.03 48.254 0.15 7.82 3.9 12.04
4/5/2021 2:00:00 PM 9.27 48.686 0.15 7.83 3.71 11.98
4/5/2021 2:15:00 PM 9.48 49.064 0.151 7.85 3.71 11.92
4/5/2021 2:30:00 PM 9.66 49.388 0.151 7.86 3.75 11.87
4/5/2021 2:45:00 PM 9.79 49.622 0.151 7.87 3.7 11.83
4/5/2021 3:00:00 PM 9.89 49.802 0.151 7.87 3.85 11.78
4/5/2021 3:15:00 PM 9.98 49.964 0.151 7.88 3.81 11.74
4/5/2021 3:30:00 PM 10.02 50.036 0.151 7.88 3.74 11.7
4/5/2021 3:45:00 PM 10.02 50.036 0.151 7.88 3.78 11.66
4/5/2021 4:00:00 PM 9.99 49.982 0.151 7.87 3.79 11.64
4/5/2021 4:15:00 PM 9.92 49.856 0.152 7.87 3.8 11.61
4/5/2021 4:30:00 PM 9.83 49.694 0.152 7.86 3.76 11.58
4/5/2021 4:45:00 PM 9.7 49.46 0.152 7.84 3.72 11.56
4/5/2021 5:00:00 PM 9.55 49.19 0.152 7.82 3.79 11.53
4/5/2021 5:15:00 PM 9.4 48.92 0.152 7.8 3.88 11.52
4/5/2021 5:30:00 PM 9.26 48.668 0.152 7.78 3.82 11.52
4/5/2021 5:45:00 PM 9.12 48.416 0.153 7.76 4.06 11.5
4/5/2021 6:00:00 PM 8.98 48.164 0.153 7.74 3.83 11.48
4/5/2021 6:15:00 PM 8.85 47.93 0.153 7.72 3.89 11.46
4/5/2021 6:30:00 PM 8.73 47.714 0.153 7.69 3.86 11.45
4/5/2021 6:45:00 PM 8.6 47.48 0.153 7.67 3.76 11.42
4/5/2021 7:00:00 PM 8.49 47.282 0.153 7.64 3.89 11.39
4/5/2021 7:15:00 PM 8.38 47.084 0.154 7.62 3.85 11.35
4/5/2021 7:30:00 PM 8.28 46.904 0.154 7.59 3.96 11.31
4/5/2021 7:45:00 PM 8.18 46.724 0.154 7.57 4.03 11.27
4/5/2021 8:00:00 PM 8.08 46.544 0.154 7.54 3.96 11.23
4/5/2021 8:15:00 PM 7.99 46.382 0.154 7.52 3.94 11.2
4/5/2021 8:30:00 PM 7.89 46.202 0.154 7.5 4.16 11.17
4/5/2021 8:45:00 PM 7.79 46.022 0.155 7.48 4.24 11.14
4/5/2021 9:00:00 PM 7.7 45.86 0.155 7.47 4.41 11.13
4/5/2021 9:15:00 PM 7.61 45.698 0.155 7.45 4.5 11.12
4/5/2021 9:30:00 PM 7.52 45.536 0.155 7.44 4.4 11.12
4/5/2021 9:45:00 PM 7.44 45.392 0.155 7.43 4.28 11.12
4/5/2021 10:00:00 PM 7.35 45.23 0.155 7.42 4.37 11.13
4/5/2021 10:15:00 PM 7.27 45.086 0.155 7.41 4.12 11.13
4/5/2021 10:30:00 PM 7.19 44.942 0.155 7.4 4.15 11.14
4/5/2021 10:45:00 PM 7.11 44.798 0.155 7.4 4.07 11.15
4/5/2021 11:00:00 PM 7.03 44.654 0.155 7.4 4.16 11.17
4/5/2021 11:15:00 PM 6.94 44.492 0.155 7.39 4.41 11.18
4/5/2021 11:30:00 PM 6.87 44.366 0.155 7.39 4.14 11.2
4/5/2021 11:45:00 PM 6.79 44.222 0.155 7.38 4.19 11.22
4/6/2021 12:00:00 AM 6.72 44.096 0.155 7.38 4.24 11.23
4/6/2021 12:15:00 AM 6.65 43.97 0.155 7.38 4.84 11.25
4/6/2021 12:30:00 AM 6.58 43.844 0.155 7.38 4.33 11.26
4/6/2021 12:45:00 AM 6.52 43.736 0.155 7.38 4.09 11.28
4/6/2021 1:00:00 AM 6.46 43.628 0.155 7.38 4.11 11.29
4/6/2021 1:15:00 AM 6.4 43.52 0.155 7.37 4.17 11.31
4/6/2021 1:30:00 AM 6.34 43.412 0.155 7.37 4.08 11.33
4/6/2021 1:45:00 AM 6.28 43.304 0.155 7.37 4.22 11.34
4/6/2021 2:00:00 AM 6.23 43.214 0.155 7.38 4.19 11.35
4/6/2021 2:15:00 AM 6.17 43.106 0.155 7.37 4.29 11.37
4/6/2021 2:30:00 AM 6.11 42.998 0.155 7.38 4.47 11.39
4/6/2021 2:45:00 AM 6.05 42.89 0.155 7.37 4.45 11.41
4/6/2021 3:00:00 AM 5.99 42.782 0.156 7.37 4.26 11.42
4/6/2021 3:15:00 AM 5.92 42.656 0.156 7.37 4.17 11.44
4/6/2021 3:30:00 AM 5.85 42.53 0.156 7.37 4.2 11.47
4/6/2021 3:45:00 AM 5.78 42.404 0.156 7.37 4.21 11.49
4/6/2021 4:00:00 AM 5.71 42.278 0.156 7.37 4.3 11.52
4/6/2021 4:15:00 AM 5.64 42.152 0.156 7.37 4.1 11.53
4/6/2021 4:30:00 AM 5.57 42.026 0.156 7.36 4.21 11.56
4/6/2021 4:45:00 AM 5.5 41.9 0.156 7.36 4.18 11.58
4/6/2021 5:00:00 AM 5.43 41.774 0.156 7.36 4.1 11.6
4/6/2021 5:15:00 AM 5.35 41.63 0.156 7.36 4.26 11.63
4/6/2021 5:30:00 AM 5.28 41.504 0.156 7.36 4.26 11.66
4/6/2021 5:45:00 AM 5.21 41.378 0.157 7.36 4.23 11.68
4/6/2021 6:00:00 AM 5.14 41.252 0.157 7.36 4.11 11.7
4/6/2021 6:15:00 AM 5.07 41.126 0.157 7.36 4.33 11.73
4/6/2021 6:30:00 AM 5 41 0.157 7.36 4.38 11.75
4/6/2021 6:45:00 AM 4.93 40.874 0.157 7.36 4.29 11.78
4/6/2021 7:00:00 AM 4.86 40.748 0.157 7.36 4.25 11.82
4/6/2021 7:15:00 AM 4.8 40.64 0.157 7.36 4.24 11.86
4/6/2021 7:30:00 AM 4.74 40.532 0.157 7.37 4.56 11.92
4/6/2021 7:45:00 AM 4.69 40.442 0.157 7.38 4.5 11.99
4/6/2021 8:00:00 AM 4.66 40.388 0.157 7.4 4.43 12.05
4/6/2021 8:15:00 AM 4.63 40.334 0.157 7.41 4.18 12.12
4/6/2021 8:30:00 AM 4.62 40.316 0.157 7.42 4.02 12.19
4/6/2021 8:45:00 AM 4.61 40.298 0.157 7.44 3.98 12.26
4/6/2021 9:00:00 AM 4.63 40.334 0.157 7.46 4.03 12.33
4/6/2021 9:15:00 AM 4.68 40.424 0.157 7.48 3.97 12.39
4/6/2021 9:30:00 AM 4.76 40.568 0.157 7.5 3.9 12.45
4/6/2021 9:45:00 AM 4.86 40.748 0.157 7.52 3.93 12.49
4/6/2021 10:00:00 AM 4.99 40.982 0.157 7.54 3.98 12.53
4/6/2021 10:15:00 AM 5.15 41.27 0.157 7.57 3.99 12.56
4/6/2021 10:30:00 AM 5.35 41.63 0.156 7.59 3.9 12.57
4/6/2021 10:45:00 AM 5.56 42.008 0.156 7.61 3.88 12.57
4/6/2021 11:00:00 AM 5.81 42.458 0.156 7.63 3.86 12.56
4/6/2021 11:15:00 AM 6.07 42.926 0.156 7.66 3.88 12.54
4/6/2021 11:30:00 AM 6.36 43.448 0.156 7.68 3.81 12.52
4/6/2021 11:45:00 AM 6.66 43.988 0.156 7.7 3.77 12.48
4/6/2021 12:00:00 PM 6.98 44.564 0.156 7.73 3.65 12.43
4/6/2021 12:15:00 PM 7.32 45.176 0.155 7.75 3.68 12.37
4/6/2021 12:30:00 PM 7.68 45.824 0.155 7.78 3.72 12.33
4/6/2021 12:45:00 PM 8.02 46.436 0.155 7.8 3.75 12.26
4/6/2021 1:00:00 PM 8.38 47.084 0.155 7.82 3.83 12.2
4/6/2021 1:15:00 PM 8.72 47.696 0.155 7.84 3.67 12.12
4/6/2021 1:30:00 PM 8.97 48.146 0.155 7.86 3.6 12.07
4/6/2021 1:45:00 PM 9.18 48.524 0.155 7.88 3.7 12.01
4/6/2021 2:00:00 PM 9.44 48.992 0.155 7.9 3.7 11.96
4/6/2021 2:15:00 PM 9.57 49.226 0.155 7.92 3.7 11.91
4/6/2021 2:30:00 PM 9.71 49.478 0.155 7.93 3.57 11.88
4/6/2021 2:45:00 PM 9.84 49.712 0.155 7.94 3.63 11.84
4/6/2021 3:00:00 PM 9.91 49.838 0.155 7.95 3.7 11.79
4/6/2021 3:15:00 PM 10.04 50.072 0.156 7.96 3.65 11.76
4/6/2021 3:30:00 PM 10.14 50.252 0.156 7.98 3.71 11.74
4/6/2021 3:45:00 PM 10.18 50.324 0.156 7.97 3.83 11.69
4/6/2021 4:00:00 PM 10.15 50.27 0.156 7.96 3.77 11.63
4/6/2021 4:15:00 PM 10.11 50.198 0.156 7.95 3.66 11.6
4/6/2021 4:30:00 PM 10.06 50.108 0.156 7.94 3.74 11.57
4/6/2021 4:45:00 PM 9.97 49.946 0.156 7.93 3.68 11.55
4/6/2021 5:00:00 PM 9.84 49.712 0.157 7.92 3.63 11.5
4/6/2021 5:15:00 PM 9.71 49.478 0.157 7.9 3.65 11.48
4/6/2021 5:30:00 PM 9.59 49.262 0.157 7.87 3.77 11.45
4/6/2021 5:45:00 PM 9.48 49.064 0.157 7.84 3.77 11.42
4/6/2021 6:00:00 PM 9.37 48.866 0.157 7.82 3.67 11.4
4/6/2021 6:15:00 PM 9.26 48.668 0.157 7.8 3.77 11.37
4/6/2021 6:30:00 PM 9.15 48.47 0.157 7.77 3.78 11.33
4/6/2021 6:45:00 PM 9.05 48.29 0.158 7.75 3.73 11.31
4/6/2021 7:00:00 PM 8.92 48.056 0.158 7.72 3.79 11.27
4/6/2021 7:15:00 PM 8.81 47.858 0.158 7.68 3.77 11.23
4/6/2021 7:30:00 PM 8.71 47.678 0.158 7.66 3.82 11.19
4/6/2021 7:45:00 PM 8.61 47.498 0.158 7.62 3.76 11.15
4/6/2021 8:00:00 PM 8.53 47.354 0.159 7.6 3.83 11.11
4/6/2021 8:15:00 PM 8.45 47.21 0.159 7.58 3.84 11.07
4/6/2021 8:30:00 PM 8.38 47.084 0.159 7.54 3.94 11.03
4/6/2021 8:45:00 PM 8.3 46.94 0.159 7.53 3.91 11
4/6/2021 9:00:00 PM 8.22 46.796 0.159 7.51 4.04 10.98
4/6/2021 9:15:00 PM 8.16 46.688 0.16 7.5 4.15 10.97
4/6/2021 9:30:00 PM 8.11 46.598 0.16 7.48 4.01 10.96
4/6/2021 9:45:00 PM 8.07 46.526 0.16 7.47 3.98 10.95
4/6/2021 10:00:00 PM 8.04 46.472 0.16 7.47 4.06 10.94
4/6/2021 10:15:00 PM 8.01 46.418 0.16 7.46 4.12 10.93
4/6/2021 10:30:00 PM 7.98 46.364 0.16 7.46 4.11 10.93
4/6/2021 10:45:00 PM 7.95 46.31 0.16 7.45 4.04 10.93
4/6/2021 11:00:00 PM 7.92 46.256 0.16 7.45 4.08 10.93
4/6/2021 11:15:00 PM 7.89 46.202 0.16 7.44 4.02 10.93
4/6/2021 11:30:00 PM 7.87 46.166 0.16 7.44 3.95 10.93
4/6/2021 11:45:00 PM 7.84 46.112 0.16 7.44 3.98 10.94
4/7/2021 12:00:00 AM 7.82 46.076 0.161 7.44 4.03 10.94
4/7/2021 12:15:00 AM 7.8 46.04 0.161 7.44 4 10.94
4/7/2021 12:30:00 AM 7.79 46.022 0.161 7.44 4.03 10.94
4/7/2021 12:45:00 AM 7.78 46.004 0.161 7.44 4.04 10.94
4/7/2021 1:00:00 AM 7.78 46.004 0.162 7.44 4.08 10.93
4/7/2021 1:15:00 AM 7.78 46.004 0.162 7.44 4.03 10.93
4/7/2021 1:30:00 AM 7.77 45.986 0.162 7.44 4.1 10.93
4/7/2021 1:45:00 AM 7.77 45.986 0.162 7.44 4.06 10.92
4/7/2021 2:00:00 AM 7.77 45.986 0.162 7.44 4.03 10.92
4/7/2021 2:15:00 AM 7.76 45.968 0.162 7.44 4.03 10.92
4/7/2021 2:30:00 AM 7.76 45.968 0.163 7.44 4.03 10.91
4/7/2021 2:45:00 AM 7.75 45.95 0.163 7.44 4.03 10.92
4/7/2021 3:00:00 AM 7.73 45.914 0.163 7.44 4.21 10.92
4/7/2021 3:15:00 AM 7.72 45.896 0.163 7.44 4.27 10.92
4/7/2021 3:30:00 AM 7.7 45.86 0.163 7.43 4.3 10.93
4/7/2021 3:45:00 AM 7.68 45.824 0.163 7.43 4.1 10.93
4/7/2021 4:00:00 AM 7.65 45.77 0.163 7.43 4.15 10.94
4/7/2021 4:15:00 AM 7.63 45.734 0.163 7.42 4.17 10.95
4/7/2021 4:30:00 AM 7.6 45.68 0.163 7.42 4.26 10.96
4/7/2021 4:45:00 AM 7.58 45.644 0.164 7.42 4.16 10.97
4/7/2021 5:00:00 AM 7.56 45.608 0.164 7.43 4.26 10.99
4/7/2021 5:15:00 AM 7.53 45.554 0.164 7.43 4.17 11
4/7/2021 5:30:00 AM 7.51 45.518 0.164 7.43 4.2 11.01
4/7/2021 5:45:00 AM 7.48 45.464 0.164 7.42 4.11 11.01
4/7/2021 6:00:00 AM 7.45 45.41 0.165 7.42 4.13 11.02
4/7/2021 6:15:00 AM 7.43 45.374 0.165 7.42 4.36 11.03
4/7/2021 6:30:00 AM 7.41 45.338 0.165 7.41 4.12 11.03
4/7/2021 6:45:00 AM 7.38 45.284 0.165 7.41 4.24 11.05
4/7/2021 7:00:00 AM 7.36 45.248 0.165 7.4 4.26 11.05
4/7/2021 7:15:00 AM 7.34 45.212 0.165 7.4 4.16 11.07
4/7/2021 7:30:00 AM 7.32 45.176 0.165 7.41 4.31 11.12
4/7/2021 7:45:00 AM 7.31 45.158 0.165 7.4 4.29 11.15
4/7/2021 8:00:00 AM 7.3 45.14 0.165 7.42 4.19 11.2
4/7/2021 8:15:00 AM 7.3 45.14 0.165 7.44 4.11 11.29
4/7/2021 8:30:00 AM 7.32 45.176 0.165 7.45 4.01 11.37
4/7/2021 8:45:00 AM 7.35 45.23 0.165 7.48 4.06 11.47
4/7/2021 9:00:00 AM 7.37 45.266 0.165 7.5 4.02 11.54
4/7/2021 9:15:00 AM 7.4 45.32 0.165 7.53 4.11 11.62
4/7/2021 9:30:00 AM 7.44 45.392 0.165 7.55 4.16 11.7
4/7/2021 9:45:00 AM 7.49 45.482 0.164 7.57 4.12 11.76
4/7/2021 10:00:00 AM 7.55 45.59 0.164 7.6 4.05 11.83
4/7/2021 10:15:00 AM 7.68 45.824 0.164 7.64 4.02 11.89
4/7/2021 10:30:00 AM 7.75 45.95 0.164 7.67 3.95 11.94
4/7/2021 10:45:00 AM 7.8 46.04 0.164 7.69 3.93 11.97
4/7/2021 11:00:00 AM 7.96 46.328 0.163 7.72 3.78 12.01
4/7/2021 11:15:00 AM 8.1 46.58 0.163 7.75 3.95 12.03
4/7/2021 11:30:00 AM 8.19 46.742 0.163 7.78 4.03 12.05
4/7/2021 11:45:00 AM 8.32 46.976 0.163 7.8 3.9 12.05
4/7/2021 12:00:00 PM 8.58 47.444 0.163 7.84 3.89 12.05
4/7/2021 12:15:00 PM 8.79 47.822 0.163 7.86 3.88 12.04
4/7/2021 12:30:00 PM 9.09 48.362 0.162 7.89 3.83 12.03
4/7/2021 12:45:00 PM 9.33 48.794 0.162 7.93 3.79 11.98
4/7/2021 1:00:00 PM 9.45 49.01 0.162 7.93 3.92 11.95
4/7/2021 1:15:00 PM 9.7 49.46 0.162 7.96 3.87 11.91
4/7/2021 1:30:00 PM 10.06 50.108 0.162 7.99 3.87 11.86
4/7/2021 1:45:00 PM 10.35 50.63 0.162 8.02 3.86 11.82
4/7/2021 2:00:00 PM 10.6 51.08 0.162 8.04 3.82 11.77
4/7/2021 2:15:00 PM 10.81 51.458 0.163 8.05 3.78 11.71
4/7/2021 2:30:00 PM 11.02 51.836 0.163 8.06 3.7 11.65
4/7/2021 2:45:00 PM 11.21 52.178 0.163 8.08 3.83 11.6
4/7/2021 3:00:00 PM 11.43 52.574 0.163 8.08 3.99 11.55
4/7/2021 3:15:00 PM 11.62 52.916 0.163 8.08 3.83 11.47
4/7/2021 3:30:00 PM 11.75 53.15 0.163 8.08 3.84 11.38
4/7/2021 3:45:00 PM 11.86 53.348 0.163 8.08 3.79 11.35
4/7/2021 4:00:00 PM 11.89 53.402 0.163 8.07 3.69 11.29
4/7/2021 4:15:00 PM 11.91 53.438 0.163 8.06 3.81 11.24
4/7/2021 4:30:00 PM 11.87 53.366 0.163 8.04 3.7 11.2
4/7/2021 4:45:00 PM 11.77 53.186 0.163 8.02 3.9 11.11
4/7/2021 5:00:00 PM 11.68 53.024 0.163 7.99 3.83 11.06
4/7/2021 5:15:00 PM 11.58 52.844 0.163 7.95 3.86 10.99
4/7/2021 5:30:00 PM 11.5 52.7 0.163 7.92 3.78 10.94
4/7/2021 5:45:00 PM 11.42 52.556 0.164 7.9 3.83 10.89
4/7/2021 6:00:00 PM 11.3 52.34 0.164 7.86 3.94 10.85
4/7/2021 6:15:00 PM 11.16 52.088 0.165 7.83 4.38 10.82
4/7/2021 6:30:00 PM 11 51.8 0.165 7.79 4.82 10.78
4/7/2021 6:45:00 PM 10.86 51.548 0.165 7.74 5.1 10.73
4/7/2021 7:00:00 PM 10.75 51.35 0.165 7.71 5.14 10.69
4/7/2021 7:15:00 PM 10.66 51.188 0.166 7.68 5.6 10.64
4/7/2021 7:30:00 PM 10.57 51.026 0.166 7.65 5.13 10.59
4/7/2021 7:45:00 PM 10.49 50.882 0.166 7.63 5 10.56
4/7/2021 8:00:00 PM 10.42 50.756 0.166 7.6 4.94 10.52
4/7/2021 8:15:00 PM 10.35 50.63 0.167 7.58 4.99 10.49
4/7/2021 8:30:00 PM 10.29 50.522 0.169 7.57 4.98 10.45
4/7/2021 8:45:00 PM 10.26 50.468 0.171 7.56 4.79 10.43
4/7/2021 9:00:00 PM 10.26 50.468 0.173 7.55 5.2 10.39
4/7/2021 9:15:00 PM 10.27 50.486 0.175 7.56 5.01 10.35
4/7/2021 9:30:00 PM 10.3 50.54 0.177 7.55 5.31 10.32
4/7/2021 9:45:00 PM 10.31 50.558 0.178 7.55 5.41 10.3
4/7/2021 10:00:00 PM 10.32 50.576 0.179 7.54 5.2 10.29
4/7/2021 10:15:00 PM 10.32 50.576 0.181 7.54 5.09 10.27
4/7/2021 10:30:00 PM 10.31 50.558 0.182 7.53 5.2 10.25
4/7/2021 10:45:00 PM 10.31 50.558 0.184 7.54 5.11 10.24
4/7/2021 11:00:00 PM 10.3 50.54 0.185 7.53 5.38 10.23
4/7/2021 11:15:00 PM 10.29 50.522 0.187 7.53 5.73 10.22
4/7/2021 11:30:00 PM 10.28 50.504 0.188 7.52 5.39 10.21
4/7/2021 11:45:00 PM 10.26 50.468 0.189 7.52 5.38 10.21
4/8/2021 12:00:00 AM 10.24 50.432 0.19 7.52 5.2 10.21
4/8/2021 12:15:00 AM 10.2 50.36 0.191 7.52 5 10.21
4/8/2021 12:30:00 AM 10.16 50.288 0.192 7.51 5.24 10.23
4/8/2021 12:45:00 AM 10.11 50.198 0.193 7.51 5.13 10.23
4/8/2021 1:00:00 AM 10.06 50.108 0.194 7.5 4.93 10.24
4/8/2021 1:15:00 AM 10 50 0.194 7.5 5.03 10.25
4/8/2021 1:30:00 AM 9.93 49.874 0.195 7.49 5.26 10.27
4/8/2021 1:45:00 AM 9.86 49.748 0.196 7.49 4.93 10.28
4/8/2021 2:00:00 AM 9.79 49.622 0.197 7.48 5.01 10.3
4/8/2021 2:15:00 AM 9.72 49.496 0.197 7.48 4.76 10.31
4/8/2021 2:30:00 AM 9.64 49.352 0.198 7.48 4.79 10.33
4/8/2021 2:45:00 AM 9.56 49.208 0.199 7.47 5.06 10.35
4/8/2021 3:00:00 AM 9.48 49.064 0.199 7.47 4.69 10.37
4/8/2021 3:15:00 AM 9.4 48.92 0.2 7.47 4.78 10.39
4/8/2021 3:30:00 AM 9.32 48.776 0.2 7.47 5.04 10.42
4/8/2021 3:45:00 AM 9.24 48.632 0.201 7.47 4.77 10.43
4/8/2021 4:00:00 AM 9.16 48.488 0.202 7.46 4.71 10.46
4/8/2021 4:15:00 AM 9.08 48.344 0.202 7.46 4.69 10.48
4/8/2021 4:30:00 AM 8.99 48.182 0.203 7.46 4.58 10.51
4/8/2021 4:45:00 AM 8.91 48.038 0.203 7.45 4.47 10.53
4/8/2021 5:00:00 AM 8.83 47.894 0.204 7.46 4.58 10.56
4/8/2021 5:15:00 AM 8.75 47.75 0.204 7.46 4.63 10.58
4/8/2021 5:30:00 AM 8.67 47.606 0.204 7.45 4.76 10.6
4/8/2021 5:45:00 AM 8.59 47.462 0.205 7.45 4.76 10.62
4/8/2021 6:00:00 AM 8.51 47.318 0.205 7.45 4.68 10.65
4/8/2021 6:15:00 AM 8.44 47.192 0.205 7.45 4.56 10.66
4/8/2021 6:30:00 AM 8.36 47.048 0.206 7.46 4.53 10.7
4/8/2021 6:45:00 AM 8.28 46.904 0.206 7.46 4.48 10.72
4/8/2021 7:00:00 AM 8.21 46.778 0.206 7.46 4.39 10.75
4/8/2021 7:15:00 AM 8.14 46.652 0.206 7.46 4.53 10.79
4/8/2021 7:30:00 AM 8.08 46.544 0.207 7.47 4.51 10.84
4/8/2021 7:45:00 AM 8.03 46.454 0.207 7.48 4.35 10.9
4/8/2021 8:00:00 AM 7.99 46.382 0.207 7.49 4.61 10.97
4/8/2021 8:15:00 AM 7.96 46.328 0.207 7.5 4.5 11.04
4/8/2021 8:30:00 AM 7.94 46.292 0.207 7.52 4.31 11.11
4/8/2021 8:45:00 AM 7.95 46.31 0.207 7.54 4.26 11.18
4/8/2021 9:00:00 AM 7.98 46.364 0.207 7.56 4.17 11.26
4/8/2021 9:15:00 AM 8.04 46.472 0.207 7.58 4.23 11.33
4/8/2021 9:30:00 AM 8.12 46.616 0.207 7.62 4.08 11.4
4/8/2021 9:45:00 AM 8.22 46.796 0.206 7.64 4.03 11.46
4/8/2021 10:00:00 AM 8.35 47.03 0.206 7.67 4.2 11.52
4/8/2021 10:15:00 AM 8.52 47.336 0.206 7.7 3.93 11.56
4/8/2021 10:30:00 AM 8.7 47.66 0.206 7.74 3.99 11.61
4/8/2021 10:45:00 AM 8.92 48.056 0.205 7.76 4.17 11.63
4/8/2021 11:00:00 AM 9.16 48.488 0.205 7.79 3.88 11.65
4/8/2021 11:15:00 AM 9.41 48.938 0.205 7.82 3.86 11.66
4/8/2021 11:30:00 AM 9.69 49.442 0.205 7.85 3.89 11.66
4/8/2021 11:45:00 AM 9.98 49.964 0.204 7.89 3.96 11.65
4/8/2021 12:00:00 PM 10.3 50.54 0.204 7.92 3.94 11.63
4/8/2021 12:15:00 PM 10.63 51.134 0.204 7.95 3.86 11.6
4/8/2021 12:30:00 PM 10.98 51.764 0.203 8 3.82 11.57
4/8/2021 12:45:00 PM 11.33 52.394 0.203 8.23 3.85 11.54
4/8/2021 1:00:00 PM 11.67 53.006 0.203 8.24 3.77 11.49
4/8/2021 1:15:00 PM 12.01 53.618 0.202 8.27 3.76 11.45
4/8/2021 1:30:00 PM 12.33 54.194 0.202 8.29 3.75 11.41
4/8/2021 1:45:00 PM 12.63 54.734 0.202 8.33 3.92 11.34
4/8/2021 2:00:00 PM 12.91 55.238 0.201 8.35 3.77 11.3
4/8/2021 2:15:00 PM 13.16 55.688 0.201 8.33 3.85 11.24
4/8/2021 2:30:00 PM 13.39 56.102 0.201 8.38 3.73 11.18
4/8/2021 2:45:00 PM 13.59 56.462 0.2 8.4 3.65 11.13
4/8/2021 3:00:00 PM 13.74 56.732 0.2 8.4 3.66 11.06
4/8/2021 3:15:00 PM 13.86 56.948 0.2 8.4 3.63 11.01
4/8/2021 3:30:00 PM 13.94 57.092 0.2 8.41 3.67 10.95
4/8/2021 3:45:00 PM 13.98 57.164 0.199 8.41 3.77 10.9
4/8/2021 4:00:00 PM 13.99 57.182 0.199 8.42 3.65 10.85
4/8/2021 4:15:00 PM 13.95 57.11 0.199 8.4 3.72 10.8
4/8/2021 4:30:00 PM 13.89 57.002 0.198 8.38 3.77 10.75
4/8/2021 4:45:00 PM 13.78 56.804 0.198 8.34 3.73 10.68
4/8/2021 5:00:00 PM 13.63 56.534 0.198 8.3 3.85 10.61
4/8/2021 5:15:00 PM 13.5 56.3 0.198 8.27 3.78 10.54
4/8/2021 5:30:00 PM 13.38 56.084 0.198 8.23 3.92 10.5
4/8/2021 5:45:00 PM 13.25 55.85 0.197 8.19 3.83 10.46
4/8/2021 6:00:00 PM 13.12 55.616 0.197 8.16 3.85 10.42
4/8/2021 6:15:00 PM 12.98 55.364 0.197 8.13 3.88 10.38
4/8/2021 6:30:00 PM 12.85 55.13 0.197 8.09 3.73 10.33
4/8/2021 6:45:00 PM 12.72 54.896 0.196 8.05 3.88 10.28
4/8/2021 7:00:00 PM 12.59 54.662 0.196 8.02 3.84 10.24
4/8/2021 7:15:00 PM 12.46 54.428 0.196 7.98 3.91 10.19
4/8/2021 7:30:00 PM 12.32 54.176 0.196 7.94 3.82 10.13
4/8/2021 7:45:00 PM 12.2 53.96 0.196 7.91 3.93 10.09
4/8/2021 8:00:00 PM 12.09 53.762 0.196 7.88 3.93 10.04
4/8/2021 8:15:00 PM 11.98 53.564 0.196 7.85 3.84 10.01
4/8/2021 8:30:00 PM 11.88 53.384 0.195 7.83 3.91 9.99
4/8/2021 8:45:00 PM 11.78 53.204 0.195 7.81 4 9.97
4/8/2021 9:00:00 PM 11.67 53.006 0.195 7.79 3.93 9.95
4/8/2021 9:15:00 PM 11.57 52.826 0.195 7.76 4.2 9.94
4/8/2021 9:30:00 PM 11.47 52.646 0.195 7.75 4.28 9.95
4/8/2021 9:45:00 PM 11.37 52.466 0.195 7.73 4.15 9.94
4/8/2021 10:00:00 PM 11.28 52.304 0.194 7.72 4.2 9.94
4/8/2021 10:15:00 PM 11.19 52.142 0.194 7.71 4.14 9.95
4/8/2021 10:30:00 PM 11.11 51.998 0.194 7.7 4.1 9.96
4/8/2021 10:45:00 PM 11.04 51.872 0.194 7.69 4.18 9.97
4/8/2021 11:00:00 PM 10.96 51.728 0.193 7.68 4.09 9.98
4/8/2021 11:15:00 PM 10.89 51.602 0.193 7.67 4.14 9.99
4/8/2021 11:30:00 PM 10.83 51.494 0.193 7.67 4.11 10
4/8/2021 11:45:00 PM 10.76 51.368 0.192 7.66 4.03 10.02
4/9/2021 12:00:00 AM 10.7 51.26 0.192 7.66 4.37 10.03
4/9/2021 12:15:00 AM 10.63 51.134 0.192 7.65 4.05 10.04
4/9/2021 12:30:00 AM 10.57 51.026 0.192 7.65 4.09 10.06
4/9/2021 12:45:00 AM 10.51 50.918 0.191 7.65 4.05 10.07
4/9/2021 1:00:00 AM 10.46 50.828 0.191 7.64 4.24 10.09
4/9/2021 1:15:00 AM 10.4 50.72 0.191 7.64 4.18 10.1
4/9/2021 1:30:00 AM 10.35 50.63 0.19 7.64 4.01 10.12
4/9/2021 1:45:00 AM 10.3 50.54 0.19 7.64 4.06 10.13
4/9/2021 2:00:00 AM 10.25 50.45 0.189 7.63 4.11 10.13
4/9/2021 2:15:00 AM 10.21 50.378 0.189 7.63 4.07 10.15
4/9/2021 2:30:00 AM 10.16 50.288 0.189 7.63 4.04 10.16
4/9/2021 2:45:00 AM 10.12 50.216 0.188 7.62 4.13 10.17
4/9/2021 3:00:00 AM 10.07 50.126 0.188 7.62 4.06 10.18
4/9/2021 3:15:00 AM 10.02 50.036 0.188 7.62 4.1 10.18
4/9/2021 3:30:00 AM 9.99 49.982 0.187 7.62 4.12 10.2
4/9/2021 3:45:00 AM 9.94 49.892 0.187 7.62 4.19 10.22
4/9/2021 4:00:00 AM 9.9 49.82 0.187 7.61 4.24 10.22
4/9/2021 4:15:00 AM 9.86 49.748 0.187 7.61 4.08 10.23
4/9/2021 4:30:00 AM 9.81 49.658 0.187 7.61 4.15 10.25
4/9/2021 4:45:00 AM 9.77 49.586 0.186 7.61 4.03 10.26
4/9/2021 5:00:00 AM 9.73 49.514 0.186 7.61 4.12 10.27
4/9/2021 5:15:00 AM 9.7 49.46 0.186 7.61 4.36 10.29
4/9/2021 5:30:00 AM 9.66 49.388 0.186 7.6 4.28 10.29
4/9/2021 5:45:00 AM 9.63 49.334 0.186 7.6 4.28 10.31
4/9/2021 6:00:00 AM 9.6 49.28 0.186 7.6 4.2 10.31
4/9/2021 6:15:00 AM 9.57 49.226 0.186 7.6 4.28 10.32
4/9/2021 6:30:00 AM 9.55 49.19 0.186 7.59 4.47 10.34
4/9/2021 6:45:00 AM 9.52 49.136 0.186 7.6 4.35 10.36
4/9/2021 7:00:00 AM 9.48 49.064 0.186 7.6 4.39 10.39
4/9/2021 7:15:00 AM 9.46 49.028 0.185 7.6 4.51 10.41
4/9/2021 7:30:00 AM 9.44 48.992 0.185 7.6 4.37 10.44
4/9/2021 7:45:00 AM 9.42 48.956 0.185 7.61 4.29 10.51
4/9/2021 8:00:00 AM 9.41 48.938 0.185 7.62 4.33 10.59
4/9/2021 8:15:00 AM 9.41 48.938 0.185 7.65 4.25 10.68
4/9/2021 8:30:00 AM 9.42 48.956 0.185 7.65 4.32 10.75
4/9/2021 8:45:00 AM 9.44 48.992 0.184 7.67 4.23 10.84
4/9/2021 9:00:00 AM 9.47 49.046 0.184 7.7 4.1 10.94
4/9/2021 9:15:00 AM 9.52 49.136 0.184 7.72 4.03 11.02
4/9/2021 9:30:00 AM 9.58 49.244 0.184 7.75 4.14 11.11
4/9/2021 9:45:00 AM 9.66 49.388 0.183 7.77 4 11.18
4/9/2021 10:00:00 AM 9.76 49.568 0.183 7.8 4.04 11.24
4/9/2021 10:15:00 AM 9.87 49.766 0.183 7.83 3.94 11.31
4/9/2021 10:30:00 AM 9.96 49.928 0.182 7.86 5.15 11.36
4/9/2021 10:45:00 AM 10.06 50.108 0.182 7.88 4 11.4
4/9/2021 11:00:00 AM 10.18 50.324 0.182 7.92 3.87 11.42
4/9/2021 11:15:00 AM 10.23 50.414 0.182 7.94 3.99 11.4
4/9/2021 11:30:00 AM 10.28 50.504 0.182 7.94 3.93 11.36
4/9/2021 11:45:00 AM 10.3 50.54 0.181 7.94 3.95 11.33
4/9/2021 12:00:00 PM 10.33 50.594 0.181 7.95 3.99 11.28
4/9/2021 12:15:00 PM 10.35 50.63 0.181 7.95 3.92 11.24
4/9/2021 12:30:00 PM 10.37 50.666 0.181 7.95 3.91 11.22
4/9/2021 12:45:00 PM 10.42 50.756 0.181 7.96 3.78 11.23
4/9/2021 1:00:00 PM 10.48 50.864 0.181 7.96 3.93 11.24
4/9/2021 1:15:00 PM 10.53 50.954 0.181 7.98 3.8 11.27
4/9/2021 1:30:00 PM 10.55 50.99 0.181 7.99 3.83 11.28
4/9/2021 1:45:00 PM 10.62 51.116 0.181 8.01 3.82 11.31
4/9/2021 2:00:00 PM 10.85 51.53 0.18 8.04 3.95 11.35
4/9/2021 2:15:00 PM 11.01 51.818 0.18 8.07 3.8 11.38
4/9/2021 2:30:00 PM 11.07 51.926 0.18 8.09 3.91 11.42
4/9/2021 2:45:00 PM 11.12 52.016 0.18 8.11 3.79 11.42
4/9/2021 3:00:00 PM 11.16 52.088 0.18 8.13 3.76 11.42
4/9/2021 3:15:00 PM 11.23 52.214 0.179 8.14 3.9 11.41
4/9/2021 3:30:00 PM 11.32 52.376 0.179 8.16 3.84 11.4
4/9/2021 3:45:00 PM 11.41 52.538 0.179 8.18 3.9 11.38
4/9/2021 4:00:00 PM 11.54 52.772 0.179 8.2 3.85 11.37
4/9/2021 4:15:00 PM 11.58 52.844 0.179 8.21 3.88 11.35
4/9/2021 4:30:00 PM 11.65 52.97 0.179 8.22 4.02 11.33
4/9/2021 4:45:00 PM 11.65 52.97 0.179 8.21 3.8 11.28
4/9/2021 5:00:00 PM 11.67 53.006 0.179 8.21 4.06 11.25
4/9/2021 5:15:00 PM 11.67 53.006 0.178 8.2 3.96 11.19
4/9/2021 5:30:00 PM 11.66 52.988 0.179 8.18 3.9 11.11
4/9/2021 5:45:00 PM 11.63 52.934 0.179 8.15 3.75 11.02
4/9/2021 6:00:00 PM 11.6 52.88 0.179 8.11 3.81 10.93
4/9/2021 6:15:00 PM 11.55 52.79 0.179 8.07 3.79 10.86
4/9/2021 6:30:00 PM 11.48 52.664 0.179 8.03 3.9 10.8
4/9/2021 6:45:00 PM 11.4 52.52 0.179 7.99 3.8 10.75
4/9/2021 7:00:00 PM 11.32 52.376 0.18 7.96 3.83 10.71
4/9/2021 7:15:00 PM 11.23 52.214 0.18 7.93 3.94 10.67
4/9/2021 7:30:00 PM 11.13 52.034 0.18 7.89 3.8 10.59
4/9/2021 7:45:00 PM 11.02 51.836 0.18 7.85 3.98 10.53
4/9/2021 8:00:00 PM 10.93 51.674 0.18 7.82 3.72 10.47
4/9/2021 8:15:00 PM 10.85 51.53 0.18 7.79 3.95 10.42
4/9/2021 8:30:00 PM 10.78 51.404 0.18 7.76 4 10.38
4/9/2021 8:45:00 PM 10.73 51.314 0.18 7.74 4.1 10.33
4/9/2021 9:00:00 PM 10.67 51.206 0.181 7.72 4.01 10.29
4/9/2021 9:15:00 PM 10.61 51.098 0.181 7.7 4.29 10.26
4/9/2021 9:30:00 PM 10.56 51.008 0.181 7.68 4.27 10.24
4/9/2021 9:45:00 PM 10.51 50.918 0.181 7.67 4.2 10.22
4/9/2021 10:00:00 PM 10.46 50.828 0.181 7.65 4.04 10.21
4/9/2021 10:15:00 PM 10.43 50.774 0.181 7.64 4.03 10.2
4/9/2021 10:30:00 PM 10.38 50.684 0.181 7.64 4.13 10.2
4/9/2021 10:45:00 PM 10.33 50.594 0.181 7.63 4.14 10.2
4/9/2021 11:00:00 PM 10.29 50.522 0.181 7.62 4.43 10.2
4/9/2021 11:15:00 PM 10.26 50.468 0.181 7.62 4.1 10.2
4/9/2021 11:30:00 PM 10.22 50.396 0.182 7.61 4.09 10.2
4/9/2021 11:45:00 PM 10.19 50.342 0.182 7.61 3.93 10.2
4/10/2021 12:00:00 AM 10.15 50.27 0.182 7.6 4.17 10.21
4/10/2021 12:15:00 AM 10.12 50.216 0.182 7.6 4.58 10.21
4/10/2021 12:30:00 AM 10.09 50.162 0.182 7.59 5.27 10.21
4/10/2021 12:45:00 AM 10.06 50.108 0.182 7.59 4.69 10.22
4/10/2021 1:00:00 AM 10.03 50.054 0.182 7.59 4.28 10.22
4/10/2021 1:15:00 AM 10.01 50.018 0.182 7.59 4.22 10.23
4/10/2021 1:30:00 AM 9.98 49.964 0.182 7.59 4.2 10.23
4/10/2021 1:45:00 AM 9.96 49.928 0.182 7.59 4.14 10.24
4/10/2021 2:00:00 AM 9.94 49.892 0.182 7.58 4.12 10.25
4/10/2021 2:15:00 AM 9.91 49.838 0.182 7.58 4.07 10.25
4/10/2021 2:30:00 AM 9.89 49.802 0.182 7.58 4.2 10.25
4/10/2021 2:45:00 AM 9.88 49.784 0.182 7.58 4.03 10.26
4/10/2021 3:00:00 AM 9.86 49.748 0.182 7.57 3.96 10.25
4/10/2021 3:15:00 AM 9.85 49.73 0.182 7.58 4.08 10.26
4/10/2021 3:30:00 AM 9.84 49.712 0.182 7.57 3.99 10.26
4/10/2021 3:45:00 AM 9.83 49.694 0.182 7.57 4.16 10.26
4/10/2021 4:00:00 AM 9.82 49.676 0.182 7.57 4.23 10.26
4/10/2021 4:15:00 AM 9.81 49.658 0.183 7.57 4 10.26
4/10/2021 4:30:00 AM 9.8 49.64 0.183 7.57 4.07 10.27
4/10/2021 4:45:00 AM 9.79 49.622 0.183 7.57 4.13 10.26
4/10/2021 5:00:00 AM 9.78 49.604 0.183 7.57 4.2 10.26
4/10/2021 5:15:00 AM 9.77 49.586 0.183 7.57 4.09 10.26
4/10/2021 5:30:00 AM 9.75 49.55 0.183 7.57 4.06 10.27
4/10/2021 5:45:00 AM 9.74 49.532 0.183 7.56 4.08 10.27
4/10/2021 6:00:00 AM 9.73 49.514 0.183 7.56 4 10.28
4/10/2021 6:15:00 AM 9.71 49.478 0.183 7.56 4.47 10.28
4/10/2021 6:30:00 AM 9.69 49.442 0.183 7.56 4.1 10.28
4/10/2021 6:45:00 AM 9.68 49.424 0.183 7.56 4.1 10.29
4/10/2021 7:00:00 AM 9.66 49.388 0.183 7.56 4.13 10.3
4/10/2021 7:15:00 AM 9.65 49.37 0.183 7.56 4.09 10.33
4/10/2021 7:30:00 AM 9.65 49.37 0.183 7.57 4.2 10.35
4/10/2021 7:45:00 AM 9.64 49.352 0.183 7.57 4.02 10.39
4/10/2021 8:00:00 AM 9.65 49.37 0.183 7.58 4.15 10.45
4/10/2021 8:15:00 AM 9.66 49.388 0.183 7.6 4.25 10.52
4/10/2021 8:30:00 AM 9.67 49.406 0.183 7.61 4.08 10.58
4/10/2021 8:45:00 AM 9.69 49.442 0.183 7.62 4.13 10.65
4/10/2021 9:00:00 AM 9.72 49.496 0.183 7.64 3.99 10.74
4/10/2021 9:15:00 AM 9.75 49.55 0.183 7.66 3.94 10.81
4/10/2021 9:30:00 AM 9.78 49.604 0.183 7.68 4.03 10.89
4/10/2021 9:45:00 AM 9.82 49.676 0.183 7.71 3.93 10.96
4/10/2021 10:00:00 AM 9.87 49.766 0.183 7.73 4.06 11.03
4/10/2021 10:15:00 AM 9.93 49.874 0.183 7.75 3.89 11.1
4/10/2021 10:30:00 AM 10.03 50.054 0.183 7.78 3.89 11.17
4/10/2021 10:45:00 AM 10.15 50.27 0.182 7.82 3.89 11.25
4/10/2021 11:00:00 AM 10.28 50.504 0.182 7.85 3.82 11.31
4/10/2021 11:15:00 AM 10.47 50.846 0.182 7.89 3.81 11.36
4/10/2021 11:30:00 AM 10.69 51.242 0.182 7.92 3.83 11.4
4/10/2021 11:45:00 AM 10.91 51.638 0.181 7.95 3.91 11.41
4/10/2021 12:00:00 PM 11.17 52.106 0.181 7.98 3.66 11.41
4/10/2021 12:15:00 PM 11.46 52.628 0.181 8.02 3.69 11.4
4/10/2021 12:30:00 PM 11.78 53.204 0.181 8.05 3.85 11.38
4/10/2021 12:45:00 PM 12.15 53.87 0.181 8.08 3.84 11.36
4/10/2021 1:00:00 PM 12.44 54.392 0.18 8.12 3.72 11.33
4/10/2021 1:15:00 PM 12.7 54.86 0.18 8.15 3.76 11.3
4/10/2021 1:30:00 PM 12.99 55.382 0.18 8.18 3.67 11.27
4/10/2021 1:45:00 PM 13.26 55.868 0.18 8.21 3.77 11.22
4/10/2021 2:00:00 PM 13.52 56.336 0.18 8.25 3.67 11.17
4/10/2021 2:15:00 PM 13.75 56.75 0.18 8.27 3.77 11.13
4/10/2021 2:30:00 PM 13.96 57.128 0.18 8.3 3.77 11.08
4/10/2021 2:45:00 PM 14.12 57.416 0.18 8.32 3.63 11.04
4/10/2021 3:00:00 PM 14.26 57.668 0.18 8.33 3.79 10.98
4/10/2021 3:15:00 PM 14.38 57.884 0.18 8.36 3.86 10.95
4/10/2021 3:30:00 PM 14.46 58.028 0.18 8.36 3.68 10.9
4/10/2021 3:45:00 PM 14.51 58.118 0.18 8.37 3.62 10.86
4/10/2021 4:00:00 PM 14.53 58.154 0.18 8.38 3.65 10.83
4/10/2021 4:15:00 PM 14.54 58.172 0.18 8.38 3.77 10.78
4/10/2021 4:30:00 PM 14.53 58.154 0.18 8.38 3.8 10.75
4/10/2021 4:45:00 PM 14.46 58.028 0.18 8.37 3.66 10.71
4/10/2021 5:00:00 PM 14.38 57.884 0.18 8.35 3.88 10.65
4/10/2021 5:15:00 PM 14.29 57.722 0.18 8.33 3.82 10.6
4/10/2021 5:30:00 PM 14.22 57.596 0.18 8.31 3.73 10.55
4/10/2021 5:45:00 PM 14.14 57.452 0.181 8.28 3.76 10.51
4/10/2021 6:00:00 PM 14.05 57.29 0.181 8.25 3.67 10.45
4/10/2021 6:15:00 PM 13.95 57.11 0.181 8.21 3.99 10.41
4/10/2021 6:30:00 PM 13.84 56.912 0.181 8.17 3.71 10.33
4/10/2021 6:45:00 PM 13.74 56.732 0.181 8.12 3.7 10.25
4/10/2021 7:00:00 PM 13.63 56.534 0.181 8.07 3.61 10.17
4/10/2021 7:15:00 PM 13.53 56.354 0.182 8.01 3.69 10.08
4/10/2021 7:30:00 PM 13.43 56.174 0.182 7.96 3.74 9.99
4/10/2021 7:45:00 PM 13.32 55.976 0.182 7.91 3.78 9.9
4/10/2021 8:00:00 PM 13.22 55.796 0.182 7.86 3.77 9.81
4/10/2021 8:15:00 PM 13.12 55.616 0.183 7.82 3.7 9.75
4/10/2021 8:30:00 PM 13.01 55.418 0.183 7.78 3.84 9.69
4/10/2021 8:45:00 PM 12.91 55.238 0.183 7.75 3.93 9.64
4/10/2021 9:00:00 PM 12.8 55.04 0.183 7.72 3.9 9.6
4/10/2021 9:15:00 PM 12.7 54.86 0.184 7.69 3.85 9.57
4/10/2021 9:30:00 PM 12.59 54.662 0.184 7.67 3.83 9.56
4/10/2021 9:45:00 PM 12.49 54.482 0.184 7.65 4.05 9.55
4/10/2021 10:00:00 PM 12.39 54.302 0.184 7.63 3.87 9.54
4/10/2021 10:15:00 PM 12.29 54.122 0.184 7.62 3.89 9.55
4/10/2021 10:30:00 PM 12.19 53.942 0.184 7.61 3.91 9.55
4/10/2021 10:45:00 PM 12.1 53.78 0.185 7.6 3.83 9.56
4/10/2021 11:00:00 PM 12 53.6 0.185 7.59 3.86 9.57
4/10/2021 11:15:00 PM 11.91 53.438 0.185 7.58 3.94 9.58
4/10/2021 11:30:00 PM 11.83 53.294 0.185 7.57 4.39 9.59
4/10/2021 11:45:00 PM 11.75 53.15 0.185 7.56 4.2 9.6
4/11/2021 12:00:00 AM 11.67 53.006 0.185 7.56 3.91 9.62
4/11/2021 12:15:00 AM 11.59 52.862 0.185 7.55 4.08 9.63
4/11/2021 12:30:00 AM 11.52 52.736 0.185 7.55 3.98 9.65
4/11/2021 12:45:00 AM 11.45 52.61 0.185 7.54 3.95 9.66
4/11/2021 1:00:00 AM 11.39 52.502 0.185 7.54 4.31 9.67
4/11/2021 1:15:00 AM 11.33 52.394 0.185 7.53 4 9.67
4/11/2021 1:30:00 AM 11.28 52.304 0.185 7.53 3.96 9.69
4/11/2021 1:45:00 AM 11.23 52.214 0.185 7.53 3.95 9.69
4/11/2021 2:00:00 AM 11.19 52.142 0.185 7.53 3.9 9.71
4/11/2021 2:15:00 AM 11.14 52.052 0.185 7.53 3.89 9.72
4/11/2021 2:30:00 AM 11.1 51.98 0.185 7.52 3.83 9.72
4/11/2021 2:45:00 AM 11.06 51.908 0.185 7.52 3.94 9.73
4/11/2021 3:00:00 AM 11.02 51.836 0.185 7.52 3.87 9.73
4/11/2021 3:15:00 AM 10.98 51.764 0.185 7.52 4.03 9.74
4/11/2021 3:30:00 AM 10.94 51.692 0.185 7.52 3.94 9.75
4/11/2021 3:45:00 AM 10.9 51.62 0.185 7.52 4.07 9.76
4/11/2021 4:00:00 AM 10.87 51.566 0.185 7.52 3.98 9.77
4/11/2021 4:15:00 AM 10.83 51.494 0.185 7.51 3.84 9.77
4/11/2021 4:30:00 AM 10.8 51.44 0.185 7.51 3.99 9.78
4/11/2021 4:45:00 AM 10.77 51.386 0.185 7.51 3.93 9.79
4/11/2021 5:00:00 AM 10.74 51.332 0.185 7.51 3.82 9.79
4/11/2021 5:15:00 AM 10.7 51.26 0.185 7.51 3.92 9.8
4/11/2021 5:30:00 AM 10.67 51.206 0.185 7.51 3.98 9.81
4/11/2021 5:45:00 AM 10.64 51.152 0.185 7.51 3.87 9.82
4/11/2021 6:00:00 AM 10.61 51.098 0.185 7.51 3.93 9.82
4/11/2021 6:15:00 AM 10.59 51.062 0.185 7.51 3.9 9.83
4/11/2021 6:30:00 AM 10.56 51.008 0.185 7.51 4.49 9.83
4/11/2021 6:45:00 AM 10.53 50.954 0.186 7.51 3.99 9.85
4/11/2021 7:00:00 AM 10.51 50.918 0.186 7.51 3.93 9.86
4/11/2021 7:15:00 AM 10.49 50.882 0.186 7.51 4 9.89
4/11/2021 7:30:00 AM 10.48 50.864 0.186 7.52 3.96 9.93
4/11/2021 7:45:00 AM 10.47 50.846 0.186 7.52 3.91 10.01
4/11/2021 8:00:00 AM 10.48 50.864 0.186 7.54 3.89 10.08
4/11/2021 8:15:00 AM 10.5 50.9 0.186 7.55 3.87 10.16
4/11/2021 8:30:00 AM 10.53 50.954 0.186 7.57 3.72 10.25
4/11/2021 8:45:00 AM 10.57 51.026 0.186 7.59 4.61 10.36
4/11/2021 9:00:00 AM 10.63 51.134 0.186 7.62 3.97 10.46
4/11/2021 9:15:00 AM 10.66 51.188 0.186 7.65 3.79 10.52
4/11/2021 9:30:00 AM 10.7 51.26 0.185 7.67 3.65 10.58
4/11/2021 9:45:00 AM 10.74 51.332 0.185 7.69 3.81 10.64
4/11/2021 10:00:00 AM 10.8 51.44 0.185 7.72 3.86 10.69
4/11/2021 10:15:00 AM 10.84 51.512 0.185 7.74 3.74 10.72
4/11/2021 10:30:00 AM 10.9 51.62 0.184 7.76 3.8 10.75
4/11/2021 10:45:00 AM 10.94 51.692 0.184 7.78 3.84 10.77
4/11/2021 11:00:00 AM 10.97 51.746 0.184 7.79 3.89 10.77
4/11/2021 11:15:00 AM 11.02 51.836 0.184 7.81 3.79 10.79
4/11/2021 11:30:00 AM 11.06 51.908 0.183 7.82 3.86 10.81
4/11/2021 11:45:00 AM 11.11 51.998 0.183 7.84 3.72 10.83
4/11/2021 12:00:00 PM 11.16 52.088 0.183 7.85 3.88 10.84
4/11/2021 12:15:00 PM 11.19 52.142 0.182 7.86 3.88 10.84
4/11/2021 12:30:00 PM 11.25 52.25 0.182 7.88 3.84 10.85
4/11/2021 12:45:00 PM 11.37 52.466 0.182 7.9 3.87 10.9
4/11/2021 1:00:00 PM 11.47 52.646 0.182 7.93 3.95 10.93
4/11/2021 1:15:00 PM 11.55 52.79 0.182 7.95 3.86 10.95
4/11/2021 1:30:00 PM 11.6 52.88 0.182 7.97 3.85 10.97
4/11/2021 1:45:00 PM 11.68 53.024 0.182 7.99 3.78 10.98
4/11/2021 2:00:00 PM 11.73 53.114 0.181 8 3.85 10.96
4/11/2021 2:15:00 PM 11.78 53.204 0.181 8.01 3.92 10.94
4/11/2021 2:30:00 PM 11.83 53.294 0.181 8.02 3.84 10.93
4/11/2021 2:45:00 PM 11.86 53.348 0.181 8.03 4 10.89
4/11/2021 3:00:00 PM 11.88 53.384 0.181 8.02 3.97 10.86
4/11/2021 3:15:00 PM 11.91 53.438 0.181 8.02 3.93 10.84
4/11/2021 3:30:00 PM 11.95 53.51 0.181 8.03 4.01 10.84
4/11/2021 3:45:00 PM 11.95 53.51 0.18 8.02 3.89 10.79
4/11/2021 4:00:00 PM 11.96 53.528 0.18 8.02 3.95 10.76
4/11/2021 4:15:00 PM 11.96 53.528 0.181 8.01 3.86 10.69
4/11/2021 4:30:00 PM 11.97 53.546 0.181 7.99 3.93 10.64
4/11/2021 4:45:00 PM 11.99 53.582 0.181 7.98 4.03 10.63
4/11/2021 5:00:00 PM 12 53.6 0.18 7.98 4.06 10.6
4/11/2021 5:15:00 PM 11.98 53.564 0.181 7.96 4.5 10.53
4/11/2021 5:30:00 PM 11.97 53.546 0.18 7.93 4.11 10.49
4/11/2021 5:45:00 PM 11.95 53.51 0.18 7.9 4.95 10.4
4/11/2021 6:00:00 PM 11.93 53.474 0.18 7.87 5.26 10.35
4/11/2021 6:15:00 PM 11.9 53.42 0.179 7.83 6.55 10.28
4/11/2021 6:30:00 PM 11.87 53.366 0.178 7.8 7.25 10.21
4/11/2021 6:45:00 PM 11.83 53.294 0.178 7.76 7.95 10.16
4/11/2021 7:00:00 PM 11.79 53.222 0.178 7.72 8.1 10.09
4/11/2021 7:15:00 PM 11.72 53.096 0.175 7.67 13.05 10.03
4/11/2021 7:30:00 PM 11.66 52.988 0.173 7.62 19.47 9.98
4/11/2021 7:45:00 PM 11.62 52.916 0.171 7.58 19.61 9.94
4/11/2021 8:00:00 PM 11.57 52.826 0.169 7.55 21.12 9.9
4/11/2021 8:15:00 PM 11.52 52.736 0.169 7.53 19.14 9.87
4/11/2021 8:30:00 PM 11.47 52.646 0.169 7.51 18.14 9.84
4/11/2021 8:45:00 PM 11.43 52.574 0.172 7.5 15.35 9.83
4/11/2021 9:00:00 PM 11.39 52.502 0.177 7.49 14.07 9.81
4/11/2021 9:15:00 PM 11.36 52.448 0.182 7.47 13.28 9.8
4/11/2021 9:30:00 PM 11.32 52.376 0.185 7.47 12.8 9.8
4/11/2021 9:45:00 PM 11.29 52.322 0.185 7.46 12.33 9.8
4/11/2021 10:00:00 PM 11.25 52.25 0.183 7.46 12.34 9.81
4/11/2021 10:15:00 PM 11.21 52.178 0.18 7.45 11.62 9.82
4/11/2021 10:30:00 PM 11.18 52.124 0.176 7.44 11.9 9.84
4/11/2021 10:45:00 PM 11.14 52.052 0.173 7.43 12.59 9.85
4/11/2021 11:00:00 PM 11.1 51.98 0.17 7.43 13.3 9.86
4/11/2021 11:15:00 PM 11.06 51.908 0.169 7.43 14.53 9.87
4/11/2021 11:30:00 PM 11.03 51.854 0.169 7.43 16.08 9.9
4/11/2021 11:45:00 PM 11 51.8 0.169 7.4 16.78 9.88
4/12/2021 12:00:00 AM 10.97 51.746 0.17 7.39 15.51 9.89
4/12/2021 12:15:00 AM 10.95 51.71 0.171 7.4 15.29 9.9
4/12/2021 12:30:00 AM 10.92 51.656 0.172 7.4 14.37 9.93
4/12/2021 12:45:00 AM 10.89 51.602 0.172 7.39 15.62 9.94
4/12/2021 1:00:00 AM 10.86 51.548 0.172 7.37 14.1 9.96
4/12/2021 1:15:00 AM 10.82 51.476 0.172 7.36 14.27 9.98
4/12/2021 1:30:00 AM 10.79 51.422 0.171 7.35 13.74 9.98
4/12/2021 1:45:00 AM 10.75 51.35 0.171 7.34 13.8 10
4/12/2021 2:00:00 AM 10.71 51.278 0.169 7.33 14.17 10.01
4/12/2021 2:15:00 AM 10.67 51.206 0.167 7.32 13.68 10.02
4/12/2021 2:30:00 AM 10.63 51.134 0.166 7.32 14.79 10.03
4/12/2021 2:45:00 AM 10.59 51.062 0.163 7.31 14.21 10.04
4/12/2021 3:00:00 AM 10.55 50.99 0.161 7.31 14.29 10.05
4/12/2021 3:15:00 AM 10.51 50.918 0.16 7.29 13.73 10.06
4/12/2021 3:30:00 AM 10.47 50.846 0.158 7.28 13.83 10.07
4/12/2021 3:45:00 AM 10.42 50.756 0.157 7.27 13.46 10.08
4/12/2021 4:00:00 AM 10.38 50.684 0.157 7.27 13.74 10.08
4/12/2021 4:15:00 AM 10.34 50.612 0.156 7.27 12.94 10.09
4/12/2021 4:30:00 AM 10.3 50.54 0.156 7.28 13.37 10.11
4/12/2021 4:45:00 AM 10.26 50.468 0.155 7.27 13.18 10.12
4/12/2021 5:00:00 AM 10.21 50.378 0.155 7.27 12.67 10.13
4/12/2021 5:15:00 AM 10.17 50.306 0.154 7.27 11.84 10.15
4/12/2021 5:30:00 AM 10.13 50.234 0.154 7.27 11.62 10.16
4/12/2021 5:45:00 AM 10.09 50.162 0.153 7.27 11.65 10.17
4/12/2021 6:00:00 AM 10.04 50.072 0.153 7.27 11.54 10.18
4/12/2021 6:15:00 AM 10 50 0.153 7.26 11.08 10.19
4/12/2021 6:30:00 AM 9.95 49.91 0.153 7.27 10.89 10.21
4/12/2021 6:45:00 AM 9.9 49.82 0.153 7.26 10.52 10.22
4/12/2021 7:00:00 AM 9.85 49.73 0.153 7.26 10.66 10.25
4/12/2021 7:15:00 AM 9.81 49.658 0.153 7.27 9.85 10.26
4/12/2021 7:30:00 AM 9.75 49.55 0.152 7.26 10.22 10.27
4/12/2021 7:45:00 AM 9.71 49.478 0.152 7.26 9.87 10.3
4/12/2021 8:00:00 AM 9.66 49.388 0.152 7.26 9.51 10.32
4/12/2021 8:15:00 AM 9.62 49.316 0.152 7.26 9.46 10.35
4/12/2021 8:30:00 AM 9.58 49.244 0.152 7.26 9.39 10.36
4/12/2021 8:45:00 AM 9.54 49.172 0.152 7.27 8.97 10.38
4/12/2021 9:00:00 AM 9.5 49.1 0.152 7.28 8.63 10.41
4/12/2021 9:15:00 AM 9.45 49.01 0.152 7.28 8.54 10.45
4/12/2021 9:30:00 AM 9.41 48.938 0.152 7.28 8.35 10.49
4/12/2021 9:45:00 AM 9.36 48.848 0.152 7.3 8.47 10.53
4/12/2021 10:00:00 AM 9.32 48.776 0.151 7.32 8.42 10.57
4/12/2021 10:15:00 AM 9.28 48.704 0.151 7.32 8.02 10.6
4/12/2021 10:30:00 AM 9.24 48.632 0.151 7.34 8.21 10.66
4/12/2021 10:45:00 AM 9.21 48.578 0.151 7.34 485.93 10.71
4/12/2021 11:00:00 AM 9.17 48.506 0.15 7.35 7.74 10.76
4/12/2021 11:15:00 AM 9.14 48.452 0.15 7.35 7.3 10.79
4/12/2021 11:30:00 AM 9.11 48.398 0.15 7.36 7.36 10.82
4/12/2021 11:45:00 AM 9.08 48.344 0.15 7.37 7.49 10.85
4/12/2021 12:00:00 PM 9.05 48.29 0.149 7.36 7.95 10.88
4/12/2021 12:15:00 PM 9.02 48.236 0.149 7.37 7.07 10.91
4/12/2021 12:30:00 PM 9 48.2 0.149 7.37 7.22 10.94
4/12/2021 12:45:00 PM 8.98 48.164 0.149 7.39 7.29 10.97
4/12/2021 1:00:00 PM 8.96 48.128 0.149 7.4 6.71 10.99
4/12/2021 1:15:00 PM 8.94 48.092 0.148 7.42 6.91 11.01
4/12/2021 1:30:00 PM 8.92 48.056 0.148 7.42 6.97 11.03
4/12/2021 1:45:00 PM 8.91 48.038 0.148 7.43 6.4 11.05
4/12/2021 2:00:00 PM 8.9 48.02 0.148 7.44 6.36 11.06
4/12/2021 2:15:00 PM 8.89 48.002 0.148 7.47 6.47 11.09
4/12/2021 2:30:00 PM 8.88 47.984 0.148 7.47 6.41 11.1
4/12/2021 2:45:00 PM 8.86 47.948 0.148 7.48 6.32 11.1
4/12/2021 3:00:00 PM 8.85 47.93 0.147 7.49 6.24 11.11
4/12/2021 3:15:00 PM 8.83 47.894 0.147 7.49 6.27 11.11
4/12/2021 3:30:00 PM 8.81 47.858 0.147 7.49 6.16 11.11
4/12/2021 3:45:00 PM 8.79 47.822 0.147 7.49 5.96 11.12
4/12/2021 4:00:00 PM 8.79 47.822 0.147 7.5 6.27 11.14
4/12/2021 4:15:00 PM 8.78 47.804 0.147 7.5 6.15 11.14
4/12/2021 4:30:00 PM 8.77 47.786 0.147 7.5 6.15 11.14
4/12/2021 4:45:00 PM 8.76 47.768 0.147 7.49 5.91 11.14
4/12/2021 5:00:00 PM 8.74 47.732 0.147 7.49 5.72 11.12
4/12/2021 5:15:00 PM 8.73 47.714 0.147 7.48 5.87 11.1
4/12/2021 5:30:00 PM 8.71 47.678 0.147 7.48 5.76 11.09
4/12/2021 5:45:00 PM 8.69 47.642 0.147 7.47 6.03 11.07
4/12/2021 6:00:00 PM 8.66 47.588 0.147 7.45 6.06 11.04
4/12/2021 6:15:00 PM 8.63 47.534 0.147 7.45 5.97 11.02
4/12/2021 6:30:00 PM 8.61 47.498 0.147 7.44 5.9 11
4/12/2021 6:45:00 PM 8.58 47.444 0.147 7.43 5.88 10.98
4/12/2021 7:00:00 PM 8.55 47.39 0.147 7.43 5.8 10.97
4/12/2021 7:15:00 PM 8.52 47.336 0.146 7.42 5.91 10.94
4/12/2021 7:30:00 PM 8.49 47.282 0.146 7.41 5.77 10.92
4/12/2021 7:45:00 PM 8.46 47.228 0.146 7.4 6 10.91
4/12/2021 8:00:00 PM 8.43 47.174 0.146 7.39 6.05 10.88
4/12/2021 8:15:00 PM 8.4 47.12 0.146 7.39 6.21 10.87
4/12/2021 8:30:00 PM 8.37 47.066 0.146 7.39 6.3 10.86
4/12/2021 8:45:00 PM 8.35 47.03 0.146 7.39 6.06 10.84
4/12/2021 9:00:00 PM 8.32 46.976 0.146 7.37 6.3 10.84
4/12/2021 9:15:00 PM 8.29 46.922 0.146 7.37 6.52 10.84
4/12/2021 9:30:00 PM 8.27 46.886 0.146 7.37 6.39 10.85
4/12/2021 9:45:00 PM 8.24 46.832 0.145 7.36 6.58 10.85
4/12/2021 10:00:00 PM 8.21 46.778 0.145 7.36 6.46 10.86
4/12/2021 10:15:00 PM 8.19 46.742 0.145 7.35 6.64 10.87
4/12/2021 10:30:00 PM 8.16 46.688 0.145 7.35 6.96 10.87
4/12/2021 10:45:00 PM 8.13 46.634 0.144 7.33 6.8 10.88
4/12/2021 11:00:00 PM 8.1 46.58 0.144 7.32 6.64 10.89
4/12/2021 11:15:00 PM 8.08 46.544 0.144 7.31 6.71 10.89
4/12/2021 11:30:00 PM 8.05 46.49 0.143 7.3 6.81 10.9
4/12/2021 11:45:00 PM 8.02 46.436 0.143 7.29 7.35 10.92
4/13/2021 12:00:00 AM 8 46.4 0.142 7.29 7.14 10.92
4/13/2021 12:15:00 AM 7.98 46.364 0.142 7.28 7.42 10.93
4/13/2021 12:30:00 AM 7.95 46.31 0.142 7.26 6.99 10.93
4/13/2021 12:45:00 AM 7.93 46.274 0.142 7.25 6.93 10.94
4/13/2021 1:00:00 AM 7.9 46.22 0.142 7.25 7.07 10.94
4/13/2021 1:15:00 AM 7.87 46.166 0.142 7.25 7 10.95
4/13/2021 1:30:00 AM 7.85 46.13 0.141 7.25 7.33 10.96
4/13/2021 1:45:00 AM 7.83 46.094 0.141 7.25 6.91 10.96
4/13/2021 2:00:00 AM 7.8 46.04 0.141 7.25 7.12 10.97
4/13/2021 2:15:00 AM 7.78 46.004 0.141 7.25 7.58 10.98
4/13/2021 2:30:00 AM 7.76 45.968 0.141 7.25 7.95 10.99
4/13/2021 2:45:00 AM 7.73 45.914 0.14 7.25 7.4 11
4/13/2021 3:00:00 AM 7.71 45.878 0.14 7.24 8.13 11
4/13/2021 3:15:00 AM 7.69 45.842 0.139 7.24 7.61 11.02
4/13/2021 3:30:00 AM 7.67 45.806 0.139 7.23 7.44 11.01
4/13/2021 3:45:00 AM 7.64 45.752 0.139 7.23 7.58 11.03
4/13/2021 4:00:00 AM 7.62 45.716 0.138 7.23 7.84 11.04
4/13/2021 4:15:00 AM 7.59 45.662 0.138 7.22 7.69 11.04
4/13/2021 4:30:00 AM 7.56 45.608 0.138 7.23 7.97 11.05
4/13/2021 4:45:00 AM 7.52 45.536 0.138 7.23 7.52 11.06
4/13/2021 5:00:00 AM 7.47 45.446 0.138 7.22 7.21 11.07
4/13/2021 5:15:00 AM 7.43 45.374 0.138 7.22 7.68 11.09
4/13/2021 5:30:00 AM 7.38 45.284 0.137 7.22 7.78 11.1
4/13/2021 5:45:00 AM 7.34 45.212 0.137 7.22 7.69 11.11
4/13/2021 6:00:00 AM 7.3 45.14 0.137 7.22 7.55 11.11
4/13/2021 6:15:00 AM 7.26 45.068 0.137 7.22 7.57 11.13
4/13/2021 6:30:00 AM 7.22 44.996 0.137 7.22 7.79 11.14
4/13/2021 6:45:00 AM 7.17 44.906 0.137 7.22 7.26 11.17
4/13/2021 7:00:00 AM 7.13 44.834 0.136 7.22 7.18 11.19
4/13/2021 7:15:00 AM 7.08 44.744 0.136 7.22 7.33 11.22
4/13/2021 7:30:00 AM 7.04 44.672 0.136 7.22 7.33 11.25
4/13/2021 7:45:00 AM 7 44.6 0.136 7.23 6.98 11.3
4/13/2021 8:00:00 AM 6.99 44.582 0.135 7.24 6.72 11.33
4/13/2021 8:15:00 AM 6.99 44.582 0.135 7.25 6.8 11.38
4/13/2021 8:30:00 AM 7.01 44.618 0.135 7.27 6.37 11.42
4/13/2021 8:45:00 AM 7.03 44.654 0.135 7.28 6.77 11.46
4/13/2021 9:00:00 AM 7.07 44.726 0.134 7.3 6.36 11.51
4/13/2021 9:15:00 AM 7.14 44.852 0.134 7.31 6.32 11.54
4/13/2021 9:30:00 AM 7.23 45.014 0.134 7.33 6.12 11.58
4/13/2021 9:45:00 AM 7.34 45.212 0.134 7.35 6.28 11.61
4/13/2021 10:00:00 AM 7.48 45.464 0.134 7.37 6.28 11.63
4/13/2021 10:15:00 AM 7.63 45.734 0.133 7.39 5.87 11.65
4/13/2021 10:30:00 AM 7.77 45.986 0.133 7.41 5.95 11.66
4/13/2021 10:45:00 AM 7.92 46.256 0.133 7.43 5.76 11.65
4/13/2021 11:00:00 AM 8.16 46.688 0.133 7.46 5.94 11.66
4/13/2021 11:15:00 AM 8.38 47.084 0.133 7.5 6.04 11.64
4/13/2021 11:30:00 AM 8.6 47.48 0.132 7.51 5.71 11.62
4/13/2021 11:45:00 AM 8.81 47.858 0.132 7.53 5.77 11.61
4/13/2021 12:00:00 PM 9.05 48.29 0.132 7.54 5.76 11.59
4/13/2021 12:15:00 PM 9.28 48.704 0.132 7.56 5.6 11.55
4/13/2021 12:30:00 PM 9.58 49.244 0.132 7.58 5.57 11.52
4/13/2021 12:45:00 PM 9.87 49.766 0.132 7.6 5.45 11.47
4/13/2021 1:00:00 PM 10.18 50.324 0.132 7.61 5.87 11.43
4/13/2021 1:15:00 PM 10.44 50.792 0.132 7.62 5.48 11.37
4/13/2021 1:30:00 PM 10.69 51.242 0.131 7.63 5.93 11.33
4/13/2021 1:45:00 PM 10.91 51.638 0.131 7.64 5.16 11.29
4/13/2021 2:00:00 PM 11.12 52.016 0.131 7.65 5.36 11.25
4/13/2021 2:15:00 PM 11.3 52.34 0.131 7.66 5.19 11.21
4/13/2021 2:30:00 PM 11.47 52.646 0.131 7.66 5.89 11.17
4/13/2021 2:45:00 PM 11.62 52.916 0.131 7.67 5.29 11.14
4/13/2021 3:00:00 PM 11.72 53.096 0.131 7.67 4.95 11.08
4/13/2021 3:15:00 PM 11.79 53.222 0.131 7.68 5.04 11.04
4/13/2021 3:30:00 PM 11.73 53.114 0.131 7.68 5.11 11
4/13/2021 3:45:00 PM 11.69 53.042 0.131 7.67 5.33 10.98
4/13/2021 4:00:00 PM 11.65 52.97 0.131 7.67 5.17 10.97
4/13/2021 4:15:00 PM 11.64 52.952 0.131 7.67 5.09 10.96
4/13/2021 4:30:00 PM 11.58 52.844 0.131 7.66 5.1 10.94
4/13/2021 4:45:00 PM 11.52 52.736 0.131 7.64 4.84 10.89
4/13/2021 5:00:00 PM 11.56 52.808 0.131 7.63 5.19 10.86
4/13/2021 5:15:00 PM 11.57 52.826 0.131 7.64 5.01 10.83
4/13/2021 5:30:00 PM 11.52 52.736 0.131 7.63 4.98 10.78
4/13/2021 5:45:00 PM 11.48 52.664 0.131 7.61 4.9 10.73
4/13/2021 6:00:00 PM 11.43 52.574 0.131 7.59 4.97 10.69
4/13/2021 6:15:00 PM 11.37 52.466 0.131 7.57 4.96 10.64
4/13/2021 6:30:00 PM 11.32 52.376 0.131 7.55 4.99 10.59
4/13/2021 6:45:00 PM 11.29 52.322 0.131 7.53 5.01 10.53
4/13/2021 7:00:00 PM 11.28 52.304 0.131 7.52 5 10.48
4/13/2021 7:15:00 PM 11.27 52.286 0.131 7.5 5.15 10.43
4/13/2021 7:30:00 PM 11.24 52.232 0.131 7.48 5.04 10.38
4/13/2021 7:45:00 PM 11.22 52.196 0.131 7.47 4.99 10.35
4/13/2021 8:00:00 PM 11.18 52.124 0.131 7.45 5.36 10.3
4/13/2021 8:15:00 PM 11.16 52.088 0.131 7.44 5.35 10.26
4/13/2021 8:30:00 PM 11.15 52.07 0.132 7.42 5.34 10.21
4/13/2021 8:45:00 PM 11.14 52.052 0.132 7.4 5.22 10.18
4/13/2021 9:00:00 PM 11.14 52.052 0.132 7.39 5.16 10.16
4/13/2021 9:15:00 PM 11.13 52.034 0.132 7.38 5.26 10.13
4/13/2021 9:30:00 PM 11.12 52.016 0.132 7.37 5.2 10.11
4/13/2021 9:45:00 PM 11.09 51.962 0.132 7.37 5.53 10.11
4/13/2021 10:00:00 PM 11.06 51.908 0.132 7.37 5.43 10.1
4/13/2021 10:15:00 PM 11.01 51.818 0.132 7.35 5.37 10.1
4/13/2021 10:30:00 PM 10.95 51.71 0.132 7.34 5.4 10.1
4/13/2021 10:45:00 PM 10.9 51.62 0.132 7.33 5.38 10.11
4/13/2021 11:00:00 PM 10.83 51.494 0.132 7.33 5.29 10.11
4/13/2021 11:15:00 PM 10.76 51.368 0.132 7.33 5.42 10.12
4/13/2021 11:30:00 PM 10.68 51.224 0.132 7.32 5.3 10.15
4/13/2021 11:45:00 PM 10.6 51.08 0.132 7.32 5.1 10.16
4/14/2021 12:00:00 AM 10.51 50.918 0.132 7.31 5.24 10.18
4/14/2021 12:15:00 AM 10.42 50.756 0.132 7.31 5.3 10.2
4/14/2021 12:30:00 AM 10.32 50.576 0.133 7.31 5.26 10.23
4/14/2021 12:45:00 AM 10.22 50.396 0.133 7.31 5.62 10.25
4/14/2021 1:00:00 AM 10.12 50.216 0.133 7.31 5.3 10.28
4/14/2021 1:15:00 AM 10.02 50.036 0.133 7.31 5.51 10.31
4/14/2021 1:30:00 AM 9.92 49.856 0.133 7.3 5.66 10.31
4/14/2021 1:45:00 AM 9.83 49.694 0.133 7.29 5.36 10.34
4/14/2021 2:00:00 AM 9.73 49.514 0.133 7.29 5.33 10.38
4/14/2021 2:15:00 AM 9.64 49.352 0.133 7.28 5.36 10.4
4/14/2021 2:30:00 AM 9.54 49.172 0.133 7.28 5.45 10.43
4/14/2021 2:45:00 AM 9.45 49.01 0.133 7.28 5.27 10.46
4/14/2021 3:00:00 AM 9.35 48.83 0.133 7.28 5.18 10.47
4/14/2021 3:15:00 AM 9.26 48.668 0.133 7.28 5.18 10.51
4/14/2021 3:30:00 AM 9.17 48.506 0.133 7.28 5.41 10.53
4/14/2021 3:45:00 AM 9.08 48.344 0.133 7.27 6.63 10.56
4/14/2021 4:00:00 AM 8.99 48.182 0.133 7.28 5.49 10.58
4/14/2021 4:15:00 AM 8.89 48.002 0.133 7.28 5.39 10.61
4/14/2021 4:30:00 AM 8.81 47.858 0.133 7.28 6.8 10.63
4/14/2021 4:45:00 AM 8.74 47.732 0.133 7.27 5.4 10.66
4/14/2021 5:00:00 AM 8.67 47.606 0.133 7.27 5.16 10.68
4/14/2021 5:15:00 AM 8.6 47.48 0.133 7.26 5.19 10.7
4/14/2021 5:30:00 AM 8.53 47.354 0.133 7.27 5.07 10.73
4/14/2021 5:45:00 AM 8.46 47.228 0.133 7.27 5.3 10.75
4/14/2021 6:00:00 AM 8.4 47.12 0.133 7.27 4.95 10.77
4/14/2021 6:15:00 AM 8.34 47.012 0.133 7.27 5.28 10.78
4/14/2021 6:30:00 AM 8.28 46.904 0.133 7.28 5.28 10.8
4/14/2021 6:45:00 AM 8.23 46.814 0.133 7.28 5.09 10.83
4/14/2021 7:00:00 AM 8.19 46.742 0.133 7.28 4.93 10.85
4/14/2021 7:15:00 AM 8.14 46.652 0.133 7.28 5.01 10.88
4/14/2021 7:30:00 AM 8.1 46.58 0.133 7.29 4.88 10.92
4/14/2021 7:45:00 AM 8.08 46.544 0.133 7.3 4.96 10.98
4/14/2021 8:00:00 AM 8.06 46.508 0.133 7.32 4.88 11.05
4/14/2021 8:15:00 AM 8.06 46.508 0.133 7.33 4.67 11.12
4/14/2021 8:30:00 AM 8.08 46.544 0.133 7.34 4.63 11.19
4/14/2021 8:45:00 AM 8.1 46.58 0.133 7.36 4.57 11.25
4/14/2021 9:00:00 AM 8.16 46.688 0.132 7.38 4.64 11.32
4/14/2021 9:15:00 AM 8.2 46.76 0.132 7.4 4.57 11.38
4/14/2021 9:30:00 AM 8.26 46.868 0.132 7.42 4.44 11.42
4/14/2021 9:45:00 AM 8.32 46.976 0.132 7.44 4.5 11.45
4/14/2021 10:00:00 AM 8.41 47.138 0.132 7.47 4.71 11.5
4/14/2021 10:15:00 AM 8.5 47.3 0.132 7.49 4.37 11.52
4/14/2021 10:30:00 AM 8.66 47.588 0.131 7.52 4.52 11.53
4/14/2021 10:45:00 AM 8.84 47.912 0.131 7.55 4.32 11.55
4/14/2021 11:00:00 AM 8.98 48.164 0.131 7.56 4.34 11.55
4/14/2021 11:15:00 AM 9.21 48.578 0.131 7.58 4.17 11.55
4/14/2021 11:30:00 AM 9.48 49.064 0.131 7.61 4.35 11.54
4/14/2021 11:45:00 AM 9.72 49.496 0.131 7.63 4.35 11.51
4/14/2021 12:00:00 PM 9.88 49.784 0.131 7.64 4.18 11.46
4/14/2021 12:15:00 PM 10.15 50.27 0.131 7.66 4.21 11.43
4/14/2021 12:30:00 PM 10.32 50.576 0.131 7.68 4.27 11.39
4/14/2021 12:45:00 PM 10.32 50.576 0.131 7.68 4.16 11.34
4/14/2021 1:00:00 PM 10.41 50.738 0.13 7.68 4.05 11.32
4/14/2021 1:15:00 PM 10.47 50.846 0.13 7.69 4.16 11.28
4/14/2021 1:30:00 PM 10.49 50.882 0.13 7.68 4.16 11.21
4/14/2021 1:45:00 PM 10.51 50.918 0.13 7.67 3.95 11.15
4/14/2021 2:00:00 PM 10.55 50.99 0.13 7.66 4.2 11.11
4/14/2021 2:15:00 PM 10.56 51.008 0.13 7.66 4.1 11.07
4/14/2021 2:30:00 PM 10.57 51.026 0.13 7.65 4.28 11.05
4/14/2021 2:45:00 PM 10.69 51.242 0.13 7.66 4.38 11.06
4/14/2021 3:00:00 PM 10.83 51.494 0.13 7.68 4.32 11.08
4/14/2021 3:15:00 PM 10.75 51.35 0.13 7.69 4.2 11.08
4/14/2021 3:30:00 PM 10.76 51.368 0.13 7.68 4.37 11.07
4/14/2021 3:45:00 PM 10.83 51.494 0.13 7.69 4.35 11.08
4/14/2021 4:00:00 PM 10.81 51.458 0.13 7.69 4.67 11.06
4/14/2021 4:15:00 PM 10.82 51.476 0.13 7.69 4.74 11.05
4/14/2021 4:30:00 PM 10.88 51.584 0.13 7.7 4.78 11.04
4/14/2021 4:45:00 PM 10.91 51.638 0.13 7.71 4.59 11.03
4/14/2021 5:00:00 PM 10.95 51.71 0.129 7.7 4.72 10.99
4/14/2021 5:15:00 PM 10.95 51.71 0.129 7.69 4.52 10.95
4/14/2021 5:30:00 PM 10.9 51.62 0.129 7.68 4.56 10.91
4/14/2021 5:45:00 PM 10.84 51.512 0.129 7.65 4.67 10.87
4/14/2021 6:00:00 PM 10.79 51.422 0.129 7.63 4.19 10.81
4/14/2021 6:15:00 PM 10.76 51.368 0.129 7.6 5.38 10.74
4/14/2021 6:30:00 PM 10.74 51.332 0.129 7.57 4.32 10.67
4/14/2021 6:45:00 PM 10.71 51.278 0.129 7.54 4.33 10.61
4/14/2021 7:00:00 PM 10.67 51.206 0.129 7.51 4.35 10.55
4/14/2021 7:15:00 PM 10.63 51.134 0.129 7.49 4.42 10.5
4/14/2021 7:30:00 PM 10.59 51.062 0.129 7.47 4.24 10.45
4/14/2021 7:45:00 PM 10.55 50.99 0.129 7.45 4.38 10.41
4/14/2021 8:00:00 PM 10.5 50.9 0.129 7.44 4.25 10.38
4/14/2021 8:15:00 PM 10.46 50.828 0.129 7.42 4.59 10.35
4/14/2021 8:30:00 PM 10.42 50.756 0.129 7.41 4.73 10.33
4/14/2021 8:45:00 PM 10.38 50.684 0.129 7.41 4.91 10.32
4/14/2021 9:00:00 PM 10.35 50.63 0.13 7.4 5.76 10.3
4/14/2021 9:15:00 PM 10.31 50.558 0.13 7.39 4.56 10.29
4/14/2021 9:30:00 PM 10.28 50.504 0.13 7.39 4.89 10.28
4/14/2021 9:45:00 PM 10.24 50.432 0.13 7.38 4.91 10.28
4/14/2021 10:00:00 PM 10.2 50.36 0.13 7.38 5.01 10.28
4/14/2021 10:15:00 PM 10.17 50.306 0.13 7.38 4.82 10.28
4/14/2021 10:30:00 PM 10.14 50.252 0.13 7.37 4.79 10.28
4/14/2021 10:45:00 PM 10.11 50.198 0.13 7.37 4.77 10.29
4/14/2021 11:00:00 PM 10.07 50.126 0.13 7.37 5.61 10.28
4/14/2021 11:15:00 PM 10.03 50.054 0.13 7.37 5.17 10.29
4/14/2021 11:30:00 PM 9.99 49.982 0.13 7.36 5.25 10.3
4/14/2021 11:45:00 PM 9.95 49.91 0.13 7.36 5.1 10.3
4/15/2021 12:00:00 AM 9.91 49.838 0.13 7.36 4.55 10.31
4/15/2021 12:15:00 AM 9.86 49.748 0.13 7.35 4.58 10.32
4/15/2021 12:30:00 AM 9.83 49.694 0.13 7.35 4.69 10.33
4/15/2021 12:45:00 AM 9.79 49.622 0.13 7.35 4.58 10.34
4/15/2021 1:00:00 AM 9.75 49.55 0.13 7.35 4.59 10.34
4/15/2021 1:15:00 AM 9.71 49.478 0.13 7.35 4.84 10.35
4/15/2021 1:30:00 AM 9.67 49.406 0.13 7.35 4.75 10.36
4/15/2021 1:45:00 AM 9.63 49.334 0.13 7.34 4.47 10.36
4/15/2021 2:00:00 AM 9.6 49.28 0.131 7.34 4.62 10.37
4/15/2021 2:15:00 AM 9.56 49.208 0.131 7.34 4.72 10.38
4/15/2021 2:30:00 AM 9.52 49.136 0.131 7.34 4.64 10.39
4/15/2021 2:45:00 AM 9.48 49.064 0.131 7.33 4.81 10.4
4/15/2021 3:00:00 AM 9.43 48.974 0.131 7.33 4.79 10.41
4/15/2021 3:15:00 AM 9.39 48.902 0.131 7.33 4.65 10.42
4/15/2021 3:30:00 AM 9.35 48.83 0.131 7.32 4.54 10.43
4/15/2021 3:45:00 AM 9.31 48.758 0.131 7.32 4.57 10.43
4/15/2021 4:00:00 AM 9.26 48.668 0.131 7.32 4.74 10.44
4/15/2021 4:15:00 AM 9.22 48.596 0.131 7.32 4.65 10.45
4/15/2021 4:30:00 AM 9.18 48.524 0.131 7.32 4.79 10.46
4/15/2021 4:45:00 AM 9.13 48.434 0.131 7.32 4.65 10.48
4/15/2021 5:00:00 AM 9.09 48.362 0.131 7.31 4.5 10.49
4/15/2021 5:15:00 AM 9.04 48.272 0.131 7.32 4.63 10.5
4/15/2021 5:30:00 AM 8.99 48.182 0.131 7.31 4.73 10.51
4/15/2021 5:45:00 AM 8.93 48.074 0.131 7.31 4.54 10.52
4/15/2021 6:00:00 AM 8.87 47.966 0.132 7.31 4.61 10.53
4/15/2021 6:15:00 AM 8.82 47.876 0.132 7.31 4.57 10.55
4/15/2021 6:30:00 AM 8.76 47.768 0.132 7.31 4.6 10.57
4/15/2021 6:45:00 AM 8.71 47.678 0.132 7.31 4.58 10.58
4/15/2021 7:00:00 AM 8.67 47.606 0.132 7.31 4.59 10.61
4/15/2021 7:15:00 AM 8.62 47.516 0.132 7.31 4.76 10.65
4/15/2021 7:30:00 AM 8.59 47.462 0.132 7.32 4.56 10.68
4/15/2021 7:45:00 AM 8.56 47.408 0.132 7.33 4.6 10.74
4/15/2021 8:00:00 AM 8.54 47.372 0.131 7.34 4.62 10.8
4/15/2021 8:15:00 AM 8.52 47.336 0.131 7.36 4.54 10.85
4/15/2021 8:30:00 AM 8.52 47.336 0.131 7.37 4.37 10.92
4/15/2021 8:45:00 AM 8.53 47.354 0.131 7.39 4.39 10.99
4/15/2021 9:00:00 AM 8.54 47.372 0.131 7.41 4.3 11.07
4/15/2021 9:15:00 AM 8.56 47.408 0.131 7.43 4.25 11.13
4/15/2021 9:30:00 AM 8.59 47.462 0.13 7.45 4.32 11.2
4/15/2021 9:45:00 AM 8.64 47.552 0.13 7.47 4.22 11.27
4/15/2021 10:00:00 AM 8.69 47.642 0.13 7.5 4.25 11.32
4/15/2021 10:15:00 AM 8.7 47.66 0.13 7.51 4.22 11.34
4/15/2021 10:30:00 AM 8.75 47.75 0.13 7.53 4.13 11.37
4/15/2021 10:45:00 AM 8.77 47.786 0.13 7.54 4.08 11.39
4/15/2021 11:00:00 AM 8.78 47.804 0.13 7.56 4.06 11.41
4/15/2021 11:15:00 AM 8.78 47.804 0.13 7.57 4.12 11.41
4/15/2021 11:30:00 AM 8.78 47.804 0.13 7.58 4.1 11.41
4/15/2021 11:45:00 AM 8.75 47.75 0.13 7.57 4.14 11.4
4/15/2021 12:00:00 PM 8.72 47.696 0.129 7.57 4.1 11.38
4/15/2021 12:15:00 PM 8.71 47.678 0.129 7.57 4.1 11.37
4/15/2021 12:30:00 PM 8.69 47.642 0.129 7.57 4.16 11.37
4/15/2021 12:45:00 PM 8.65 47.57 0.129 7.57 4.08 11.38
4/15/2021 1:00:00 PM 8.64 47.552 0.129 7.57 4.03 11.38
4/15/2021 1:15:00 PM 8.61 47.498 0.129 7.58 4.04 11.39
4/15/2021 1:30:00 PM 8.59 47.462 0.129 7.59 4.07 11.41
4/15/2021 1:45:00 PM 8.57 47.426 0.129 7.59 4.05 11.42
4/15/2021 2:00:00 PM 8.55 47.39 0.129 7.59 4.06 11.43
4/15/2021 2:15:00 PM 8.56 47.408 0.129 7.6 4.07 11.46
4/15/2021 2:30:00 PM 8.57 47.426 0.129 7.61 4.16 11.49
4/15/2021 2:45:00 PM 8.62 47.516 0.128 7.63 4.31 11.52
4/15/2021 3:00:00 PM 8.61 47.498 0.128 7.63 4.25 11.51
4/15/2021 3:15:00 PM 8.66 47.588 0.128 7.65 4.25 11.53
4/15/2021 3:30:00 PM 8.66 47.588 0.128 7.66 4.16 11.55
4/15/2021 3:45:00 PM 8.66 47.588 0.128 7.66 4.2 11.54
4/15/2021 4:00:00 PM 8.66 47.588 0.128 7.67 4.28 11.53
4/15/2021 4:15:00 PM 8.67 47.606 0.128 7.68 4.28 11.53
4/15/2021 4:30:00 PM 8.67 47.606 0.128 7.68 4.21 11.52
4/15/2021 4:45:00 PM 8.67 47.606 0.128 7.68 4.27 11.52
4/15/2021 5:00:00 PM 8.66 47.588 0.128 7.69 4.18 11.5
4/15/2021 5:15:00 PM 8.64 47.552 0.128 7.67 4.36 11.49
4/15/2021 5:30:00 PM 8.61 47.498 0.128 7.65 4.35 11.46
4/15/2021 5:45:00 PM 8.57 47.426 0.128 7.64 4.31 11.43
4/15/2021 6:00:00 PM 8.52 47.336 0.129 7.61 4.17 11.4
4/15/2021 6:15:00 PM 8.47 47.246 0.129 7.59 4.35 11.37
4/15/2021 6:30:00 PM 8.43 47.174 0.129 7.57 4.34 11.33
4/15/2021 6:45:00 PM 8.38 47.084 0.129 7.56 4.2 11.29
4/15/2021 7:00:00 PM 8.32 46.976 0.129 7.55 4.29 11.24
4/15/2021 7:15:00 PM 8.26 46.868 0.129 7.53 4.25 11.19
4/15/2021 7:30:00 PM 8.2 46.76 0.129 7.5 4.34 11.14
4/15/2021 7:45:00 PM 8.14 46.652 0.13 7.48 4.29 11.09
4/15/2021 8:00:00 PM 8.08 46.544 0.13 7.47 4.75 11.06
4/15/2021 8:15:00 PM 8.03 46.454 0.13 7.44 4.39 11.03
4/15/2021 8:30:00 PM 7.98 46.364 0.13 7.43 4.49 11
4/15/2021 8:45:00 PM 7.93 46.274 0.13 7.41 4.66 10.97
4/15/2021 9:00:00 PM 7.89 46.202 0.131 7.39 4.5 10.96
4/15/2021 9:15:00 PM 7.84 46.112 0.131 7.39 4.59 10.95
4/15/2021 9:30:00 PM 7.81 46.058 0.131 7.38 4.56 10.95
4/15/2021 9:45:00 PM 7.77 45.986 0.131 7.38 4.46 10.95
4/15/2021 10:00:00 PM 7.74 45.932 0.131 7.37 4.6 10.94
4/15/2021 10:15:00 PM 7.7 45.86 0.131 7.37 4.74 10.95
4/15/2021 10:30:00 PM 7.66 45.788 0.131 7.37 4.7 10.95
4/15/2021 10:45:00 PM 7.62 45.716 0.132 7.36 5.75 10.96
4/15/2021 11:00:00 PM 7.58 45.644 0.132 7.36 4.93 10.96
4/15/2021 11:15:00 PM 7.53 45.554 0.132 7.36 4.73 10.97
4/15/2021 11:30:00 PM 7.49 45.482 0.132 7.36 4.65 10.98
4/15/2021 11:45:00 PM 7.46 45.428 0.132 7.36 4.46 10.97
4/16/2021 12:00:00 AM 7.42 45.356 0.132 7.36 4.47 10.98
4/16/2021 12:15:00 AM 7.38 45.284 0.132 7.35 4.41 10.99
4/16/2021 12:30:00 AM 7.34 45.212 0.132 7.35 4.34 11
4/16/2021 12:45:00 AM 7.3 45.14 0.132 7.34 4.45 11.01
4/16/2021 1:00:00 AM 7.26 45.068 0.132 7.34 4.38 11.02
4/16/2021 1:15:00 AM 7.22 44.996 0.132 7.35 4.43 11.03
4/16/2021 1:30:00 AM 7.18 44.924 0.132 7.35 4.58 11.03
4/16/2021 1:45:00 AM 7.15 44.87 0.132 7.35 4.48 11.04
4/16/2021 2:00:00 AM 7.11 44.798 0.132 7.34 4.5 11.05
4/16/2021 2:15:00 AM 7.07 44.726 0.132 7.34 4.48 11.06
4/16/2021 2:30:00 AM 7.04 44.672 0.132 7.33 4.56 11.07
4/16/2021 2:45:00 AM 7 44.6 0.132 7.33 4.52 11.08
4/16/2021 3:00:00 AM 6.97 44.546 0.132 7.33 4.53 11.09
4/16/2021 3:15:00 AM 6.93 44.474 0.132 7.32 4.77 11.1
4/16/2021 3:30:00 AM 6.89 44.402 0.132 7.32 4.66 11.11
4/16/2021 3:45:00 AM 6.85 44.33 0.132 7.32 4.47 11.12
4/16/2021 4:00:00 AM 6.81 44.258 0.132 7.32 4.72 11.13
4/16/2021 4:15:00 AM 6.78 44.204 0.132 7.31 4.4 11.14
4/16/2021 4:30:00 AM 6.74 44.132 0.132 7.32 4.51 11.15
4/16/2021 4:45:00 AM 6.71 44.078 0.132 7.32 4.46 11.15
4/16/2021 5:00:00 AM 6.67 44.006 0.132 7.31 4.3 11.17
4/16/2021 5:15:00 AM 6.64 43.952 0.132 7.31 4.38 11.17
4/16/2021 5:30:00 AM 6.61 43.898 0.132 7.32 4.4 11.18
4/16/2021 5:45:00 AM 6.58 43.844 0.132 7.32 4.3 11.19
4/16/2021 6:00:00 AM 6.55 43.79 0.132 7.32 4.36 11.2
4/16/2021 6:15:00 AM 6.51 43.718 0.132 7.32 4.29 11.21
4/16/2021 6:30:00 AM 6.48 43.664 0.132 7.32 4.54 11.22
4/16/2021 6:45:00 AM 6.45 43.61 0.132 7.33 4.42 11.23
4/16/2021 7:00:00 AM 6.42 43.556 0.132 7.33 4.34 11.24
4/16/2021 7:15:00 AM 6.38 43.484 0.132 7.32 4.58 11.26
4/16/2021 7:30:00 AM 6.34 43.412 0.132 7.32 4.55 11.29
4/16/2021 7:45:00 AM 6.31 43.358 0.132 7.32 4.45 11.31
4/16/2021 8:00:00 AM 6.28 43.304 0.132 7.33 4.5 11.35
4/16/2021 8:15:00 AM 6.25 43.25 0.132 7.34 4.53 11.39
4/16/2021 8:30:00 AM 6.24 43.232 0.132 7.35 4.5 11.46
4/16/2021 8:45:00 AM 6.23 43.214 0.132 7.35 4.41 11.52
4/16/2021 9:00:00 AM 6.22 43.196 0.132 7.36 4.41 11.58
4/16/2021 9:15:00 AM 6.22 43.196 0.132 7.38 4.34 11.66
4/16/2021 9:30:00 AM 6.24 43.232 0.132 7.4 4.23 11.73
4/16/2021 9:45:00 AM 6.25 43.25 0.132 7.41 4.49 11.79
4/16/2021 10:00:00 AM 6.28 43.304 0.132 7.42 4.28 11.84
4/16/2021 10:15:00 AM 6.3 43.34 0.131 7.44 4.36 11.89
4/16/2021 10:30:00 AM 6.32 43.376 0.131 7.46 4.44 11.93
4/16/2021 10:45:00 AM 6.36 43.448<